<?xml version="1.0" encoding="UTF-8" standalone="no" ?>
<gpx xmlns="http://www.topografix.com/GPX/1/1" xmlns:xsi="http://www.w3.org/2001/XMLSchema-instance" xsi:schemaLocation="http://www.topografix.com/GPX/1/1 http://www.topografix.com/GPX/1/1/gpx.xsd" version="1.1" creator="VisuGPX - https://www.visugpx.com">
  <metadata>
    <name>Saint Maxire 8Km</name>
    <desc><![CDATA[Lieu de rendez vous:
[url]https://goo.gl/maps/2tawNnWxxvM6LVsH7[/url]]]></desc>
  </metadata>
  <wpt lat="46.40381" lon="-0.45846">
    <ele>24.7</ele>
  </wpt>
  <wpt lat="46.41257" lon="-0.45044">
    <ele>59.4</ele>
  </wpt>
  <wpt lat="46.41386" lon="-0.4556">
    <ele>29.9</ele>
  </wpt>
  <wpt lat="46.41424" lon="-0.45707">
    <ele>27.4</ele>
  </wpt>
  <wpt lat="46.40651" lon="-0.474">
    <ele>52.4</ele>
  </wpt>
  <wpt lat="46.40215" lon="-0.47652">
    <ele>23.5</ele>
  </wpt>
  <wpt lat="46.40006" lon="-0.47643">
    <ele>32</ele>
  </wpt>
  <wpt lat="46.3998" lon="-0.47651">
    <ele>31.3</ele>
  </wpt>
  <wpt lat="46.39924" lon="-0.47661">
    <ele>27.3</ele>
  </wpt>
  <trk>
    <name><![CDATA[Saint Maxire 8Km_1]]></name>
    <trkseg>
      <trkpt lat="46.39919" lon="-0.47704">
        <ele>28</ele>
        <time>2013-12-10T13:59:38Z</time>
      </trkpt>
      <trkpt lat="46.39919" lon="-0.47701">
        <ele>28</ele>
        <time>2013-12-10T13:59:43Z</time>
      </trkpt>
      <trkpt lat="46.39919" lon="-0.477">
        <ele>28</ele>
        <time>2013-12-10T13:59:48Z</time>
      </trkpt>
      <trkpt lat="46.39919" lon="-0.477">
        <ele>28</ele>
        <time>2013-12-10T13:59:53Z</time>
      </trkpt>
      <trkpt lat="46.39919" lon="-0.47699">
        <ele>28</ele>
        <time>2013-12-10T13:59:58Z</time>
      </trkpt>
      <trkpt lat="46.39917" lon="-0.47698">
        <ele>28</ele>
        <time>2013-12-10T14:00:03Z</time>
      </trkpt>
      <trkpt lat="46.39917" lon="-0.47699">
        <ele>28</ele>
        <time>2013-12-10T14:00:08Z</time>
      </trkpt>
      <trkpt lat="46.39915" lon="-0.47698">
        <ele>28</ele>
        <time>2013-12-10T14:00:13Z</time>
      </trkpt>
      <trkpt lat="46.39915" lon="-0.4769">
        <ele>28</ele>
        <time>2013-12-10T14:00:18Z</time>
      </trkpt>
      <trkpt lat="46.39916" lon="-0.47681">
        <ele>28</ele>
        <time>2013-12-10T14:00:23Z</time>
      </trkpt>
      <trkpt lat="46.39917" lon="-0.47675">
        <ele>28</ele>
        <time>2013-12-10T14:00:28Z</time>
      </trkpt>
      <trkpt lat="46.3992" lon="-0.47665">
        <ele>28</ele>
        <time>2013-12-10T14:00:33Z</time>
      </trkpt>
      <trkpt lat="46.39921" lon="-0.47662">
        <ele>28</ele>
        <time>2013-12-10T14:00:38Z</time>
      </trkpt>
      <trkpt lat="46.39924" lon="-0.47661">
        <ele>28</ele>
        <time>2013-12-10T14:00:43Z</time>
      </trkpt>
      <trkpt lat="46.39928" lon="-0.47659">
        <ele>28</ele>
        <time>2013-12-10T14:00:48Z</time>
      </trkpt>
      <trkpt lat="46.3993" lon="-0.4766">
        <ele>28</ele>
        <time>2013-12-10T14:00:53Z</time>
      </trkpt>
      <trkpt lat="46.39941" lon="-0.47662">
        <ele>28</ele>
        <time>2013-12-10T14:00:58Z</time>
      </trkpt>
      <trkpt lat="46.39944" lon="-0.47659">
        <ele>28</ele>
        <time>2013-12-10T14:01:03Z</time>
      </trkpt>
      <trkpt lat="46.39943" lon="-0.4766">
        <ele>28</ele>
        <time>2013-12-10T14:01:08Z</time>
      </trkpt>
      <trkpt lat="46.39947" lon="-0.47657">
        <ele>28</ele>
        <time>2013-12-10T14:01:13Z</time>
      </trkpt>
      <trkpt lat="46.39951" lon="-0.47652">
        <ele>28</ele>
        <time>2013-12-10T14:01:18Z</time>
      </trkpt>
      <trkpt lat="46.39959" lon="-0.47651">
        <ele>29</ele>
        <time>2013-12-10T14:01:23Z</time>
      </trkpt>
      <trkpt lat="46.39961" lon="-0.4765">
        <ele>29</ele>
        <time>2013-12-10T14:01:28Z</time>
      </trkpt>
      <trkpt lat="46.39962" lon="-0.47648">
        <ele>29</ele>
        <time>2013-12-10T14:01:33Z</time>
      </trkpt>
      <trkpt lat="46.39968" lon="-0.47648">
        <ele>29</ele>
        <time>2013-12-10T14:01:38Z</time>
      </trkpt>
      <trkpt lat="46.3997" lon="-0.47649">
        <ele>29</ele>
        <time>2013-12-10T14:01:43Z</time>
      </trkpt>
      <trkpt lat="46.39978" lon="-0.47654">
        <ele>29</ele>
        <time>2013-12-10T14:01:48Z</time>
      </trkpt>
      <trkpt lat="46.39983" lon="-0.47655">
        <ele>29</ele>
        <time>2013-12-10T14:01:53Z</time>
      </trkpt>
      <trkpt lat="46.39989" lon="-0.47659">
        <ele>29</ele>
        <time>2013-12-10T14:01:58Z</time>
      </trkpt>
      <trkpt lat="46.3999" lon="-0.47657">
        <ele>29</ele>
        <time>2013-12-10T14:02:03Z</time>
      </trkpt>
      <trkpt lat="46.39995" lon="-0.47654">
        <ele>29</ele>
        <time>2013-12-10T14:02:08Z</time>
      </trkpt>
      <trkpt lat="46.4" lon="-0.47652">
        <ele>29</ele>
        <time>2013-12-10T14:02:13Z</time>
      </trkpt>
      <trkpt lat="46.40009" lon="-0.47646">
        <ele>29</ele>
        <time>2013-12-10T14:02:18Z</time>
      </trkpt>
      <trkpt lat="46.40014" lon="-0.4764">
        <ele>29</ele>
        <time>2013-12-10T14:02:23Z</time>
      </trkpt>
      <trkpt lat="46.40018" lon="-0.47633">
        <ele>29</ele>
        <time>2013-12-10T14:02:28Z</time>
      </trkpt>
      <trkpt lat="46.40022" lon="-0.47627">
        <ele>29</ele>
        <time>2013-12-10T14:02:33Z</time>
      </trkpt>
      <trkpt lat="46.40025" lon="-0.47622">
        <ele>27</ele>
        <time>2013-12-10T14:02:38Z</time>
      </trkpt>
      <trkpt lat="46.40028" lon="-0.47619">
        <ele>27</ele>
        <time>2013-12-10T14:02:43Z</time>
      </trkpt>
      <trkpt lat="46.40032" lon="-0.47615">
        <ele>27</ele>
        <time>2013-12-10T14:02:48Z</time>
      </trkpt>
      <trkpt lat="46.40037" lon="-0.4761">
        <ele>27</ele>
        <time>2013-12-10T14:02:53Z</time>
      </trkpt>
      <trkpt lat="46.4004" lon="-0.47604">
        <ele>27</ele>
        <time>2013-12-10T14:02:58Z</time>
      </trkpt>
      <trkpt lat="46.40046" lon="-0.47599">
        <ele>27</ele>
        <time>2013-12-10T14:03:03Z</time>
      </trkpt>
      <trkpt lat="46.40052" lon="-0.47597">
        <ele>27</ele>
        <time>2013-12-10T14:03:08Z</time>
      </trkpt>
      <trkpt lat="46.40057" lon="-0.47594">
        <ele>27</ele>
        <time>2013-12-10T14:03:13Z</time>
      </trkpt>
      <trkpt lat="46.40061" lon="-0.47584">
        <ele>27</ele>
        <time>2013-12-10T14:03:18Z</time>
      </trkpt>
      <trkpt lat="46.40066" lon="-0.4758">
        <ele>27</ele>
        <time>2013-12-10T14:03:23Z</time>
      </trkpt>
      <trkpt lat="46.4007" lon="-0.47574">
        <ele>27</ele>
        <time>2013-12-10T14:03:28Z</time>
      </trkpt>
      <trkpt lat="46.40074" lon="-0.47574">
        <ele>27</ele>
        <time>2013-12-10T14:03:33Z</time>
      </trkpt>
      <trkpt lat="46.40076" lon="-0.47573">
        <ele>27</ele>
        <time>2013-12-10T14:03:38Z</time>
      </trkpt>
      <trkpt lat="46.40076" lon="-0.47573">
        <ele>27</ele>
        <time>2013-12-10T14:03:43Z</time>
      </trkpt>
      <trkpt lat="46.40077" lon="-0.47573">
        <ele>27</ele>
        <time>2013-12-10T14:03:53Z</time>
      </trkpt>
      <trkpt lat="46.40086" lon="-0.47573">
        <ele>27</ele>
        <time>2013-12-10T14:03:58Z</time>
      </trkpt>
      <trkpt lat="46.40088" lon="-0.47571">
        <ele>27</ele>
        <time>2013-12-10T14:04:03Z</time>
      </trkpt>
      <trkpt lat="46.40097" lon="-0.47564">
        <ele>27</ele>
        <time>2013-12-10T14:04:08Z</time>
      </trkpt>
      <trkpt lat="46.40105" lon="-0.47558">
        <ele>27</ele>
        <time>2013-12-10T14:04:13Z</time>
      </trkpt>
      <trkpt lat="46.4011" lon="-0.47554">
        <ele>27</ele>
        <time>2013-12-10T14:04:18Z</time>
      </trkpt>
      <trkpt lat="46.40115" lon="-0.47549">
        <ele>27</ele>
        <time>2013-12-10T14:04:23Z</time>
      </trkpt>
      <trkpt lat="46.40116" lon="-0.4755">
        <ele>27</ele>
        <time>2013-12-10T14:04:28Z</time>
      </trkpt>
      <trkpt lat="46.40117" lon="-0.47548">
        <ele>27</ele>
        <time>2013-12-10T14:04:33Z</time>
      </trkpt>
      <trkpt lat="46.40124" lon="-0.47534">
        <ele>28</ele>
        <time>2013-12-10T14:04:38Z</time>
      </trkpt>
      <trkpt lat="46.40131" lon="-0.47524">
        <ele>30</ele>
        <time>2013-12-10T14:04:43Z</time>
      </trkpt>
      <trkpt lat="46.4013" lon="-0.47517">
        <ele>30</ele>
        <time>2013-12-10T14:04:48Z</time>
      </trkpt>
      <trkpt lat="46.40129" lon="-0.4751">
        <ele>30</ele>
        <time>2013-12-10T14:04:53Z</time>
      </trkpt>
      <trkpt lat="46.40129" lon="-0.47503">
        <ele>30</ele>
        <time>2013-12-10T14:04:58Z</time>
      </trkpt>
      <trkpt lat="46.40129" lon="-0.47497">
        <ele>30</ele>
        <time>2013-12-10T14:05:03Z</time>
      </trkpt>
      <trkpt lat="46.40127" lon="-0.4749">
        <ele>30</ele>
        <time>2013-12-10T14:05:08Z</time>
      </trkpt>
      <trkpt lat="46.40123" lon="-0.47482">
        <ele>28</ele>
        <time>2013-12-10T14:05:13Z</time>
      </trkpt>
      <trkpt lat="46.40119" lon="-0.47472">
        <ele>28</ele>
        <time>2013-12-10T14:05:18Z</time>
      </trkpt>
      <trkpt lat="46.40116" lon="-0.47465">
        <ele>28</ele>
        <time>2013-12-10T14:05:23Z</time>
      </trkpt>
      <trkpt lat="46.40117" lon="-0.47458">
        <ele>28</ele>
        <time>2013-12-10T14:05:28Z</time>
      </trkpt>
      <trkpt lat="46.40117" lon="-0.4745">
        <ele>28</ele>
        <time>2013-12-10T14:05:33Z</time>
      </trkpt>
      <trkpt lat="46.40116" lon="-0.47441">
        <ele>28</ele>
        <time>2013-12-10T14:05:38Z</time>
      </trkpt>
      <trkpt lat="46.40118" lon="-0.47434">
        <ele>28</ele>
        <time>2013-12-10T14:05:43Z</time>
      </trkpt>
      <trkpt lat="46.40119" lon="-0.47425">
        <ele>28</ele>
        <time>2013-12-10T14:05:48Z</time>
      </trkpt>
      <trkpt lat="46.40118" lon="-0.47413">
        <ele>28</ele>
        <time>2013-12-10T14:05:53Z</time>
      </trkpt>
      <trkpt lat="46.4012" lon="-0.4741">
        <ele>28</ele>
        <time>2013-12-10T14:05:58Z</time>
      </trkpt>
      <trkpt lat="46.40114" lon="-0.47403">
        <ele>28</ele>
        <time>2013-12-10T14:06:03Z</time>
      </trkpt>
      <trkpt lat="46.40118" lon="-0.4739">
        <ele>28</ele>
        <time>2013-12-10T14:06:08Z</time>
      </trkpt>
      <trkpt lat="46.40118" lon="-0.47381">
        <ele>28</ele>
        <time>2013-12-10T14:06:13Z</time>
      </trkpt>
      <trkpt lat="46.40117" lon="-0.47372">
        <ele>31</ele>
        <time>2013-12-10T14:06:18Z</time>
      </trkpt>
      <trkpt lat="46.40115" lon="-0.47364">
        <ele>31</ele>
        <time>2013-12-10T14:06:23Z</time>
      </trkpt>
      <trkpt lat="46.40115" lon="-0.47357">
        <ele>31</ele>
        <time>2013-12-10T14:06:28Z</time>
      </trkpt>
      <trkpt lat="46.40115" lon="-0.47353">
        <ele>31</ele>
        <time>2013-12-10T14:06:33Z</time>
      </trkpt>
      <trkpt lat="46.40115" lon="-0.47346">
        <ele>31</ele>
        <time>2013-12-10T14:06:38Z</time>
      </trkpt>
      <trkpt lat="46.40115" lon="-0.47347">
        <ele>31</ele>
        <time>2013-12-10T14:06:43Z</time>
      </trkpt>
      <trkpt lat="46.40115" lon="-0.47345">
        <ele>31</ele>
        <time>2013-12-10T14:06:48Z</time>
      </trkpt>
      <trkpt lat="46.40115" lon="-0.47345">
        <ele>31</ele>
        <time>2013-12-10T14:06:53Z</time>
      </trkpt>
      <trkpt lat="46.40115" lon="-0.47337">
        <ele>31</ele>
        <time>2013-12-10T14:06:58Z</time>
      </trkpt>
      <trkpt lat="46.40115" lon="-0.47333">
        <ele>31</ele>
        <time>2013-12-10T14:07:03Z</time>
      </trkpt>
      <trkpt lat="46.40115" lon="-0.47332">
        <ele>31</ele>
        <time>2013-12-10T14:07:08Z</time>
      </trkpt>
      <trkpt lat="46.40115" lon="-0.47332">
        <ele>31</ele>
        <time>2013-12-10T14:07:18Z</time>
      </trkpt>
      <trkpt lat="46.40118" lon="-0.47311">
        <ele>31</ele>
        <time>2013-12-10T14:07:23Z</time>
      </trkpt>
      <trkpt lat="46.40122" lon="-0.47288">
        <ele>32</ele>
        <time>2013-12-10T14:07:28Z</time>
      </trkpt>
      <trkpt lat="46.40127" lon="-0.47275">
        <ele>42</ele>
        <time>2013-12-10T14:07:33Z</time>
      </trkpt>
      <trkpt lat="46.4013" lon="-0.47261">
        <ele>42</ele>
        <time>2013-12-10T14:07:38Z</time>
      </trkpt>
      <trkpt lat="46.40131" lon="-0.47255">
        <ele>42</ele>
        <time>2013-12-10T14:07:43Z</time>
      </trkpt>
      <trkpt lat="46.40133" lon="-0.47244">
        <ele>42</ele>
        <time>2013-12-10T14:07:48Z</time>
      </trkpt>
      <trkpt lat="46.40133" lon="-0.47231">
        <ele>42</ele>
        <time>2013-12-10T14:07:53Z</time>
      </trkpt>
      <trkpt lat="46.40133" lon="-0.47222">
        <ele>42</ele>
        <time>2013-12-10T14:07:58Z</time>
      </trkpt>
      <trkpt lat="46.40135" lon="-0.47218">
        <ele>42</ele>
        <time>2013-12-10T14:08:03Z</time>
      </trkpt>
      <trkpt lat="46.40137" lon="-0.47212">
        <ele>42</ele>
        <time>2013-12-10T14:08:08Z</time>
      </trkpt>
      <trkpt lat="46.40138" lon="-0.47207">
        <ele>38</ele>
        <time>2013-12-10T14:08:13Z</time>
      </trkpt>
      <trkpt lat="46.40141" lon="-0.47199">
        <ele>38</ele>
        <time>2013-12-10T14:08:18Z</time>
      </trkpt>
      <trkpt lat="46.40142" lon="-0.47192">
        <ele>38</ele>
        <time>2013-12-10T14:08:23Z</time>
      </trkpt>
      <trkpt lat="46.40144" lon="-0.47183">
        <ele>38</ele>
        <time>2013-12-10T14:08:28Z</time>
      </trkpt>
      <trkpt lat="46.40144" lon="-0.47176">
        <ele>38</ele>
        <time>2013-12-10T14:08:33Z</time>
      </trkpt>
      <trkpt lat="46.40145" lon="-0.47168">
        <ele>38</ele>
        <time>2013-12-10T14:08:38Z</time>
      </trkpt>
      <trkpt lat="46.4015" lon="-0.4716">
        <ele>38</ele>
        <time>2013-12-10T14:08:43Z</time>
      </trkpt>
      <trkpt lat="46.40152" lon="-0.47152">
        <ele>38</ele>
        <time>2013-12-10T14:08:48Z</time>
      </trkpt>
      <trkpt lat="46.40153" lon="-0.4714">
        <ele>38</ele>
        <time>2013-12-10T14:08:53Z</time>
      </trkpt>
      <trkpt lat="46.40156" lon="-0.47137">
        <ele>38</ele>
        <time>2013-12-10T14:08:58Z</time>
      </trkpt>
      <trkpt lat="46.40156" lon="-0.4713">
        <ele>38</ele>
        <time>2013-12-10T14:09:03Z</time>
      </trkpt>
      <trkpt lat="46.40157" lon="-0.47121">
        <ele>36</ele>
        <time>2013-12-10T14:09:08Z</time>
      </trkpt>
      <trkpt lat="46.40157" lon="-0.47114">
        <ele>36</ele>
        <time>2013-12-10T14:09:13Z</time>
      </trkpt>
      <trkpt lat="46.40156" lon="-0.47104">
        <ele>36</ele>
        <time>2013-12-10T14:09:18Z</time>
      </trkpt>
      <trkpt lat="46.40159" lon="-0.47096">
        <ele>36</ele>
        <time>2013-12-10T14:09:23Z</time>
      </trkpt>
      <trkpt lat="46.40163" lon="-0.47087">
        <ele>36</ele>
        <time>2013-12-10T14:09:28Z</time>
      </trkpt>
      <trkpt lat="46.40164" lon="-0.47082">
        <ele>36</ele>
        <time>2013-12-10T14:09:33Z</time>
      </trkpt>
      <trkpt lat="46.40166" lon="-0.47075">
        <ele>36</ele>
        <time>2013-12-10T14:09:38Z</time>
      </trkpt>
      <trkpt lat="46.40171" lon="-0.47064">
        <ele>36</ele>
        <time>2013-12-10T14:09:43Z</time>
      </trkpt>
      <trkpt lat="46.40174" lon="-0.47053">
        <ele>36</ele>
        <time>2013-12-10T14:09:48Z</time>
      </trkpt>
      <trkpt lat="46.40176" lon="-0.47045">
        <ele>36</ele>
        <time>2013-12-10T14:09:53Z</time>
      </trkpt>
      <trkpt lat="46.40177" lon="-0.47037">
        <ele>35</ele>
        <time>2013-12-10T14:09:58Z</time>
      </trkpt>
      <trkpt lat="46.40179" lon="-0.47028">
        <ele>35</ele>
        <time>2013-12-10T14:10:03Z</time>
      </trkpt>
      <trkpt lat="46.40185" lon="-0.4702">
        <ele>35</ele>
        <time>2013-12-10T14:10:08Z</time>
      </trkpt>
      <trkpt lat="46.40189" lon="-0.47012">
        <ele>35</ele>
        <time>2013-12-10T14:10:13Z</time>
      </trkpt>
      <trkpt lat="46.4019" lon="-0.47004">
        <ele>35</ele>
        <time>2013-12-10T14:10:18Z</time>
      </trkpt>
      <trkpt lat="46.40193" lon="-0.46996">
        <ele>35</ele>
        <time>2013-12-10T14:10:23Z</time>
      </trkpt>
      <trkpt lat="46.40197" lon="-0.46987">
        <ele>35</ele>
        <time>2013-12-10T14:10:28Z</time>
      </trkpt>
      <trkpt lat="46.402" lon="-0.46979">
        <ele>35</ele>
        <time>2013-12-10T14:10:33Z</time>
      </trkpt>
      <trkpt lat="46.40203" lon="-0.46969">
        <ele>35</ele>
        <time>2013-12-10T14:10:38Z</time>
      </trkpt>
      <trkpt lat="46.40205" lon="-0.46961">
        <ele>35</ele>
        <time>2013-12-10T14:10:43Z</time>
      </trkpt>
      <trkpt lat="46.40207" lon="-0.46954">
        <ele>33</ele>
        <time>2013-12-10T14:10:48Z</time>
      </trkpt>
      <trkpt lat="46.40208" lon="-0.46946">
        <ele>33</ele>
        <time>2013-12-10T14:10:53Z</time>
      </trkpt>
      <trkpt lat="46.40208" lon="-0.46938">
        <ele>33</ele>
        <time>2013-12-10T14:10:58Z</time>
      </trkpt>
      <trkpt lat="46.40208" lon="-0.46931">
        <ele>33</ele>
        <time>2013-12-10T14:11:03Z</time>
      </trkpt>
      <trkpt lat="46.40209" lon="-0.4692">
        <ele>46</ele>
        <time>2013-12-10T14:11:08Z</time>
      </trkpt>
      <trkpt lat="46.4021" lon="-0.46912">
        <ele>46</ele>
        <time>2013-12-10T14:11:13Z</time>
      </trkpt>
      <trkpt lat="46.40211" lon="-0.46904">
        <ele>46</ele>
        <time>2013-12-10T14:11:18Z</time>
      </trkpt>
      <trkpt lat="46.40212" lon="-0.46897">
        <ele>46</ele>
        <time>2013-12-10T14:11:23Z</time>
      </trkpt>
      <trkpt lat="46.40212" lon="-0.46891">
        <ele>46</ele>
        <time>2013-12-10T14:11:28Z</time>
      </trkpt>
      <trkpt lat="46.40212" lon="-0.46885">
        <ele>46</ele>
        <time>2013-12-10T14:11:33Z</time>
      </trkpt>
      <trkpt lat="46.40211" lon="-0.46874">
        <ele>46</ele>
        <time>2013-12-10T14:11:38Z</time>
      </trkpt>
      <trkpt lat="46.40212" lon="-0.46866">
        <ele>46</ele>
        <time>2013-12-10T14:11:43Z</time>
      </trkpt>
      <trkpt lat="46.40214" lon="-0.46858">
        <ele>46</ele>
        <time>2013-12-10T14:11:48Z</time>
      </trkpt>
      <trkpt lat="46.40214" lon="-0.46852">
        <ele>46</ele>
        <time>2013-12-10T14:11:53Z</time>
      </trkpt>
      <trkpt lat="46.40216" lon="-0.46842">
        <ele>46</ele>
        <time>2013-12-10T14:11:58Z</time>
      </trkpt>
      <trkpt lat="46.40214" lon="-0.46839">
        <ele>46</ele>
        <time>2013-12-10T14:12:03Z</time>
      </trkpt>
      <trkpt lat="46.40215" lon="-0.4683">
        <ele>46</ele>
        <time>2013-12-10T14:12:08Z</time>
      </trkpt>
      <trkpt lat="46.40216" lon="-0.46821">
        <ele>46</ele>
        <time>2013-12-10T14:12:13Z</time>
      </trkpt>
      <trkpt lat="46.40215" lon="-0.4681">
        <ele>46</ele>
        <time>2013-12-10T14:12:18Z</time>
      </trkpt>
      <trkpt lat="46.40215" lon="-0.468">
        <ele>46</ele>
        <time>2013-12-10T14:12:23Z</time>
      </trkpt>
      <trkpt lat="46.40216" lon="-0.46789">
        <ele>45</ele>
        <time>2013-12-10T14:12:28Z</time>
      </trkpt>
      <trkpt lat="46.40216" lon="-0.46784">
        <ele>45</ele>
        <time>2013-12-10T14:12:33Z</time>
      </trkpt>
      <trkpt lat="46.40215" lon="-0.46781">
        <ele>45</ele>
        <time>2013-12-10T14:12:38Z</time>
      </trkpt>
      <trkpt lat="46.40215" lon="-0.46771">
        <ele>45</ele>
        <time>2013-12-10T14:12:43Z</time>
      </trkpt>
      <trkpt lat="46.40214" lon="-0.4676">
        <ele>45</ele>
        <time>2013-12-10T14:12:48Z</time>
      </trkpt>
      <trkpt lat="46.40214" lon="-0.4675">
        <ele>45</ele>
        <time>2013-12-10T14:12:53Z</time>
      </trkpt>
      <trkpt lat="46.40214" lon="-0.46741">
        <ele>45</ele>
        <time>2013-12-10T14:12:58Z</time>
      </trkpt>
      <trkpt lat="46.40214" lon="-0.46731">
        <ele>45</ele>
        <time>2013-12-10T14:13:03Z</time>
      </trkpt>
      <trkpt lat="46.40212" lon="-0.46717">
        <ele>45</ele>
        <time>2013-12-10T14:13:08Z</time>
      </trkpt>
      <trkpt lat="46.40214" lon="-0.46708">
        <ele>43</ele>
        <time>2013-12-10T14:13:13Z</time>
      </trkpt>
      <trkpt lat="46.40213" lon="-0.46698">
        <ele>43</ele>
        <time>2013-12-10T14:13:18Z</time>
      </trkpt>
      <trkpt lat="46.40213" lon="-0.46694">
        <ele>43</ele>
        <time>2013-12-10T14:13:23Z</time>
      </trkpt>
      <trkpt lat="46.40211" lon="-0.46687">
        <ele>43</ele>
        <time>2013-12-10T14:13:28Z</time>
      </trkpt>
      <trkpt lat="46.40211" lon="-0.46677">
        <ele>43</ele>
        <time>2013-12-10T14:13:33Z</time>
      </trkpt>
      <trkpt lat="46.40211" lon="-0.46669">
        <ele>43</ele>
        <time>2013-12-10T14:13:38Z</time>
      </trkpt>
      <trkpt lat="46.40212" lon="-0.46661">
        <ele>43</ele>
        <time>2013-12-10T14:13:43Z</time>
      </trkpt>
      <trkpt lat="46.40212" lon="-0.46652">
        <ele>43</ele>
        <time>2013-12-10T14:13:48Z</time>
      </trkpt>
      <trkpt lat="46.40212" lon="-0.46643">
        <ele>43</ele>
        <time>2013-12-10T14:13:53Z</time>
      </trkpt>
      <trkpt lat="46.40212" lon="-0.46634">
        <ele>43</ele>
        <time>2013-12-10T14:13:58Z</time>
      </trkpt>
      <trkpt lat="46.40212" lon="-0.46626">
        <ele>43</ele>
        <time>2013-12-10T14:14:03Z</time>
      </trkpt>
      <trkpt lat="46.40211" lon="-0.46619">
        <ele>37</ele>
        <time>2013-12-10T14:14:08Z</time>
      </trkpt>
      <trkpt lat="46.4021" lon="-0.4661">
        <ele>37</ele>
        <time>2013-12-10T14:14:13Z</time>
      </trkpt>
      <trkpt lat="46.4021" lon="-0.46603">
        <ele>37</ele>
        <time>2013-12-10T14:14:18Z</time>
      </trkpt>
      <trkpt lat="46.40209" lon="-0.46594">
        <ele>37</ele>
        <time>2013-12-10T14:14:23Z</time>
      </trkpt>
      <trkpt lat="46.40208" lon="-0.46584">
        <ele>29</ele>
        <time>2013-12-10T14:14:28Z</time>
      </trkpt>
      <trkpt lat="46.40207" lon="-0.46577">
        <ele>29</ele>
        <time>2013-12-10T14:14:33Z</time>
      </trkpt>
      <trkpt lat="46.40208" lon="-0.46571">
        <ele>29</ele>
        <time>2013-12-10T14:14:38Z</time>
      </trkpt>
      <trkpt lat="46.40208" lon="-0.46561">
        <ele>29</ele>
        <time>2013-12-10T14:14:43Z</time>
      </trkpt>
      <trkpt lat="46.40208" lon="-0.46549">
        <ele>29</ele>
        <time>2013-12-10T14:14:48Z</time>
      </trkpt>
      <trkpt lat="46.40207" lon="-0.46539">
        <ele>27</ele>
        <time>2013-12-10T14:14:53Z</time>
      </trkpt>
      <trkpt lat="46.40207" lon="-0.46529">
        <ele>27</ele>
        <time>2013-12-10T14:14:58Z</time>
      </trkpt>
      <trkpt lat="46.40208" lon="-0.46521">
        <ele>27</ele>
        <time>2013-12-10T14:15:03Z</time>
      </trkpt>
      <trkpt lat="46.40209" lon="-0.46514">
        <ele>29</ele>
        <time>2013-12-10T14:15:08Z</time>
      </trkpt>
      <trkpt lat="46.40211" lon="-0.4651">
        <ele>29</ele>
        <time>2013-12-10T14:15:13Z</time>
      </trkpt>
      <trkpt lat="46.40209" lon="-0.46501">
        <ele>29</ele>
        <time>2013-12-10T14:15:18Z</time>
      </trkpt>
      <trkpt lat="46.40208" lon="-0.46492">
        <ele>27</ele>
        <time>2013-12-10T14:15:23Z</time>
      </trkpt>
      <trkpt lat="46.4021" lon="-0.46485">
        <ele>29</ele>
        <time>2013-12-10T14:15:28Z</time>
      </trkpt>
      <trkpt lat="46.40211" lon="-0.46478">
        <ele>29</ele>
        <time>2013-12-10T14:15:33Z</time>
      </trkpt>
      <trkpt lat="46.40212" lon="-0.46473">
        <ele>29</ele>
        <time>2013-12-10T14:15:38Z</time>
      </trkpt>
      <trkpt lat="46.40214" lon="-0.46464">
        <ele>29</ele>
        <time>2013-12-10T14:15:43Z</time>
      </trkpt>
      <trkpt lat="46.40215" lon="-0.46456">
        <ele>24</ele>
        <time>2013-12-10T14:15:48Z</time>
      </trkpt>
      <trkpt lat="46.40218" lon="-0.46449">
        <ele>24</ele>
        <time>2013-12-10T14:15:53Z</time>
      </trkpt>
      <trkpt lat="46.40221" lon="-0.46443">
        <ele>24</ele>
        <time>2013-12-10T14:15:58Z</time>
      </trkpt>
      <trkpt lat="46.40222" lon="-0.46437">
        <ele>24</ele>
        <time>2013-12-10T14:16:03Z</time>
      </trkpt>
      <trkpt lat="46.40225" lon="-0.46427">
        <ele>24</ele>
        <time>2013-12-10T14:16:08Z</time>
      </trkpt>
      <trkpt lat="46.40228" lon="-0.4642">
        <ele>24</ele>
        <time>2013-12-10T14:16:13Z</time>
      </trkpt>
      <trkpt lat="46.40229" lon="-0.46413">
        <ele>24</ele>
        <time>2013-12-10T14:16:18Z</time>
      </trkpt>
      <trkpt lat="46.40232" lon="-0.46405">
        <ele>24</ele>
        <time>2013-12-10T14:16:23Z</time>
      </trkpt>
      <trkpt lat="46.40234" lon="-0.46397">
        <ele>24</ele>
        <time>2013-12-10T14:16:28Z</time>
      </trkpt>
      <trkpt lat="46.40238" lon="-0.46389">
        <ele>24</ele>
        <time>2013-12-10T14:16:33Z</time>
      </trkpt>
      <trkpt lat="46.4024" lon="-0.46383">
        <ele>24</ele>
        <time>2013-12-10T14:16:38Z</time>
      </trkpt>
      <trkpt lat="46.40243" lon="-0.46375">
        <ele>26</ele>
        <time>2013-12-10T14:16:43Z</time>
      </trkpt>
      <trkpt lat="46.40244" lon="-0.46367">
        <ele>26</ele>
        <time>2013-12-10T14:16:48Z</time>
      </trkpt>
      <trkpt lat="46.40243" lon="-0.46364">
        <ele>26</ele>
        <time>2013-12-10T14:16:53Z</time>
      </trkpt>
      <trkpt lat="46.40245" lon="-0.4636">
        <ele>26</ele>
        <time>2013-12-10T14:16:58Z</time>
      </trkpt>
      <trkpt lat="46.40247" lon="-0.46354">
        <ele>26</ele>
        <time>2013-12-10T14:17:03Z</time>
      </trkpt>
      <trkpt lat="46.40251" lon="-0.46348">
        <ele>26</ele>
        <time>2013-12-10T14:17:08Z</time>
      </trkpt>
      <trkpt lat="46.40255" lon="-0.46341">
        <ele>26</ele>
        <time>2013-12-10T14:17:13Z</time>
      </trkpt>
      <trkpt lat="46.40256" lon="-0.46334">
        <ele>26</ele>
        <time>2013-12-10T14:17:18Z</time>
      </trkpt>
      <trkpt lat="46.4026" lon="-0.46326">
        <ele>26</ele>
        <time>2013-12-10T14:17:23Z</time>
      </trkpt>
      <trkpt lat="46.40262" lon="-0.46316">
        <ele>26</ele>
        <time>2013-12-10T14:17:28Z</time>
      </trkpt>
      <trkpt lat="46.40266" lon="-0.46309">
        <ele>26</ele>
        <time>2013-12-10T14:17:33Z</time>
      </trkpt>
      <trkpt lat="46.40268" lon="-0.46303">
        <ele>26</ele>
        <time>2013-12-10T14:17:38Z</time>
      </trkpt>
      <trkpt lat="46.40271" lon="-0.46296">
        <ele>26</ele>
        <time>2013-12-10T14:17:43Z</time>
      </trkpt>
      <trkpt lat="46.40273" lon="-0.4629">
        <ele>26</ele>
        <time>2013-12-10T14:17:48Z</time>
      </trkpt>
      <trkpt lat="46.40273" lon="-0.46279">
        <ele>26</ele>
        <time>2013-12-10T14:17:53Z</time>
      </trkpt>
      <trkpt lat="46.40275" lon="-0.4627">
        <ele>26</ele>
        <time>2013-12-10T14:17:58Z</time>
      </trkpt>
      <trkpt lat="46.40277" lon="-0.46262">
        <ele>26</ele>
        <time>2013-12-10T14:18:03Z</time>
      </trkpt>
      <trkpt lat="46.40278" lon="-0.46255">
        <ele>26</ele>
        <time>2013-12-10T14:18:08Z</time>
      </trkpt>
      <trkpt lat="46.40281" lon="-0.46248">
        <ele>26</ele>
        <time>2013-12-10T14:18:13Z</time>
      </trkpt>
      <trkpt lat="46.40282" lon="-0.4624">
        <ele>26</ele>
        <time>2013-12-10T14:18:18Z</time>
      </trkpt>
      <trkpt lat="46.40283" lon="-0.46232">
        <ele>26</ele>
        <time>2013-12-10T14:18:23Z</time>
      </trkpt>
      <trkpt lat="46.40284" lon="-0.46223">
        <ele>26</ele>
        <time>2013-12-10T14:18:28Z</time>
      </trkpt>
      <trkpt lat="46.40285" lon="-0.46215">
        <ele>26</ele>
        <time>2013-12-10T14:18:33Z</time>
      </trkpt>
      <trkpt lat="46.40286" lon="-0.46209">
        <ele>26</ele>
        <time>2013-12-10T14:18:38Z</time>
      </trkpt>
      <trkpt lat="46.40285" lon="-0.462">
        <ele>26</ele>
        <time>2013-12-10T14:18:43Z</time>
      </trkpt>
      <trkpt lat="46.40285" lon="-0.46198">
        <ele>26</ele>
        <time>2013-12-10T14:18:48Z</time>
      </trkpt>
      <trkpt lat="46.40283" lon="-0.46192">
        <ele>26</ele>
        <time>2013-12-10T14:18:53Z</time>
      </trkpt>
      <trkpt lat="46.40283" lon="-0.46183">
        <ele>26</ele>
        <time>2013-12-10T14:18:58Z</time>
      </trkpt>
      <trkpt lat="46.40281" lon="-0.46176">
        <ele>26</ele>
        <time>2013-12-10T14:19:03Z</time>
      </trkpt>
      <trkpt lat="46.4028" lon="-0.46172">
        <ele>26</ele>
        <time>2013-12-10T14:19:08Z</time>
      </trkpt>
      <trkpt lat="46.40278" lon="-0.46166">
        <ele>26</ele>
        <time>2013-12-10T14:19:13Z</time>
      </trkpt>
      <trkpt lat="46.40278" lon="-0.4616">
        <ele>26</ele>
        <time>2013-12-10T14:19:18Z</time>
      </trkpt>
      <trkpt lat="46.40276" lon="-0.46152">
        <ele>26</ele>
        <time>2013-12-10T14:19:23Z</time>
      </trkpt>
      <trkpt lat="46.40276" lon="-0.46151">
        <ele>26</ele>
        <time>2013-12-10T14:19:28Z</time>
      </trkpt>
      <trkpt lat="46.40276" lon="-0.4615">
        <ele>26</ele>
        <time>2013-12-10T14:19:33Z</time>
      </trkpt>
      <trkpt lat="46.40276" lon="-0.46146">
        <ele>26</ele>
        <time>2013-12-10T14:19:38Z</time>
      </trkpt>
      <trkpt lat="46.40275" lon="-0.46142">
        <ele>26</ele>
        <time>2013-12-10T14:19:43Z</time>
      </trkpt>
      <trkpt lat="46.40273" lon="-0.46136">
        <ele>26</ele>
        <time>2013-12-10T14:19:48Z</time>
      </trkpt>
      <trkpt lat="46.4027" lon="-0.46125">
        <ele>26</ele>
        <time>2013-12-10T14:19:53Z</time>
      </trkpt>
      <trkpt lat="46.40266" lon="-0.46115">
        <ele>25</ele>
        <time>2013-12-10T14:19:58Z</time>
      </trkpt>
      <trkpt lat="46.40265" lon="-0.46105">
        <ele>25</ele>
        <time>2013-12-10T14:20:03Z</time>
      </trkpt>
      <trkpt lat="46.40263" lon="-0.46096">
        <ele>25</ele>
        <time>2013-12-10T14:20:08Z</time>
      </trkpt>
      <trkpt lat="46.40263" lon="-0.46089">
        <ele>25</ele>
        <time>2013-12-10T14:20:13Z</time>
      </trkpt>
      <trkpt lat="46.40263" lon="-0.46082">
        <ele>25</ele>
        <time>2013-12-10T14:20:18Z</time>
      </trkpt>
      <trkpt lat="46.40263" lon="-0.46073">
        <ele>25</ele>
        <time>2013-12-10T14:20:23Z</time>
      </trkpt>
      <trkpt lat="46.40264" lon="-0.46066">
        <ele>25</ele>
        <time>2013-12-10T14:20:28Z</time>
      </trkpt>
      <trkpt lat="46.40265" lon="-0.46058">
        <ele>25</ele>
        <time>2013-12-10T14:20:33Z</time>
      </trkpt>
      <trkpt lat="46.40267" lon="-0.46049">
        <ele>25</ele>
        <time>2013-12-10T14:20:38Z</time>
      </trkpt>
      <trkpt lat="46.40267" lon="-0.46038">
        <ele>27</ele>
        <time>2013-12-10T14:20:43Z</time>
      </trkpt>
      <trkpt lat="46.40268" lon="-0.46029">
        <ele>27</ele>
        <time>2013-12-10T14:20:48Z</time>
      </trkpt>
      <trkpt lat="46.40269" lon="-0.46021">
        <ele>27</ele>
        <time>2013-12-10T14:20:53Z</time>
      </trkpt>
      <trkpt lat="46.40271" lon="-0.46012">
        <ele>27</ele>
        <time>2013-12-10T14:20:58Z</time>
      </trkpt>
      <trkpt lat="46.40271" lon="-0.46004">
        <ele>27</ele>
        <time>2013-12-10T14:21:03Z</time>
      </trkpt>
      <trkpt lat="46.40271" lon="-0.45998">
        <ele>27</ele>
        <time>2013-12-10T14:21:08Z</time>
      </trkpt>
      <trkpt lat="46.4027" lon="-0.45997">
        <ele>27</ele>
        <time>2013-12-10T14:21:13Z</time>
      </trkpt>
      <trkpt lat="46.40271" lon="-0.45988">
        <ele>27</ele>
        <time>2013-12-10T14:21:18Z</time>
      </trkpt>
      <trkpt lat="46.40275" lon="-0.45977">
        <ele>27</ele>
        <time>2013-12-10T14:21:23Z</time>
      </trkpt>
      <trkpt lat="46.40276" lon="-0.4597">
        <ele>27</ele>
        <time>2013-12-10T14:21:28Z</time>
      </trkpt>
      <trkpt lat="46.40276" lon="-0.45962">
        <ele>27</ele>
        <time>2013-12-10T14:21:33Z</time>
      </trkpt>
      <trkpt lat="46.40277" lon="-0.45953">
        <ele>27</ele>
        <time>2013-12-10T14:21:38Z</time>
      </trkpt>
      <trkpt lat="46.40277" lon="-0.45946">
        <ele>27</ele>
        <time>2013-12-10T14:21:43Z</time>
      </trkpt>
      <trkpt lat="46.40278" lon="-0.45938">
        <ele>27</ele>
        <time>2013-12-10T14:21:48Z</time>
      </trkpt>
      <trkpt lat="46.40279" lon="-0.45933">
        <ele>27</ele>
        <time>2013-12-10T14:21:53Z</time>
      </trkpt>
      <trkpt lat="46.4028" lon="-0.45926">
        <ele>27</ele>
        <time>2013-12-10T14:21:58Z</time>
      </trkpt>
      <trkpt lat="46.40281" lon="-0.4592">
        <ele>27</ele>
        <time>2013-12-10T14:22:03Z</time>
      </trkpt>
      <trkpt lat="46.40281" lon="-0.4592">
        <ele>27</ele>
        <time>2013-12-10T14:22:08Z</time>
      </trkpt>
      <trkpt lat="46.40282" lon="-0.45911">
        <ele>27</ele>
        <time>2013-12-10T14:22:13Z</time>
      </trkpt>
      <trkpt lat="46.40282" lon="-0.45903">
        <ele>27</ele>
        <time>2013-12-10T14:22:18Z</time>
      </trkpt>
      <trkpt lat="46.40285" lon="-0.45895">
        <ele>27</ele>
        <time>2013-12-10T14:22:23Z</time>
      </trkpt>
      <trkpt lat="46.4029" lon="-0.45889">
        <ele>27</ele>
        <time>2013-12-10T14:22:28Z</time>
      </trkpt>
      <trkpt lat="46.40295" lon="-0.45887">
        <ele>27</ele>
        <time>2013-12-10T14:22:33Z</time>
      </trkpt>
      <trkpt lat="46.40303" lon="-0.45884">
        <ele>27</ele>
        <time>2013-12-10T14:22:38Z</time>
      </trkpt>
      <trkpt lat="46.40309" lon="-0.45883">
        <ele>27</ele>
        <time>2013-12-10T14:22:43Z</time>
      </trkpt>
      <trkpt lat="46.40317" lon="-0.45882">
        <ele>27</ele>
        <time>2013-12-10T14:22:48Z</time>
      </trkpt>
      <trkpt lat="46.40322" lon="-0.45883">
        <ele>27</ele>
        <time>2013-12-10T14:22:53Z</time>
      </trkpt>
      <trkpt lat="46.4033" lon="-0.4588">
        <ele>27</ele>
        <time>2013-12-10T14:22:58Z</time>
      </trkpt>
      <trkpt lat="46.40335" lon="-0.45878">
        <ele>27</ele>
        <time>2013-12-10T14:23:03Z</time>
      </trkpt>
      <trkpt lat="46.40339" lon="-0.45875">
        <ele>27</ele>
        <time>2013-12-10T14:23:08Z</time>
      </trkpt>
      <trkpt lat="46.40346" lon="-0.45871">
        <ele>27</ele>
        <time>2013-12-10T14:23:13Z</time>
      </trkpt>
      <trkpt lat="46.40352" lon="-0.45866">
        <ele>27</ele>
        <time>2013-12-10T14:23:18Z</time>
      </trkpt>
      <trkpt lat="46.40355" lon="-0.45865">
        <ele>27</ele>
        <time>2013-12-10T14:23:23Z</time>
      </trkpt>
      <trkpt lat="46.40361" lon="-0.45862">
        <ele>27</ele>
        <time>2013-12-10T14:23:28Z</time>
      </trkpt>
      <trkpt lat="46.40365" lon="-0.45859">
        <ele>27</ele>
        <time>2013-12-10T14:23:33Z</time>
      </trkpt>
      <trkpt lat="46.40371" lon="-0.45853">
        <ele>27</ele>
        <time>2013-12-10T14:23:38Z</time>
      </trkpt>
      <trkpt lat="46.40375" lon="-0.45849">
        <ele>26</ele>
        <time>2013-12-10T14:23:43Z</time>
      </trkpt>
      <trkpt lat="46.40377" lon="-0.45845">
        <ele>26</ele>
        <time>2013-12-10T14:23:48Z</time>
      </trkpt>
      <trkpt lat="46.40381" lon="-0.45846">
        <ele>26</ele>
        <time>2013-12-10T14:23:53Z</time>
      </trkpt>
      <trkpt lat="46.40385" lon="-0.45846">
        <ele>26</ele>
        <time>2013-12-10T14:23:58Z</time>
      </trkpt>
      <trkpt lat="46.40386" lon="-0.45846">
        <ele>26</ele>
        <time>2013-12-10T14:24:03Z</time>
      </trkpt>
      <trkpt lat="46.40393" lon="-0.45838">
        <ele>26</ele>
        <time>2013-12-10T14:24:08Z</time>
      </trkpt>
      <trkpt lat="46.40398" lon="-0.45837">
        <ele>26</ele>
        <time>2013-12-10T14:24:13Z</time>
      </trkpt>
      <trkpt lat="46.40403" lon="-0.45834">
        <ele>26</ele>
        <time>2013-12-10T14:24:18Z</time>
      </trkpt>
      <trkpt lat="46.4041" lon="-0.45832">
        <ele>26</ele>
        <time>2013-12-10T14:24:23Z</time>
      </trkpt>
      <trkpt lat="46.40418" lon="-0.45826">
        <ele>26</ele>
        <time>2013-12-10T14:24:28Z</time>
      </trkpt>
      <trkpt lat="46.40423" lon="-0.45823">
        <ele>26</ele>
        <time>2013-12-10T14:24:33Z</time>
      </trkpt>
      <trkpt lat="46.40428" lon="-0.45821">
        <ele>26</ele>
        <time>2013-12-10T14:24:38Z</time>
      </trkpt>
      <trkpt lat="46.40435" lon="-0.4582">
        <ele>26</ele>
        <time>2013-12-10T14:24:43Z</time>
      </trkpt>
      <trkpt lat="46.4044" lon="-0.45818">
        <ele>26</ele>
        <time>2013-12-10T14:24:48Z</time>
      </trkpt>
      <trkpt lat="46.40448" lon="-0.45821">
        <ele>26</ele>
        <time>2013-12-10T14:24:53Z</time>
      </trkpt>
      <trkpt lat="46.40455" lon="-0.4581">
        <ele>26</ele>
        <time>2013-12-10T14:24:58Z</time>
      </trkpt>
      <trkpt lat="46.40457" lon="-0.45801">
        <ele>26</ele>
        <time>2013-12-10T14:25:03Z</time>
      </trkpt>
      <trkpt lat="46.40461" lon="-0.45798">
        <ele>26</ele>
        <time>2013-12-10T14:25:08Z</time>
      </trkpt>
      <trkpt lat="46.40466" lon="-0.45797">
        <ele>26</ele>
        <time>2013-12-10T14:25:13Z</time>
      </trkpt>
      <trkpt lat="46.40467" lon="-0.45795">
        <ele>26</ele>
        <time>2013-12-10T14:25:18Z</time>
      </trkpt>
      <trkpt lat="46.40474" lon="-0.45787">
        <ele>27</ele>
        <time>2013-12-10T14:25:23Z</time>
      </trkpt>
      <trkpt lat="46.40481" lon="-0.45783">
        <ele>27</ele>
        <time>2013-12-10T14:25:28Z</time>
      </trkpt>
      <trkpt lat="46.40486" lon="-0.45779">
        <ele>27</ele>
        <time>2013-12-10T14:25:33Z</time>
      </trkpt>
      <trkpt lat="46.40493" lon="-0.45771">
        <ele>27</ele>
        <time>2013-12-10T14:25:38Z</time>
      </trkpt>
      <trkpt lat="46.40498" lon="-0.45767">
        <ele>27</ele>
        <time>2013-12-10T14:25:43Z</time>
      </trkpt>
      <trkpt lat="46.40503" lon="-0.45762">
        <ele>27</ele>
        <time>2013-12-10T14:25:48Z</time>
      </trkpt>
      <trkpt lat="46.40507" lon="-0.45756">
        <ele>27</ele>
        <time>2013-12-10T14:25:53Z</time>
      </trkpt>
      <trkpt lat="46.40514" lon="-0.45752">
        <ele>27</ele>
        <time>2013-12-10T14:25:58Z</time>
      </trkpt>
      <trkpt lat="46.40518" lon="-0.45746">
        <ele>27</ele>
        <time>2013-12-10T14:26:03Z</time>
      </trkpt>
      <trkpt lat="46.40523" lon="-0.45742">
        <ele>27</ele>
        <time>2013-12-10T14:26:08Z</time>
      </trkpt>
      <trkpt lat="46.40526" lon="-0.45735">
        <ele>27</ele>
        <time>2013-12-10T14:26:13Z</time>
      </trkpt>
      <trkpt lat="46.40528" lon="-0.45726">
        <ele>27</ele>
        <time>2013-12-10T14:26:18Z</time>
      </trkpt>
      <trkpt lat="46.40534" lon="-0.45721">
        <ele>27</ele>
        <time>2013-12-10T14:26:23Z</time>
      </trkpt>
      <trkpt lat="46.40539" lon="-0.45718">
        <ele>27</ele>
        <time>2013-12-10T14:26:28Z</time>
      </trkpt>
      <trkpt lat="46.40541" lon="-0.45708">
        <ele>26</ele>
        <time>2013-12-10T14:26:33Z</time>
      </trkpt>
      <trkpt lat="46.40545" lon="-0.45699">
        <ele>27</ele>
        <time>2013-12-10T14:26:38Z</time>
      </trkpt>
      <trkpt lat="46.40546" lon="-0.45688">
        <ele>27</ele>
        <time>2013-12-10T14:26:43Z</time>
      </trkpt>
      <trkpt lat="46.40547" lon="-0.45679">
        <ele>27</ele>
        <time>2013-12-10T14:26:48Z</time>
      </trkpt>
      <trkpt lat="46.40548" lon="-0.45671">
        <ele>27</ele>
        <time>2013-12-10T14:26:53Z</time>
      </trkpt>
      <trkpt lat="46.40548" lon="-0.45662">
        <ele>27</ele>
        <time>2013-12-10T14:26:58Z</time>
      </trkpt>
      <trkpt lat="46.4055" lon="-0.45655">
        <ele>27</ele>
        <time>2013-12-10T14:27:03Z</time>
      </trkpt>
      <trkpt lat="46.40551" lon="-0.45647">
        <ele>27</ele>
        <time>2013-12-10T14:27:08Z</time>
      </trkpt>
      <trkpt lat="46.40552" lon="-0.45637">
        <ele>27</ele>
        <time>2013-12-10T14:27:13Z</time>
      </trkpt>
      <trkpt lat="46.40553" lon="-0.45633">
        <ele>27</ele>
        <time>2013-12-10T14:27:18Z</time>
      </trkpt>
      <trkpt lat="46.40553" lon="-0.45624">
        <ele>26</ele>
        <time>2013-12-10T14:27:23Z</time>
      </trkpt>
      <trkpt lat="46.40554" lon="-0.45619">
        <ele>26</ele>
        <time>2013-12-10T14:27:28Z</time>
      </trkpt>
      <trkpt lat="46.40555" lon="-0.45609">
        <ele>26</ele>
        <time>2013-12-10T14:27:33Z</time>
      </trkpt>
      <trkpt lat="46.40556" lon="-0.45607">
        <ele>26</ele>
        <time>2013-12-10T14:27:38Z</time>
      </trkpt>
      <trkpt lat="46.40555" lon="-0.45605">
        <ele>26</ele>
        <time>2013-12-10T14:27:43Z</time>
      </trkpt>
      <trkpt lat="46.40555" lon="-0.45606">
        <ele>26</ele>
        <time>2013-12-10T14:27:48Z</time>
      </trkpt>
      <trkpt lat="46.40555" lon="-0.45605">
        <ele>26</ele>
        <time>2013-12-10T14:27:53Z</time>
      </trkpt>
      <trkpt lat="46.40555" lon="-0.45593">
        <ele>26</ele>
        <time>2013-12-10T14:27:58Z</time>
      </trkpt>
      <trkpt lat="46.40554" lon="-0.45584">
        <ele>26</ele>
        <time>2013-12-10T14:28:03Z</time>
      </trkpt>
      <trkpt lat="46.40554" lon="-0.45576">
        <ele>26</ele>
        <time>2013-12-10T14:28:08Z</time>
      </trkpt>
      <trkpt lat="46.40555" lon="-0.45566">
        <ele>26</ele>
        <time>2013-12-10T14:28:13Z</time>
      </trkpt>
      <trkpt lat="46.40557" lon="-0.45557">
        <ele>26</ele>
        <time>2013-12-10T14:28:18Z</time>
      </trkpt>
      <trkpt lat="46.40556" lon="-0.45548">
        <ele>26</ele>
        <time>2013-12-10T14:28:23Z</time>
      </trkpt>
      <trkpt lat="46.40559" lon="-0.4554">
        <ele>29</ele>
        <time>2013-12-10T14:28:28Z</time>
      </trkpt>
      <trkpt lat="46.40561" lon="-0.45533">
        <ele>29</ele>
        <time>2013-12-10T14:28:33Z</time>
      </trkpt>
      <trkpt lat="46.40563" lon="-0.45525">
        <ele>29</ele>
        <time>2013-12-10T14:28:38Z</time>
      </trkpt>
      <trkpt lat="46.40565" lon="-0.45515">
        <ele>29</ele>
        <time>2013-12-10T14:28:43Z</time>
      </trkpt>
      <trkpt lat="46.40566" lon="-0.45507">
        <ele>29</ele>
        <time>2013-12-10T14:28:48Z</time>
      </trkpt>
      <trkpt lat="46.40569" lon="-0.45499">
        <ele>29</ele>
        <time>2013-12-10T14:28:53Z</time>
      </trkpt>
      <trkpt lat="46.40568" lon="-0.45493">
        <ele>29</ele>
        <time>2013-12-10T14:28:58Z</time>
      </trkpt>
      <trkpt lat="46.4057" lon="-0.45484">
        <ele>29</ele>
        <time>2013-12-10T14:29:03Z</time>
      </trkpt>
      <trkpt lat="46.4057" lon="-0.45475">
        <ele>29</ele>
        <time>2013-12-10T14:29:08Z</time>
      </trkpt>
      <trkpt lat="46.40572" lon="-0.45466">
        <ele>29</ele>
        <time>2013-12-10T14:29:13Z</time>
      </trkpt>
      <trkpt lat="46.40575" lon="-0.45459">
        <ele>29</ele>
        <time>2013-12-10T14:29:18Z</time>
      </trkpt>
      <trkpt lat="46.4058" lon="-0.45455">
        <ele>40</ele>
        <time>2013-12-10T14:29:23Z</time>
      </trkpt>
      <trkpt lat="46.40584" lon="-0.4545">
        <ele>40</ele>
        <time>2013-12-10T14:29:28Z</time>
      </trkpt>
      <trkpt lat="46.40585" lon="-0.4544">
        <ele>40</ele>
        <time>2013-12-10T14:29:33Z</time>
      </trkpt>
      <trkpt lat="46.40585" lon="-0.45434">
        <ele>40</ele>
        <time>2013-12-10T14:29:38Z</time>
      </trkpt>
      <trkpt lat="46.40586" lon="-0.45426">
        <ele>40</ele>
        <time>2013-12-10T14:29:43Z</time>
      </trkpt>
      <trkpt lat="46.40585" lon="-0.45423">
        <ele>40</ele>
        <time>2013-12-10T14:29:48Z</time>
      </trkpt>
      <trkpt lat="46.40585" lon="-0.45418">
        <ele>40</ele>
        <time>2013-12-10T14:29:53Z</time>
      </trkpt>
      <trkpt lat="46.40589" lon="-0.45412">
        <ele>40</ele>
        <time>2013-12-10T14:29:58Z</time>
      </trkpt>
      <trkpt lat="46.40592" lon="-0.45408">
        <ele>40</ele>
        <time>2013-12-10T14:30:03Z</time>
      </trkpt>
      <trkpt lat="46.40597" lon="-0.454">
        <ele>40</ele>
        <time>2013-12-10T14:30:08Z</time>
      </trkpt>
      <trkpt lat="46.406" lon="-0.45393">
        <ele>40</ele>
        <time>2013-12-10T14:30:13Z</time>
      </trkpt>
      <trkpt lat="46.40602" lon="-0.45386">
        <ele>40</ele>
        <time>2013-12-10T14:30:18Z</time>
      </trkpt>
      <trkpt lat="46.40602" lon="-0.45379">
        <ele>40</ele>
        <time>2013-12-10T14:30:23Z</time>
      </trkpt>
      <trkpt lat="46.40605" lon="-0.45375">
        <ele>40</ele>
        <time>2013-12-10T14:30:28Z</time>
      </trkpt>
      <trkpt lat="46.40605" lon="-0.45374">
        <ele>49</ele>
        <time>2013-12-10T14:30:33Z</time>
      </trkpt>
      <trkpt lat="46.40607" lon="-0.45373">
        <ele>49</ele>
        <time>2013-12-10T14:30:38Z</time>
      </trkpt>
      <trkpt lat="46.40607" lon="-0.45371">
        <ele>49</ele>
        <time>2013-12-10T14:30:48Z</time>
      </trkpt>
      <trkpt lat="46.40609" lon="-0.45365">
        <ele>49</ele>
        <time>2013-12-10T14:30:53Z</time>
      </trkpt>
      <trkpt lat="46.40611" lon="-0.45363">
        <ele>49</ele>
        <time>2013-12-10T14:30:58Z</time>
      </trkpt>
      <trkpt lat="46.40611" lon="-0.45363">
        <ele>49</ele>
        <time>2013-12-10T14:31:03Z</time>
      </trkpt>
      <trkpt lat="46.40611" lon="-0.45358">
        <ele>49</ele>
        <time>2013-12-10T14:31:08Z</time>
      </trkpt>
      <trkpt lat="46.40613" lon="-0.45352">
        <ele>49</ele>
        <time>2013-12-10T14:31:13Z</time>
      </trkpt>
      <trkpt lat="46.40616" lon="-0.45346">
        <ele>49</ele>
        <time>2013-12-10T14:31:18Z</time>
      </trkpt>
      <trkpt lat="46.4062" lon="-0.45341">
        <ele>49</ele>
        <time>2013-12-10T14:31:23Z</time>
      </trkpt>
      <trkpt lat="46.4062" lon="-0.45334">
        <ele>49</ele>
        <time>2013-12-10T14:31:28Z</time>
      </trkpt>
      <trkpt lat="46.40622" lon="-0.45327">
        <ele>49</ele>
        <time>2013-12-10T14:31:33Z</time>
      </trkpt>
      <trkpt lat="46.40623" lon="-0.45322">
        <ele>49</ele>
        <time>2013-12-10T14:31:38Z</time>
      </trkpt>
      <trkpt lat="46.40626" lon="-0.45315">
        <ele>50</ele>
        <time>2013-12-10T14:31:43Z</time>
      </trkpt>
      <trkpt lat="46.40626" lon="-0.45308">
        <ele>50</ele>
        <time>2013-12-10T14:31:48Z</time>
      </trkpt>
      <trkpt lat="46.40626" lon="-0.45303">
        <ele>50</ele>
        <time>2013-12-10T14:31:53Z</time>
      </trkpt>
      <trkpt lat="46.40626" lon="-0.45296">
        <ele>50</ele>
        <time>2013-12-10T14:31:58Z</time>
      </trkpt>
      <trkpt lat="46.40626" lon="-0.45289">
        <ele>53</ele>
        <time>2013-12-10T14:32:03Z</time>
      </trkpt>
      <trkpt lat="46.40626" lon="-0.45279">
        <ele>53</ele>
        <time>2013-12-10T14:32:08Z</time>
      </trkpt>
      <trkpt lat="46.40626" lon="-0.45272">
        <ele>53</ele>
        <time>2013-12-10T14:32:13Z</time>
      </trkpt>
      <trkpt lat="46.40627" lon="-0.45264">
        <ele>53</ele>
        <time>2013-12-10T14:32:18Z</time>
      </trkpt>
      <trkpt lat="46.40626" lon="-0.45256">
        <ele>53</ele>
        <time>2013-12-10T14:32:23Z</time>
      </trkpt>
      <trkpt lat="46.40628" lon="-0.45248">
        <ele>53</ele>
        <time>2013-12-10T14:32:28Z</time>
      </trkpt>
      <trkpt lat="46.40628" lon="-0.45242">
        <ele>53</ele>
        <time>2013-12-10T14:32:33Z</time>
      </trkpt>
      <trkpt lat="46.40628" lon="-0.45236">
        <ele>53</ele>
        <time>2013-12-10T14:32:38Z</time>
      </trkpt>
      <trkpt lat="46.40628" lon="-0.45228">
        <ele>53</ele>
        <time>2013-12-10T14:32:43Z</time>
      </trkpt>
      <trkpt lat="46.40628" lon="-0.45222">
        <ele>53</ele>
        <time>2013-12-10T14:32:48Z</time>
      </trkpt>
      <trkpt lat="46.40628" lon="-0.45215">
        <ele>53</ele>
        <time>2013-12-10T14:32:53Z</time>
      </trkpt>
      <trkpt lat="46.40628" lon="-0.45213">
        <ele>53</ele>
        <time>2013-12-10T14:32:58Z</time>
      </trkpt>
      <trkpt lat="46.40629" lon="-0.45212">
        <ele>53</ele>
        <time>2013-12-10T14:33:03Z</time>
      </trkpt>
      <trkpt lat="46.40629" lon="-0.45208">
        <ele>54</ele>
        <time>2013-12-10T14:33:08Z</time>
      </trkpt>
      <trkpt lat="46.4063" lon="-0.45207">
        <ele>54</ele>
        <time>2013-12-10T14:33:18Z</time>
      </trkpt>
      <trkpt lat="46.40633" lon="-0.45204">
        <ele>54</ele>
        <time>2013-12-10T14:33:23Z</time>
      </trkpt>
      <trkpt lat="46.40637" lon="-0.45202">
        <ele>54</ele>
        <time>2013-12-10T14:33:28Z</time>
      </trkpt>
      <trkpt lat="46.40643" lon="-0.452">
        <ele>54</ele>
        <time>2013-12-10T14:33:33Z</time>
      </trkpt>
      <trkpt lat="46.40646" lon="-0.45198">
        <ele>54</ele>
        <time>2013-12-10T14:33:38Z</time>
      </trkpt>
      <trkpt lat="46.40651" lon="-0.45197">
        <ele>54</ele>
        <time>2013-12-10T14:33:43Z</time>
      </trkpt>
      <trkpt lat="46.40656" lon="-0.45195">
        <ele>54</ele>
        <time>2013-12-10T14:33:48Z</time>
      </trkpt>
      <trkpt lat="46.40659" lon="-0.45192">
        <ele>54</ele>
        <time>2013-12-10T14:33:53Z</time>
      </trkpt>
      <trkpt lat="46.40664" lon="-0.45189">
        <ele>54</ele>
        <time>2013-12-10T14:33:58Z</time>
      </trkpt>
      <trkpt lat="46.40671" lon="-0.45187">
        <ele>54</ele>
        <time>2013-12-10T14:34:03Z</time>
      </trkpt>
      <trkpt lat="46.40677" lon="-0.45185">
        <ele>54</ele>
        <time>2013-12-10T14:34:08Z</time>
      </trkpt>
      <trkpt lat="46.40683" lon="-0.45183">
        <ele>54</ele>
        <time>2013-12-10T14:34:13Z</time>
      </trkpt>
      <trkpt lat="46.40687" lon="-0.45182">
        <ele>54</ele>
        <time>2013-12-10T14:34:18Z</time>
      </trkpt>
      <trkpt lat="46.40689" lon="-0.45179">
        <ele>54</ele>
        <time>2013-12-10T14:34:23Z</time>
      </trkpt>
      <trkpt lat="46.40688" lon="-0.4518">
        <ele>54</ele>
        <time>2013-12-10T14:34:28Z</time>
      </trkpt>
      <trkpt lat="46.40691" lon="-0.45181">
        <ele>54</ele>
        <time>2013-12-10T14:34:33Z</time>
      </trkpt>
      <trkpt lat="46.40693" lon="-0.45181">
        <ele>54</ele>
        <time>2013-12-10T14:34:38Z</time>
      </trkpt>
      <trkpt lat="46.40697" lon="-0.45181">
        <ele>54</ele>
        <time>2013-12-10T14:34:43Z</time>
      </trkpt>
      <trkpt lat="46.40702" lon="-0.45178">
        <ele>54</ele>
        <time>2013-12-10T14:34:48Z</time>
      </trkpt>
      <trkpt lat="46.40707" lon="-0.45176">
        <ele>54</ele>
        <time>2013-12-10T14:34:53Z</time>
      </trkpt>
      <trkpt lat="46.40711" lon="-0.45175">
        <ele>54</ele>
        <time>2013-12-10T14:34:58Z</time>
      </trkpt>
      <trkpt lat="46.40717" lon="-0.45173">
        <ele>54</ele>
        <time>2013-12-10T14:35:03Z</time>
      </trkpt>
      <trkpt lat="46.40723" lon="-0.4517">
        <ele>54</ele>
        <time>2013-12-10T14:35:08Z</time>
      </trkpt>
      <trkpt lat="46.40727" lon="-0.45169">
        <ele>54</ele>
        <time>2013-12-10T14:35:13Z</time>
      </trkpt>
      <trkpt lat="46.40732" lon="-0.45167">
        <ele>54</ele>
        <time>2013-12-10T14:35:18Z</time>
      </trkpt>
      <trkpt lat="46.40738" lon="-0.45166">
        <ele>54</ele>
        <time>2013-12-10T14:35:23Z</time>
      </trkpt>
      <trkpt lat="46.40747" lon="-0.45161">
        <ele>54</ele>
        <time>2013-12-10T14:35:28Z</time>
      </trkpt>
      <trkpt lat="46.40754" lon="-0.45159">
        <ele>54</ele>
        <time>2013-12-10T14:35:33Z</time>
      </trkpt>
      <trkpt lat="46.40759" lon="-0.45153">
        <ele>54</ele>
        <time>2013-12-10T14:35:38Z</time>
      </trkpt>
      <trkpt lat="46.4076" lon="-0.45155">
        <ele>54</ele>
        <time>2013-12-10T14:35:43Z</time>
      </trkpt>
      <trkpt lat="46.40766" lon="-0.45152">
        <ele>54</ele>
        <time>2013-12-10T14:35:48Z</time>
      </trkpt>
      <trkpt lat="46.40768" lon="-0.45151">
        <ele>54</ele>
        <time>2013-12-10T14:35:53Z</time>
      </trkpt>
      <trkpt lat="46.40775" lon="-0.45149">
        <ele>54</ele>
        <time>2013-12-10T14:35:58Z</time>
      </trkpt>
      <trkpt lat="46.40779" lon="-0.45148">
        <ele>54</ele>
        <time>2013-12-10T14:36:03Z</time>
      </trkpt>
      <trkpt lat="46.40784" lon="-0.45146">
        <ele>54</ele>
        <time>2013-12-10T14:36:08Z</time>
      </trkpt>
      <trkpt lat="46.40792" lon="-0.45144">
        <ele>55</ele>
        <time>2013-12-10T14:36:13Z</time>
      </trkpt>
      <trkpt lat="46.40796" lon="-0.45143">
        <ele>55</ele>
        <time>2013-12-10T14:36:18Z</time>
      </trkpt>
      <trkpt lat="46.40801" lon="-0.45141">
        <ele>55</ele>
        <time>2013-12-10T14:36:23Z</time>
      </trkpt>
      <trkpt lat="46.40806" lon="-0.45138">
        <ele>55</ele>
        <time>2013-12-10T14:36:28Z</time>
      </trkpt>
      <trkpt lat="46.40812" lon="-0.45136">
        <ele>55</ele>
        <time>2013-12-10T14:36:33Z</time>
      </trkpt>
      <trkpt lat="46.40818" lon="-0.45135">
        <ele>55</ele>
        <time>2013-12-10T14:36:38Z</time>
      </trkpt>
      <trkpt lat="46.40824" lon="-0.45131">
        <ele>55</ele>
        <time>2013-12-10T14:36:43Z</time>
      </trkpt>
      <trkpt lat="46.40828" lon="-0.45129">
        <ele>55</ele>
        <time>2013-12-10T14:36:48Z</time>
      </trkpt>
      <trkpt lat="46.40832" lon="-0.4513">
        <ele>55</ele>
        <time>2013-12-10T14:36:53Z</time>
      </trkpt>
      <trkpt lat="46.4084" lon="-0.45129">
        <ele>55</ele>
        <time>2013-12-10T14:36:58Z</time>
      </trkpt>
      <trkpt lat="46.40845" lon="-0.45126">
        <ele>55</ele>
        <time>2013-12-10T14:37:03Z</time>
      </trkpt>
      <trkpt lat="46.40851" lon="-0.45124">
        <ele>56</ele>
        <time>2013-12-10T14:37:08Z</time>
      </trkpt>
      <trkpt lat="46.40858" lon="-0.45123">
        <ele>56</ele>
        <time>2013-12-10T14:37:13Z</time>
      </trkpt>
      <trkpt lat="46.40862" lon="-0.4512">
        <ele>56</ele>
        <time>2013-12-10T14:37:18Z</time>
      </trkpt>
      <trkpt lat="46.40867" lon="-0.4512">
        <ele>56</ele>
        <time>2013-12-10T14:37:23Z</time>
      </trkpt>
      <trkpt lat="46.40872" lon="-0.45118">
        <ele>56</ele>
        <time>2013-12-10T14:37:28Z</time>
      </trkpt>
      <trkpt lat="46.40874" lon="-0.45116">
        <ele>56</ele>
        <time>2013-12-10T14:37:33Z</time>
      </trkpt>
      <trkpt lat="46.40878" lon="-0.45114">
        <ele>57</ele>
        <time>2013-12-10T14:37:38Z</time>
      </trkpt>
      <trkpt lat="46.40882" lon="-0.45111">
        <ele>57</ele>
        <time>2013-12-10T14:37:43Z</time>
      </trkpt>
      <trkpt lat="46.40891" lon="-0.45111">
        <ele>57</ele>
        <time>2013-12-10T14:37:48Z</time>
      </trkpt>
      <trkpt lat="46.40897" lon="-0.45108">
        <ele>57</ele>
        <time>2013-12-10T14:37:53Z</time>
      </trkpt>
      <trkpt lat="46.40899" lon="-0.45108">
        <ele>57</ele>
        <time>2013-12-10T14:37:58Z</time>
      </trkpt>
      <trkpt lat="46.4091" lon="-0.45107">
        <ele>57</ele>
        <time>2013-12-10T14:38:03Z</time>
      </trkpt>
      <trkpt lat="46.40913" lon="-0.45105">
        <ele>57</ele>
        <time>2013-12-10T14:38:08Z</time>
      </trkpt>
      <trkpt lat="46.40918" lon="-0.45101">
        <ele>57</ele>
        <time>2013-12-10T14:38:13Z</time>
      </trkpt>
      <trkpt lat="46.40922" lon="-0.451">
        <ele>57</ele>
        <time>2013-12-10T14:38:18Z</time>
      </trkpt>
      <trkpt lat="46.40927" lon="-0.45099">
        <ele>57</ele>
        <time>2013-12-10T14:38:23Z</time>
      </trkpt>
      <trkpt lat="46.40931" lon="-0.45097">
        <ele>57</ele>
        <time>2013-12-10T14:38:28Z</time>
      </trkpt>
      <trkpt lat="46.40937" lon="-0.45096">
        <ele>57</ele>
        <time>2013-12-10T14:38:33Z</time>
      </trkpt>
      <trkpt lat="46.40945" lon="-0.45095">
        <ele>57</ele>
        <time>2013-12-10T14:38:38Z</time>
      </trkpt>
      <trkpt lat="46.40952" lon="-0.45094">
        <ele>57</ele>
        <time>2013-12-10T14:38:43Z</time>
      </trkpt>
      <trkpt lat="46.40956" lon="-0.45093">
        <ele>57</ele>
        <time>2013-12-10T14:38:48Z</time>
      </trkpt>
      <trkpt lat="46.40963" lon="-0.4509">
        <ele>58</ele>
        <time>2013-12-10T14:38:53Z</time>
      </trkpt>
      <trkpt lat="46.40967" lon="-0.45089">
        <ele>58</ele>
        <time>2013-12-10T14:38:58Z</time>
      </trkpt>
      <trkpt lat="46.40971" lon="-0.45088">
        <ele>58</ele>
        <time>2013-12-10T14:39:03Z</time>
      </trkpt>
      <trkpt lat="46.40975" lon="-0.45086">
        <ele>58</ele>
        <time>2013-12-10T14:39:08Z</time>
      </trkpt>
      <trkpt lat="46.40984" lon="-0.45085">
        <ele>58</ele>
        <time>2013-12-10T14:39:13Z</time>
      </trkpt>
      <trkpt lat="46.40987" lon="-0.45085">
        <ele>58</ele>
        <time>2013-12-10T14:39:18Z</time>
      </trkpt>
      <trkpt lat="46.4099" lon="-0.45083">
        <ele>58</ele>
        <time>2013-12-10T14:39:23Z</time>
      </trkpt>
      <trkpt lat="46.40994" lon="-0.45081">
        <ele>58</ele>
        <time>2013-12-10T14:39:28Z</time>
      </trkpt>
      <trkpt lat="46.41004" lon="-0.4508">
        <ele>58</ele>
        <time>2013-12-10T14:39:33Z</time>
      </trkpt>
      <trkpt lat="46.41009" lon="-0.45078">
        <ele>58</ele>
        <time>2013-12-10T14:39:38Z</time>
      </trkpt>
      <trkpt lat="46.41013" lon="-0.45078">
        <ele>58</ele>
        <time>2013-12-10T14:39:43Z</time>
      </trkpt>
      <trkpt lat="46.41021" lon="-0.45077">
        <ele>58</ele>
        <time>2013-12-10T14:39:48Z</time>
      </trkpt>
      <trkpt lat="46.41027" lon="-0.45076">
        <ele>58</ele>
        <time>2013-12-10T14:39:53Z</time>
      </trkpt>
      <trkpt lat="46.41035" lon="-0.45077">
        <ele>58</ele>
        <time>2013-12-10T14:39:58Z</time>
      </trkpt>
      <trkpt lat="46.41041" lon="-0.45075">
        <ele>58</ele>
        <time>2013-12-10T14:40:03Z</time>
      </trkpt>
      <trkpt lat="46.41046" lon="-0.45075">
        <ele>59</ele>
        <time>2013-12-10T14:40:08Z</time>
      </trkpt>
      <trkpt lat="46.41052" lon="-0.45075">
        <ele>59</ele>
        <time>2013-12-10T14:40:13Z</time>
      </trkpt>
      <trkpt lat="46.41057" lon="-0.45075">
        <ele>59</ele>
        <time>2013-12-10T14:40:18Z</time>
      </trkpt>
      <trkpt lat="46.41063" lon="-0.45075">
        <ele>59</ele>
        <time>2013-12-10T14:40:23Z</time>
      </trkpt>
      <trkpt lat="46.41069" lon="-0.45075">
        <ele>59</ele>
        <time>2013-12-10T14:40:28Z</time>
      </trkpt>
      <trkpt lat="46.41073" lon="-0.45074">
        <ele>59</ele>
        <time>2013-12-10T14:40:33Z</time>
      </trkpt>
      <trkpt lat="46.4108" lon="-0.45075">
        <ele>59</ele>
        <time>2013-12-10T14:40:38Z</time>
      </trkpt>
      <trkpt lat="46.41086" lon="-0.45075">
        <ele>59</ele>
        <time>2013-12-10T14:40:43Z</time>
      </trkpt>
      <trkpt lat="46.41092" lon="-0.45076">
        <ele>59</ele>
        <time>2013-12-10T14:40:48Z</time>
      </trkpt>
      <trkpt lat="46.41095" lon="-0.45078">
        <ele>59</ele>
        <time>2013-12-10T14:40:53Z</time>
      </trkpt>
      <trkpt lat="46.41102" lon="-0.45078">
        <ele>59</ele>
        <time>2013-12-10T14:40:58Z</time>
      </trkpt>
      <trkpt lat="46.41108" lon="-0.45077">
        <ele>59</ele>
        <time>2013-12-10T14:41:03Z</time>
      </trkpt>
      <trkpt lat="46.41115" lon="-0.45076">
        <ele>59</ele>
        <time>2013-12-10T14:41:08Z</time>
      </trkpt>
      <trkpt lat="46.41121" lon="-0.45076">
        <ele>59</ele>
        <time>2013-12-10T14:41:13Z</time>
      </trkpt>
      <trkpt lat="46.41126" lon="-0.45076">
        <ele>60</ele>
        <time>2013-12-10T14:41:18Z</time>
      </trkpt>
      <trkpt lat="46.41132" lon="-0.45076">
        <ele>60</ele>
        <time>2013-12-10T14:41:23Z</time>
      </trkpt>
      <trkpt lat="46.41136" lon="-0.45075">
        <ele>60</ele>
        <time>2013-12-10T14:41:28Z</time>
      </trkpt>
      <trkpt lat="46.41138" lon="-0.45075">
        <ele>60</ele>
        <time>2013-12-10T14:41:33Z</time>
      </trkpt>
      <trkpt lat="46.41138" lon="-0.45075">
        <ele>60</ele>
        <time>2013-12-10T14:41:38Z</time>
      </trkpt>
      <trkpt lat="46.41138" lon="-0.45076">
        <ele>60</ele>
        <time>2013-12-10T14:41:48Z</time>
      </trkpt>
      <trkpt lat="46.41138" lon="-0.45075">
        <ele>60</ele>
        <time>2013-12-10T14:41:53Z</time>
      </trkpt>
      <trkpt lat="46.41142" lon="-0.45075">
        <ele>60</ele>
        <time>2013-12-10T14:41:58Z</time>
      </trkpt>
      <trkpt lat="46.4115" lon="-0.45075">
        <ele>60</ele>
        <time>2013-12-10T14:42:03Z</time>
      </trkpt>
      <trkpt lat="46.41157" lon="-0.45074">
        <ele>60</ele>
        <time>2013-12-10T14:42:08Z</time>
      </trkpt>
      <trkpt lat="46.4116" lon="-0.45072">
        <ele>60</ele>
        <time>2013-12-10T14:42:13Z</time>
      </trkpt>
      <trkpt lat="46.41166" lon="-0.45069">
        <ele>60</ele>
        <time>2013-12-10T14:42:18Z</time>
      </trkpt>
      <trkpt lat="46.41173" lon="-0.45068">
        <ele>60</ele>
        <time>2013-12-10T14:42:23Z</time>
      </trkpt>
      <trkpt lat="46.41179" lon="-0.45066">
        <ele>60</ele>
        <time>2013-12-10T14:42:28Z</time>
      </trkpt>
      <trkpt lat="46.41185" lon="-0.45065">
        <ele>60</ele>
        <time>2013-12-10T14:42:33Z</time>
      </trkpt>
      <trkpt lat="46.4119" lon="-0.45063">
        <ele>60</ele>
        <time>2013-12-10T14:42:38Z</time>
      </trkpt>
      <trkpt lat="46.41193" lon="-0.45063">
        <ele>60</ele>
        <time>2013-12-10T14:42:43Z</time>
      </trkpt>
      <trkpt lat="46.41204" lon="-0.4506">
        <ele>60</ele>
        <time>2013-12-10T14:42:48Z</time>
      </trkpt>
      <trkpt lat="46.4121" lon="-0.45058">
        <ele>61</ele>
        <time>2013-12-10T14:42:53Z</time>
      </trkpt>
      <trkpt lat="46.41217" lon="-0.45056">
        <ele>61</ele>
        <time>2013-12-10T14:42:58Z</time>
      </trkpt>
      <trkpt lat="46.41222" lon="-0.45055">
        <ele>61</ele>
        <time>2013-12-10T14:43:03Z</time>
      </trkpt>
      <trkpt lat="46.41227" lon="-0.45054">
        <ele>61</ele>
        <time>2013-12-10T14:43:08Z</time>
      </trkpt>
      <trkpt lat="46.41233" lon="-0.45051">
        <ele>61</ele>
        <time>2013-12-10T14:43:13Z</time>
      </trkpt>
      <trkpt lat="46.41239" lon="-0.45049">
        <ele>61</ele>
        <time>2013-12-10T14:43:18Z</time>
      </trkpt>
      <trkpt lat="46.41245" lon="-0.45047">
        <ele>61</ele>
        <time>2013-12-10T14:43:23Z</time>
      </trkpt>
      <trkpt lat="46.4125" lon="-0.45047">
        <ele>61</ele>
        <time>2013-12-10T14:43:28Z</time>
      </trkpt>
      <trkpt lat="46.41256" lon="-0.45044">
        <ele>61</ele>
        <time>2013-12-10T14:43:33Z</time>
      </trkpt>
      <trkpt lat="46.41259" lon="-0.45045">
        <ele>61</ele>
        <time>2013-12-10T14:43:38Z</time>
      </trkpt>
      <trkpt lat="46.41261" lon="-0.45048">
        <ele>61</ele>
        <time>2013-12-10T14:43:43Z</time>
      </trkpt>
      <trkpt lat="46.41267" lon="-0.45047">
        <ele>61</ele>
        <time>2013-12-10T14:43:53Z</time>
      </trkpt>
      <trkpt lat="46.4127" lon="-0.45047">
        <ele>61</ele>
        <time>2013-12-10T14:43:58Z</time>
      </trkpt>
      <trkpt lat="46.4127" lon="-0.45048">
        <ele>61</ele>
        <time>2013-12-10T14:44:03Z</time>
      </trkpt>
      <trkpt lat="46.4127" lon="-0.45049">
        <ele>61</ele>
        <time>2013-12-10T14:44:08Z</time>
      </trkpt>
      <trkpt lat="46.41269" lon="-0.45046">
        <ele>61</ele>
        <time>2013-12-10T14:44:13Z</time>
      </trkpt>
      <trkpt lat="46.4127" lon="-0.45048">
        <ele>61</ele>
        <time>2013-12-10T14:44:18Z</time>
      </trkpt>
      <trkpt lat="46.41272" lon="-0.45051">
        <ele>61</ele>
        <time>2013-12-10T14:44:23Z</time>
      </trkpt>
      <trkpt lat="46.41275" lon="-0.45047">
        <ele>61</ele>
        <time>2013-12-10T14:44:28Z</time>
      </trkpt>
      <trkpt lat="46.41277" lon="-0.45048">
        <ele>61</ele>
        <time>2013-12-10T14:44:33Z</time>
      </trkpt>
      <trkpt lat="46.41277" lon="-0.45054">
        <ele>61</ele>
        <time>2013-12-10T14:44:38Z</time>
      </trkpt>
      <trkpt lat="46.41279" lon="-0.45056">
        <ele>61</ele>
        <time>2013-12-10T14:44:43Z</time>
      </trkpt>
      <trkpt lat="46.41281" lon="-0.45062">
        <ele>61</ele>
        <time>2013-12-10T14:44:48Z</time>
      </trkpt>
      <trkpt lat="46.41283" lon="-0.45068">
        <ele>61</ele>
        <time>2013-12-10T14:44:53Z</time>
      </trkpt>
      <trkpt lat="46.41284" lon="-0.45074">
        <ele>61</ele>
        <time>2013-12-10T14:44:58Z</time>
      </trkpt>
      <trkpt lat="46.41286" lon="-0.4508">
        <ele>61</ele>
        <time>2013-12-10T14:45:03Z</time>
      </trkpt>
      <trkpt lat="46.41288" lon="-0.45088">
        <ele>61</ele>
        <time>2013-12-10T14:45:08Z</time>
      </trkpt>
      <trkpt lat="46.41289" lon="-0.45095">
        <ele>61</ele>
        <time>2013-12-10T14:45:13Z</time>
      </trkpt>
      <trkpt lat="46.4129" lon="-0.45102">
        <ele>61</ele>
        <time>2013-12-10T14:45:18Z</time>
      </trkpt>
      <trkpt lat="46.41292" lon="-0.45111">
        <ele>61</ele>
        <time>2013-12-10T14:45:23Z</time>
      </trkpt>
      <trkpt lat="46.41293" lon="-0.45118">
        <ele>61</ele>
        <time>2013-12-10T14:45:28Z</time>
      </trkpt>
      <trkpt lat="46.41296" lon="-0.45125">
        <ele>61</ele>
        <time>2013-12-10T14:45:33Z</time>
      </trkpt>
      <trkpt lat="46.41297" lon="-0.45133">
        <ele>59</ele>
        <time>2013-12-10T14:45:38Z</time>
      </trkpt>
      <trkpt lat="46.41298" lon="-0.45142">
        <ele>59</ele>
        <time>2013-12-10T14:45:43Z</time>
      </trkpt>
      <trkpt lat="46.41299" lon="-0.4515">
        <ele>59</ele>
        <time>2013-12-10T14:45:48Z</time>
      </trkpt>
      <trkpt lat="46.41302" lon="-0.45156">
        <ele>59</ele>
        <time>2013-12-10T14:45:53Z</time>
      </trkpt>
      <trkpt lat="46.41305" lon="-0.45165">
        <ele>59</ele>
        <time>2013-12-10T14:45:58Z</time>
      </trkpt>
      <trkpt lat="46.41305" lon="-0.45173">
        <ele>59</ele>
        <time>2013-12-10T14:46:03Z</time>
      </trkpt>
      <trkpt lat="46.41305" lon="-0.45181">
        <ele>59</ele>
        <time>2013-12-10T14:46:08Z</time>
      </trkpt>
      <trkpt lat="46.41306" lon="-0.45188">
        <ele>59</ele>
        <time>2013-12-10T14:46:13Z</time>
      </trkpt>
      <trkpt lat="46.41307" lon="-0.45196">
        <ele>59</ele>
        <time>2013-12-10T14:46:18Z</time>
      </trkpt>
      <trkpt lat="46.4131" lon="-0.45205">
        <ele>59</ele>
        <time>2013-12-10T14:46:23Z</time>
      </trkpt>
      <trkpt lat="46.41313" lon="-0.45213">
        <ele>56</ele>
        <time>2013-12-10T14:46:28Z</time>
      </trkpt>
      <trkpt lat="46.41315" lon="-0.4522">
        <ele>56</ele>
        <time>2013-12-10T14:46:33Z</time>
      </trkpt>
      <trkpt lat="46.41315" lon="-0.45228">
        <ele>56</ele>
        <time>2013-12-10T14:46:38Z</time>
      </trkpt>
      <trkpt lat="46.41314" lon="-0.45237">
        <ele>56</ele>
        <time>2013-12-10T14:46:43Z</time>
      </trkpt>
      <trkpt lat="46.41316" lon="-0.45245">
        <ele>56</ele>
        <time>2013-12-10T14:46:48Z</time>
      </trkpt>
      <trkpt lat="46.41317" lon="-0.45251">
        <ele>56</ele>
        <time>2013-12-10T14:46:53Z</time>
      </trkpt>
      <trkpt lat="46.41316" lon="-0.45258">
        <ele>56</ele>
        <time>2013-12-10T14:46:58Z</time>
      </trkpt>
      <trkpt lat="46.41315" lon="-0.45264">
        <ele>56</ele>
        <time>2013-12-10T14:47:03Z</time>
      </trkpt>
      <trkpt lat="46.41316" lon="-0.45271">
        <ele>56</ele>
        <time>2013-12-10T14:47:08Z</time>
      </trkpt>
      <trkpt lat="46.41317" lon="-0.45279">
        <ele>56</ele>
        <time>2013-12-10T14:47:13Z</time>
      </trkpt>
      <trkpt lat="46.41319" lon="-0.45286">
        <ele>56</ele>
        <time>2013-12-10T14:47:18Z</time>
      </trkpt>
      <trkpt lat="46.41323" lon="-0.45296">
        <ele>53</ele>
        <time>2013-12-10T14:47:23Z</time>
      </trkpt>
      <trkpt lat="46.41325" lon="-0.45301">
        <ele>53</ele>
        <time>2013-12-10T14:47:28Z</time>
      </trkpt>
      <trkpt lat="46.41331" lon="-0.45303">
        <ele>53</ele>
        <time>2013-12-10T14:47:33Z</time>
      </trkpt>
      <trkpt lat="46.41335" lon="-0.45303">
        <ele>53</ele>
        <time>2013-12-10T14:47:38Z</time>
      </trkpt>
      <trkpt lat="46.41342" lon="-0.45305">
        <ele>53</ele>
        <time>2013-12-10T14:47:43Z</time>
      </trkpt>
      <trkpt lat="46.41345" lon="-0.45309">
        <ele>53</ele>
        <time>2013-12-10T14:47:48Z</time>
      </trkpt>
      <trkpt lat="46.41349" lon="-0.4531">
        <ele>53</ele>
        <time>2013-12-10T14:47:53Z</time>
      </trkpt>
      <trkpt lat="46.41349" lon="-0.45309">
        <ele>53</ele>
        <time>2013-12-10T14:47:58Z</time>
      </trkpt>
      <trkpt lat="46.41349" lon="-0.45309">
        <ele>53</ele>
        <time>2013-12-10T14:48:03Z</time>
      </trkpt>
      <trkpt lat="46.4135" lon="-0.45313">
        <ele>53</ele>
        <time>2013-12-10T14:48:08Z</time>
      </trkpt>
      <trkpt lat="46.41351" lon="-0.45317">
        <ele>53</ele>
        <time>2013-12-10T14:48:13Z</time>
      </trkpt>
      <trkpt lat="46.4135" lon="-0.45324">
        <ele>53</ele>
        <time>2013-12-10T14:48:18Z</time>
      </trkpt>
      <trkpt lat="46.41354" lon="-0.4533">
        <ele>53</ele>
        <time>2013-12-10T14:48:23Z</time>
      </trkpt>
      <trkpt lat="46.41356" lon="-0.45338">
        <ele>53</ele>
        <time>2013-12-10T14:48:28Z</time>
      </trkpt>
      <trkpt lat="46.41358" lon="-0.45345">
        <ele>53</ele>
        <time>2013-12-10T14:48:33Z</time>
      </trkpt>
      <trkpt lat="46.41357" lon="-0.45353">
        <ele>53</ele>
        <time>2013-12-10T14:48:38Z</time>
      </trkpt>
      <trkpt lat="46.41353" lon="-0.45362">
        <ele>53</ele>
        <time>2013-12-10T14:48:43Z</time>
      </trkpt>
      <trkpt lat="46.41351" lon="-0.4537">
        <ele>53</ele>
        <time>2013-12-10T14:48:48Z</time>
      </trkpt>
      <trkpt lat="46.41351" lon="-0.45375">
        <ele>53</ele>
        <time>2013-12-10T14:48:53Z</time>
      </trkpt>
      <trkpt lat="46.41347" lon="-0.45381">
        <ele>46</ele>
        <time>2013-12-10T14:48:58Z</time>
      </trkpt>
      <trkpt lat="46.41343" lon="-0.45386">
        <ele>46</ele>
        <time>2013-12-10T14:49:03Z</time>
      </trkpt>
      <trkpt lat="46.41343" lon="-0.45395">
        <ele>46</ele>
        <time>2013-12-10T14:49:08Z</time>
      </trkpt>
      <trkpt lat="46.41343" lon="-0.45401">
        <ele>46</ele>
        <time>2013-12-10T14:49:13Z</time>
      </trkpt>
      <trkpt lat="46.41345" lon="-0.45402">
        <ele>46</ele>
        <time>2013-12-10T14:49:18Z</time>
      </trkpt>
      <trkpt lat="46.41347" lon="-0.45408">
        <ele>46</ele>
        <time>2013-12-10T14:49:23Z</time>
      </trkpt>
      <trkpt lat="46.41344" lon="-0.45417">
        <ele>46</ele>
        <time>2013-12-10T14:49:28Z</time>
      </trkpt>
      <trkpt lat="46.41345" lon="-0.45425">
        <ele>46</ele>
        <time>2013-12-10T14:49:33Z</time>
      </trkpt>
      <trkpt lat="46.41347" lon="-0.45433">
        <ele>46</ele>
        <time>2013-12-10T14:49:38Z</time>
      </trkpt>
      <trkpt lat="46.41349" lon="-0.4544">
        <ele>46</ele>
        <time>2013-12-10T14:49:43Z</time>
      </trkpt>
      <trkpt lat="46.41349" lon="-0.45446">
        <ele>46</ele>
        <time>2013-12-10T14:49:48Z</time>
      </trkpt>
      <trkpt lat="46.4135" lon="-0.45454">
        <ele>46</ele>
        <time>2013-12-10T14:49:53Z</time>
      </trkpt>
      <trkpt lat="46.41351" lon="-0.45463">
        <ele>37</ele>
        <time>2013-12-10T14:49:58Z</time>
      </trkpt>
      <trkpt lat="46.41353" lon="-0.45471">
        <ele>37</ele>
        <time>2013-12-10T14:50:03Z</time>
      </trkpt>
      <trkpt lat="46.41354" lon="-0.45479">
        <ele>37</ele>
        <time>2013-12-10T14:50:08Z</time>
      </trkpt>
      <trkpt lat="46.41353" lon="-0.45483">
        <ele>37</ele>
        <time>2013-12-10T14:50:13Z</time>
      </trkpt>
      <trkpt lat="46.41355" lon="-0.45491">
        <ele>37</ele>
        <time>2013-12-10T14:50:18Z</time>
      </trkpt>
      <trkpt lat="46.41357" lon="-0.45498">
        <ele>37</ele>
        <time>2013-12-10T14:50:23Z</time>
      </trkpt>
      <trkpt lat="46.41357" lon="-0.45507">
        <ele>37</ele>
        <time>2013-12-10T14:50:28Z</time>
      </trkpt>
      <trkpt lat="46.41358" lon="-0.45514">
        <ele>37</ele>
        <time>2013-12-10T14:50:33Z</time>
      </trkpt>
      <trkpt lat="46.41359" lon="-0.45523">
        <ele>37</ele>
        <time>2013-12-10T14:50:38Z</time>
      </trkpt>
      <trkpt lat="46.4136" lon="-0.45532">
        <ele>37</ele>
        <time>2013-12-10T14:50:43Z</time>
      </trkpt>
      <trkpt lat="46.41365" lon="-0.45539">
        <ele>37</ele>
        <time>2013-12-10T14:50:48Z</time>
      </trkpt>
      <trkpt lat="46.41369" lon="-0.45546">
        <ele>31</ele>
        <time>2013-12-10T14:50:53Z</time>
      </trkpt>
      <trkpt lat="46.41374" lon="-0.45552">
        <ele>31</ele>
        <time>2013-12-10T14:50:58Z</time>
      </trkpt>
      <trkpt lat="46.41377" lon="-0.45557">
        <ele>29</ele>
        <time>2013-12-10T14:51:03Z</time>
      </trkpt>
      <trkpt lat="46.41382" lon="-0.45558">
        <ele>29</ele>
        <time>2013-12-10T14:51:08Z</time>
      </trkpt>
      <trkpt lat="46.41385" lon="-0.4556">
        <ele>29</ele>
        <time>2013-12-10T14:51:13Z</time>
      </trkpt>
      <trkpt lat="46.4139" lon="-0.45559">
        <ele>29</ele>
        <time>2013-12-10T14:51:18Z</time>
      </trkpt>
      <trkpt lat="46.41389" lon="-0.45559">
        <ele>29</ele>
        <time>2013-12-10T14:51:23Z</time>
      </trkpt>
      <trkpt lat="46.41395" lon="-0.45562">
        <ele>29</ele>
        <time>2013-12-10T14:51:28Z</time>
      </trkpt>
      <trkpt lat="46.41399" lon="-0.45566">
        <ele>29</ele>
        <time>2013-12-10T14:51:33Z</time>
      </trkpt>
      <trkpt lat="46.41403" lon="-0.45572">
        <ele>29</ele>
        <time>2013-12-10T14:51:38Z</time>
      </trkpt>
      <trkpt lat="46.41406" lon="-0.45578">
        <ele>29</ele>
        <time>2013-12-10T14:51:43Z</time>
      </trkpt>
      <trkpt lat="46.41409" lon="-0.45585">
        <ele>29</ele>
        <time>2013-12-10T14:51:48Z</time>
      </trkpt>
      <trkpt lat="46.41412" lon="-0.45591">
        <ele>29</ele>
        <time>2013-12-10T14:51:53Z</time>
      </trkpt>
      <trkpt lat="46.41415" lon="-0.45597">
        <ele>29</ele>
        <time>2013-12-10T14:51:58Z</time>
      </trkpt>
      <trkpt lat="46.41417" lon="-0.45604">
        <ele>29</ele>
        <time>2013-12-10T14:52:03Z</time>
      </trkpt>
      <trkpt lat="46.4142" lon="-0.4561">
        <ele>29</ele>
        <time>2013-12-10T14:52:08Z</time>
      </trkpt>
      <trkpt lat="46.41422" lon="-0.45612">
        <ele>29</ele>
        <time>2013-12-10T14:52:13Z</time>
      </trkpt>
      <trkpt lat="46.41424" lon="-0.45619">
        <ele>29</ele>
        <time>2013-12-10T14:52:18Z</time>
      </trkpt>
      <trkpt lat="46.41426" lon="-0.45623">
        <ele>29</ele>
        <time>2013-12-10T14:52:23Z</time>
      </trkpt>
      <trkpt lat="46.41429" lon="-0.45628">
        <ele>30</ele>
        <time>2013-12-10T14:52:28Z</time>
      </trkpt>
      <trkpt lat="46.41429" lon="-0.45631">
        <ele>30</ele>
        <time>2013-12-10T14:52:33Z</time>
      </trkpt>
      <trkpt lat="46.41428" lon="-0.45635">
        <ele>30</ele>
        <time>2013-12-10T14:52:38Z</time>
      </trkpt>
      <trkpt lat="46.41428" lon="-0.45636">
        <ele>30</ele>
        <time>2013-12-10T14:52:43Z</time>
      </trkpt>
      <trkpt lat="46.41427" lon="-0.45637">
        <ele>30</ele>
        <time>2013-12-10T14:52:48Z</time>
      </trkpt>
      <trkpt lat="46.41429" lon="-0.45641">
        <ele>30</ele>
        <time>2013-12-10T14:52:53Z</time>
      </trkpt>
      <trkpt lat="46.41431" lon="-0.45647">
        <ele>30</ele>
        <time>2013-12-10T14:52:58Z</time>
      </trkpt>
      <trkpt lat="46.41436" lon="-0.45654">
        <ele>30</ele>
        <time>2013-12-10T14:53:03Z</time>
      </trkpt>
      <trkpt lat="46.41438" lon="-0.45665">
        <ele>30</ele>
        <time>2013-12-10T14:53:08Z</time>
      </trkpt>
      <trkpt lat="46.41443" lon="-0.45674">
        <ele>30</ele>
        <time>2013-12-10T14:53:13Z</time>
      </trkpt>
      <trkpt lat="46.41446" lon="-0.45681">
        <ele>30</ele>
        <time>2013-12-10T14:53:18Z</time>
      </trkpt>
      <trkpt lat="46.41447" lon="-0.45687">
        <ele>30</ele>
        <time>2013-12-10T14:53:23Z</time>
      </trkpt>
      <trkpt lat="46.41446" lon="-0.45692">
        <ele>30</ele>
        <time>2013-12-10T14:53:28Z</time>
      </trkpt>
      <trkpt lat="46.41447" lon="-0.45692">
        <ele>30</ele>
        <time>2013-12-10T14:53:33Z</time>
      </trkpt>
      <trkpt lat="46.41448" lon="-0.45692">
        <ele>30</ele>
        <time>2013-12-10T14:53:38Z</time>
      </trkpt>
      <trkpt lat="46.4145" lon="-0.45691">
        <ele>30</ele>
        <time>2013-12-10T14:53:43Z</time>
      </trkpt>
      <trkpt lat="46.41448" lon="-0.45692">
        <ele>30</ele>
        <time>2013-12-10T14:53:48Z</time>
      </trkpt>
      <trkpt lat="46.41445" lon="-0.45695">
        <ele>30</ele>
        <time>2013-12-10T14:53:53Z</time>
      </trkpt>
      <trkpt lat="46.41439" lon="-0.45699">
        <ele>30</ele>
        <time>2013-12-10T14:53:58Z</time>
      </trkpt>
      <trkpt lat="46.41436" lon="-0.457">
        <ele>30</ele>
        <time>2013-12-10T14:54:03Z</time>
      </trkpt>
      <trkpt lat="46.41431" lon="-0.45703">
        <ele>30</ele>
        <time>2013-12-10T14:54:08Z</time>
      </trkpt>
      <trkpt lat="46.41426" lon="-0.45705">
        <ele>30</ele>
        <time>2013-12-10T14:54:13Z</time>
      </trkpt>
      <trkpt lat="46.41424" lon="-0.45707">
        <ele>30</ele>
        <time>2013-12-10T14:54:18Z</time>
      </trkpt>
      <trkpt lat="46.41424" lon="-0.45705">
        <ele>30</ele>
        <time>2013-12-10T14:54:23Z</time>
      </trkpt>
      <trkpt lat="46.41424" lon="-0.45705">
        <ele>30</ele>
        <time>2013-12-10T14:54:28Z</time>
      </trkpt>
      <trkpt lat="46.41421" lon="-0.45705">
        <ele>30</ele>
        <time>2013-12-10T14:54:33Z</time>
      </trkpt>
      <trkpt lat="46.4142" lon="-0.45705">
        <ele>30</ele>
        <time>2013-12-10T14:54:43Z</time>
      </trkpt>
      <trkpt lat="46.41418" lon="-0.45705">
        <ele>30</ele>
        <time>2013-12-10T14:54:48Z</time>
      </trkpt>
      <trkpt lat="46.41413" lon="-0.45707">
        <ele>30</ele>
        <time>2013-12-10T14:54:53Z</time>
      </trkpt>
      <trkpt lat="46.41408" lon="-0.45707">
        <ele>30</ele>
        <time>2013-12-10T14:54:58Z</time>
      </trkpt>
      <trkpt lat="46.41403" lon="-0.45706">
        <ele>30</ele>
        <time>2013-12-10T14:55:03Z</time>
      </trkpt>
      <trkpt lat="46.41399" lon="-0.45706">
        <ele>30</ele>
        <time>2013-12-10T14:55:08Z</time>
      </trkpt>
      <trkpt lat="46.41395" lon="-0.45706">
        <ele>30</ele>
        <time>2013-12-10T14:55:13Z</time>
      </trkpt>
      <trkpt lat="46.41391" lon="-0.45704">
        <ele>30</ele>
        <time>2013-12-10T14:55:18Z</time>
      </trkpt>
      <trkpt lat="46.41387" lon="-0.45702">
        <ele>30</ele>
        <time>2013-12-10T14:55:23Z</time>
      </trkpt>
      <trkpt lat="46.41384" lon="-0.45701">
        <ele>30</ele>
        <time>2013-12-10T14:55:28Z</time>
      </trkpt>
      <trkpt lat="46.4138" lon="-0.45698">
        <ele>30</ele>
        <time>2013-12-10T14:55:33Z</time>
      </trkpt>
      <trkpt lat="46.41375" lon="-0.45696">
        <ele>30</ele>
        <time>2013-12-10T14:55:38Z</time>
      </trkpt>
      <trkpt lat="46.41374" lon="-0.45697">
        <ele>30</ele>
        <time>2013-12-10T14:55:43Z</time>
      </trkpt>
      <trkpt lat="46.41369" lon="-0.45696">
        <ele>30</ele>
        <time>2013-12-10T14:55:48Z</time>
      </trkpt>
      <trkpt lat="46.41365" lon="-0.45693">
        <ele>30</ele>
        <time>2013-12-10T14:55:53Z</time>
      </trkpt>
      <trkpt lat="46.41363" lon="-0.45693">
        <ele>30</ele>
        <time>2013-12-10T14:55:58Z</time>
      </trkpt>
      <trkpt lat="46.41359" lon="-0.45695">
        <ele>30</ele>
        <time>2013-12-10T14:56:03Z</time>
      </trkpt>
      <trkpt lat="46.41355" lon="-0.45697">
        <ele>30</ele>
        <time>2013-12-10T14:56:08Z</time>
      </trkpt>
      <trkpt lat="46.41351" lon="-0.45697">
        <ele>30</ele>
        <time>2013-12-10T14:56:13Z</time>
      </trkpt>
      <trkpt lat="46.4135" lon="-0.45697">
        <ele>30</ele>
        <time>2013-12-10T14:56:18Z</time>
      </trkpt>
      <trkpt lat="46.41349" lon="-0.45696">
        <ele>30</ele>
        <time>2013-12-10T14:56:23Z</time>
      </trkpt>
      <trkpt lat="46.41352" lon="-0.45696">
        <ele>30</ele>
        <time>2013-12-10T14:56:28Z</time>
      </trkpt>
      <trkpt lat="46.41357" lon="-0.45693">
        <ele>30</ele>
        <time>2013-12-10T14:56:33Z</time>
      </trkpt>
      <trkpt lat="46.41361" lon="-0.45693">
        <ele>30</ele>
        <time>2013-12-10T14:56:38Z</time>
      </trkpt>
      <trkpt lat="46.41364" lon="-0.45691">
        <ele>30</ele>
        <time>2013-12-10T14:56:43Z</time>
      </trkpt>
      <trkpt lat="46.41365" lon="-0.45692">
        <ele>30</ele>
        <time>2013-12-10T14:56:48Z</time>
      </trkpt>
      <trkpt lat="46.41371" lon="-0.45693">
        <ele>30</ele>
        <time>2013-12-10T14:56:53Z</time>
      </trkpt>
      <trkpt lat="46.41376" lon="-0.45694">
        <ele>30</ele>
        <time>2013-12-10T14:56:58Z</time>
      </trkpt>
      <trkpt lat="46.41381" lon="-0.45696">
        <ele>30</ele>
        <time>2013-12-10T14:57:03Z</time>
      </trkpt>
      <trkpt lat="46.41385" lon="-0.45698">
        <ele>30</ele>
        <time>2013-12-10T14:57:08Z</time>
      </trkpt>
      <trkpt lat="46.4139" lon="-0.45706">
        <ele>30</ele>
        <time>2013-12-10T14:57:13Z</time>
      </trkpt>
      <trkpt lat="46.41391" lon="-0.45709">
        <ele>35</ele>
        <time>2013-12-10T14:57:18Z</time>
      </trkpt>
      <trkpt lat="46.41392" lon="-0.45706">
        <ele>30</ele>
        <time>2013-12-10T14:57:23Z</time>
      </trkpt>
      <trkpt lat="46.41392" lon="-0.45705">
        <ele>30</ele>
        <time>2013-12-10T14:57:28Z</time>
      </trkpt>
      <trkpt lat="46.41393" lon="-0.45706">
        <ele>30</ele>
        <time>2013-12-10T14:57:33Z</time>
      </trkpt>
      <trkpt lat="46.41394" lon="-0.45706">
        <ele>30</ele>
        <time>2013-12-10T14:57:38Z</time>
      </trkpt>
      <trkpt lat="46.41391" lon="-0.45714">
        <ele>35</ele>
        <time>2013-12-10T14:57:43Z</time>
      </trkpt>
      <trkpt lat="46.41387" lon="-0.45717">
        <ele>35</ele>
        <time>2013-12-10T14:57:48Z</time>
      </trkpt>
      <trkpt lat="46.41381" lon="-0.45719">
        <ele>35</ele>
        <time>2013-12-10T14:57:53Z</time>
      </trkpt>
      <trkpt lat="46.41377" lon="-0.45718">
        <ele>35</ele>
        <time>2013-12-10T14:57:58Z</time>
      </trkpt>
      <trkpt lat="46.41373" lon="-0.45716">
        <ele>30</ele>
        <time>2013-12-10T14:58:03Z</time>
      </trkpt>
      <trkpt lat="46.41369" lon="-0.45719">
        <ele>30</ele>
        <time>2013-12-10T14:58:08Z</time>
      </trkpt>
      <trkpt lat="46.41366" lon="-0.45721">
        <ele>30</ele>
        <time>2013-12-10T14:58:13Z</time>
      </trkpt>
      <trkpt lat="46.41364" lon="-0.45725">
        <ele>30</ele>
        <time>2013-12-10T14:58:18Z</time>
      </trkpt>
      <trkpt lat="46.41359" lon="-0.45729">
        <ele>30</ele>
        <time>2013-12-10T14:58:23Z</time>
      </trkpt>
      <trkpt lat="46.41357" lon="-0.45733">
        <ele>30</ele>
        <time>2013-12-10T14:58:28Z</time>
      </trkpt>
      <trkpt lat="46.41357" lon="-0.45734">
        <ele>30</ele>
        <time>2013-12-10T14:58:33Z</time>
      </trkpt>
      <trkpt lat="46.41353" lon="-0.45739">
        <ele>30</ele>
        <time>2013-12-10T14:58:38Z</time>
      </trkpt>
      <trkpt lat="46.41351" lon="-0.45745">
        <ele>30</ele>
        <time>2013-12-10T14:58:43Z</time>
      </trkpt>
      <trkpt lat="46.41345" lon="-0.45748">
        <ele>30</ele>
        <time>2013-12-10T14:58:48Z</time>
      </trkpt>
      <trkpt lat="46.41342" lon="-0.45752">
        <ele>30</ele>
        <time>2013-12-10T14:58:53Z</time>
      </trkpt>
      <trkpt lat="46.41338" lon="-0.4575">
        <ele>30</ele>
        <time>2013-12-10T14:58:58Z</time>
      </trkpt>
      <trkpt lat="46.41337" lon="-0.45748">
        <ele>30</ele>
        <time>2013-12-10T14:59:03Z</time>
      </trkpt>
      <trkpt lat="46.41336" lon="-0.45752">
        <ele>30</ele>
        <time>2013-12-10T14:59:08Z</time>
      </trkpt>
      <trkpt lat="46.41333" lon="-0.45758">
        <ele>30</ele>
        <time>2013-12-10T14:59:13Z</time>
      </trkpt>
      <trkpt lat="46.4133" lon="-0.4576">
        <ele>30</ele>
        <time>2013-12-10T14:59:18Z</time>
      </trkpt>
      <trkpt lat="46.41332" lon="-0.45758">
        <ele>30</ele>
        <time>2013-12-10T14:59:23Z</time>
      </trkpt>
      <trkpt lat="46.41334" lon="-0.45754">
        <ele>30</ele>
        <time>2013-12-10T14:59:28Z</time>
      </trkpt>
      <trkpt lat="46.41335" lon="-0.45755">
        <ele>30</ele>
        <time>2013-12-10T14:59:33Z</time>
      </trkpt>
      <trkpt lat="46.41336" lon="-0.45749">
        <ele>30</ele>
        <time>2013-12-10T14:59:38Z</time>
      </trkpt>
      <trkpt lat="46.41337" lon="-0.45748">
        <ele>30</ele>
        <time>2013-12-10T14:59:43Z</time>
      </trkpt>
      <trkpt lat="46.41338" lon="-0.4575">
        <ele>30</ele>
        <time>2013-12-10T14:59:48Z</time>
      </trkpt>
      <trkpt lat="46.41339" lon="-0.4575">
        <ele>30</ele>
        <time>2013-12-10T14:59:53Z</time>
      </trkpt>
      <trkpt lat="46.41341" lon="-0.45747">
        <ele>30</ele>
        <time>2013-12-10T14:59:58Z</time>
      </trkpt>
      <trkpt lat="46.41344" lon="-0.45743">
        <ele>30</ele>
        <time>2013-12-10T15:00:03Z</time>
      </trkpt>
      <trkpt lat="46.41349" lon="-0.45741">
        <ele>30</ele>
        <time>2013-12-10T15:00:08Z</time>
      </trkpt>
      <trkpt lat="46.41351" lon="-0.45737">
        <ele>30</ele>
        <time>2013-12-10T15:00:13Z</time>
      </trkpt>
      <trkpt lat="46.41355" lon="-0.45729">
        <ele>30</ele>
        <time>2013-12-10T15:00:18Z</time>
      </trkpt>
      <trkpt lat="46.41358" lon="-0.45729">
        <ele>30</ele>
        <time>2013-12-10T15:00:23Z</time>
      </trkpt>
      <trkpt lat="46.41358" lon="-0.45729">
        <ele>30</ele>
        <time>2013-12-10T15:00:28Z</time>
      </trkpt>
      <trkpt lat="46.41363" lon="-0.45727">
        <ele>30</ele>
        <time>2013-12-10T15:00:33Z</time>
      </trkpt>
      <trkpt lat="46.41369" lon="-0.45721">
        <ele>30</ele>
        <time>2013-12-10T15:00:38Z</time>
      </trkpt>
      <trkpt lat="46.41373" lon="-0.45721">
        <ele>30</ele>
        <time>2013-12-10T15:00:43Z</time>
      </trkpt>
      <trkpt lat="46.41377" lon="-0.4572">
        <ele>35</ele>
        <time>2013-12-10T15:00:48Z</time>
      </trkpt>
      <trkpt lat="46.41378" lon="-0.4572">
        <ele>35</ele>
        <time>2013-12-10T15:00:53Z</time>
      </trkpt>
      <trkpt lat="46.41379" lon="-0.45721">
        <ele>35</ele>
        <time>2013-12-10T15:00:58Z</time>
      </trkpt>
      <trkpt lat="46.41381" lon="-0.45716">
        <ele>35</ele>
        <time>2013-12-10T15:01:03Z</time>
      </trkpt>
      <trkpt lat="46.41387" lon="-0.45709">
        <ele>35</ele>
        <time>2013-12-10T15:01:08Z</time>
      </trkpt>
      <trkpt lat="46.41393" lon="-0.45704">
        <ele>30</ele>
        <time>2013-12-10T15:01:13Z</time>
      </trkpt>
      <trkpt lat="46.41399" lon="-0.457">
        <ele>30</ele>
        <time>2013-12-10T15:01:18Z</time>
      </trkpt>
      <trkpt lat="46.41404" lon="-0.45705">
        <ele>30</ele>
        <time>2013-12-10T15:01:23Z</time>
      </trkpt>
      <trkpt lat="46.41411" lon="-0.45708">
        <ele>30</ele>
        <time>2013-12-10T15:01:28Z</time>
      </trkpt>
      <trkpt lat="46.41415" lon="-0.4571">
        <ele>35</ele>
        <time>2013-12-10T15:01:33Z</time>
      </trkpt>
      <trkpt lat="46.41421" lon="-0.45709">
        <ele>35</ele>
        <time>2013-12-10T15:01:38Z</time>
      </trkpt>
      <trkpt lat="46.41426" lon="-0.45705">
        <ele>30</ele>
        <time>2013-12-10T15:01:43Z</time>
      </trkpt>
      <trkpt lat="46.41432" lon="-0.45706">
        <ele>30</ele>
        <time>2013-12-10T15:01:48Z</time>
      </trkpt>
      <trkpt lat="46.41437" lon="-0.45704">
        <ele>30</ele>
        <time>2013-12-10T15:01:53Z</time>
      </trkpt>
      <trkpt lat="46.41438" lon="-0.45704">
        <ele>30</ele>
        <time>2013-12-10T15:01:58Z</time>
      </trkpt>
      <trkpt lat="46.41437" lon="-0.45703">
        <ele>30</ele>
        <time>2013-12-10T15:02:03Z</time>
      </trkpt>
      <trkpt lat="46.41437" lon="-0.45704">
        <ele>30</ele>
        <time>2013-12-10T15:02:08Z</time>
      </trkpt>
      <trkpt lat="46.41439" lon="-0.45705">
        <ele>30</ele>
        <time>2013-12-10T15:02:13Z</time>
      </trkpt>
      <trkpt lat="46.41442" lon="-0.45704">
        <ele>30</ele>
        <time>2013-12-10T15:02:18Z</time>
      </trkpt>
      <trkpt lat="46.41447" lon="-0.45699">
        <ele>30</ele>
        <time>2013-12-10T15:02:23Z</time>
      </trkpt>
      <trkpt lat="46.41454" lon="-0.45694">
        <ele>30</ele>
        <time>2013-12-10T15:02:28Z</time>
      </trkpt>
      <trkpt lat="46.41459" lon="-0.45695">
        <ele>35</ele>
        <time>2013-12-10T15:02:33Z</time>
      </trkpt>
      <trkpt lat="46.41463" lon="-0.45692">
        <ele>35</ele>
        <time>2013-12-10T15:02:38Z</time>
      </trkpt>
      <trkpt lat="46.41466" lon="-0.45689">
        <ele>35</ele>
        <time>2013-12-10T15:02:43Z</time>
      </trkpt>
      <trkpt lat="46.4147" lon="-0.45686">
        <ele>35</ele>
        <time>2013-12-10T15:02:48Z</time>
      </trkpt>
      <trkpt lat="46.41476" lon="-0.45686">
        <ele>35</ele>
        <time>2013-12-10T15:02:53Z</time>
      </trkpt>
      <trkpt lat="46.41481" lon="-0.45683">
        <ele>35</ele>
        <time>2013-12-10T15:02:58Z</time>
      </trkpt>
      <trkpt lat="46.41487" lon="-0.4568">
        <ele>35</ele>
        <time>2013-12-10T15:03:03Z</time>
      </trkpt>
      <trkpt lat="46.41492" lon="-0.45678">
        <ele>35</ele>
        <time>2013-12-10T15:03:08Z</time>
      </trkpt>
      <trkpt lat="46.41497" lon="-0.45676">
        <ele>35</ele>
        <time>2013-12-10T15:03:13Z</time>
      </trkpt>
      <trkpt lat="46.41503" lon="-0.45674">
        <ele>35</ele>
        <time>2013-12-10T15:03:18Z</time>
      </trkpt>
      <trkpt lat="46.41506" lon="-0.45671">
        <ele>35</ele>
        <time>2013-12-10T15:03:23Z</time>
      </trkpt>
      <trkpt lat="46.41511" lon="-0.45669">
        <ele>35</ele>
        <time>2013-12-10T15:03:28Z</time>
      </trkpt>
      <trkpt lat="46.41516" lon="-0.45665">
        <ele>35</ele>
        <time>2013-12-10T15:03:33Z</time>
      </trkpt>
      <trkpt lat="46.4152" lon="-0.45664">
        <ele>35</ele>
        <time>2013-12-10T15:03:38Z</time>
      </trkpt>
      <trkpt lat="46.41522" lon="-0.45664">
        <ele>35</ele>
        <time>2013-12-10T15:03:43Z</time>
      </trkpt>
      <trkpt lat="46.41528" lon="-0.4566">
        <ele>35</ele>
        <time>2013-12-10T15:03:48Z</time>
      </trkpt>
      <trkpt lat="46.41534" lon="-0.45655">
        <ele>35</ele>
        <time>2013-12-10T15:03:53Z</time>
      </trkpt>
      <trkpt lat="46.4154" lon="-0.45654">
        <ele>35</ele>
        <time>2013-12-10T15:03:58Z</time>
      </trkpt>
      <trkpt lat="46.41541" lon="-0.45653">
        <ele>35</ele>
        <time>2013-12-10T15:04:03Z</time>
      </trkpt>
      <trkpt lat="46.41547" lon="-0.4565">
        <ele>41</ele>
        <time>2013-12-10T15:04:08Z</time>
      </trkpt>
      <trkpt lat="46.41555" lon="-0.45647">
        <ele>41</ele>
        <time>2013-12-10T15:04:13Z</time>
      </trkpt>
      <trkpt lat="46.41561" lon="-0.45647">
        <ele>41</ele>
        <time>2013-12-10T15:04:18Z</time>
      </trkpt>
      <trkpt lat="46.41565" lon="-0.45645">
        <ele>41</ele>
        <time>2013-12-10T15:04:23Z</time>
      </trkpt>
      <trkpt lat="46.41569" lon="-0.45642">
        <ele>41</ele>
        <time>2013-12-10T15:04:28Z</time>
      </trkpt>
      <trkpt lat="46.41574" lon="-0.4564">
        <ele>41</ele>
        <time>2013-12-10T15:04:33Z</time>
      </trkpt>
      <trkpt lat="46.41581" lon="-0.45639">
        <ele>41</ele>
        <time>2013-12-10T15:04:38Z</time>
      </trkpt>
      <trkpt lat="46.41588" lon="-0.45643">
        <ele>41</ele>
        <time>2013-12-10T15:04:43Z</time>
      </trkpt>
      <trkpt lat="46.41594" lon="-0.45642">
        <ele>41</ele>
        <time>2013-12-10T15:04:48Z</time>
      </trkpt>
      <trkpt lat="46.41598" lon="-0.45642">
        <ele>41</ele>
        <time>2013-12-10T15:04:53Z</time>
      </trkpt>
      <trkpt lat="46.41602" lon="-0.45641">
        <ele>41</ele>
        <time>2013-12-10T15:04:58Z</time>
      </trkpt>
      <trkpt lat="46.41607" lon="-0.45641">
        <ele>41</ele>
        <time>2013-12-10T15:05:03Z</time>
      </trkpt>
      <trkpt lat="46.41611" lon="-0.45643">
        <ele>41</ele>
        <time>2013-12-10T15:05:08Z</time>
      </trkpt>
      <trkpt lat="46.41617" lon="-0.45647">
        <ele>41</ele>
        <time>2013-12-10T15:05:13Z</time>
      </trkpt>
      <trkpt lat="46.41619" lon="-0.4565">
        <ele>41</ele>
        <time>2013-12-10T15:05:18Z</time>
      </trkpt>
      <trkpt lat="46.41621" lon="-0.45656">
        <ele>41</ele>
        <time>2013-12-10T15:05:23Z</time>
      </trkpt>
      <trkpt lat="46.41623" lon="-0.45662">
        <ele>41</ele>
        <time>2013-12-10T15:05:28Z</time>
      </trkpt>
      <trkpt lat="46.41625" lon="-0.45667">
        <ele>41</ele>
        <time>2013-12-10T15:05:33Z</time>
      </trkpt>
      <trkpt lat="46.41627" lon="-0.45672">
        <ele>44</ele>
        <time>2013-12-10T15:05:38Z</time>
      </trkpt>
      <trkpt lat="46.41629" lon="-0.45676">
        <ele>44</ele>
        <time>2013-12-10T15:05:43Z</time>
      </trkpt>
      <trkpt lat="46.4163" lon="-0.45678">
        <ele>44</ele>
        <time>2013-12-10T15:05:48Z</time>
      </trkpt>
      <trkpt lat="46.41631" lon="-0.45681">
        <ele>44</ele>
        <time>2013-12-10T15:05:53Z</time>
      </trkpt>
      <trkpt lat="46.41633" lon="-0.45688">
        <ele>44</ele>
        <time>2013-12-10T15:05:58Z</time>
      </trkpt>
      <trkpt lat="46.41635" lon="-0.45693">
        <ele>44</ele>
        <time>2013-12-10T15:06:03Z</time>
      </trkpt>
      <trkpt lat="46.41636" lon="-0.45699">
        <ele>44</ele>
        <time>2013-12-10T15:06:08Z</time>
      </trkpt>
      <trkpt lat="46.41638" lon="-0.45705">
        <ele>44</ele>
        <time>2013-12-10T15:06:13Z</time>
      </trkpt>
      <trkpt lat="46.41638" lon="-0.45707">
        <ele>44</ele>
        <time>2013-12-10T15:06:18Z</time>
      </trkpt>
      <trkpt lat="46.41638" lon="-0.45707">
        <ele>44</ele>
        <time>2013-12-10T15:06:23Z</time>
      </trkpt>
      <trkpt lat="46.4164" lon="-0.45712">
        <ele>52</ele>
        <time>2013-12-10T15:06:28Z</time>
      </trkpt>
      <trkpt lat="46.41641" lon="-0.45714">
        <ele>52</ele>
        <time>2013-12-10T15:06:33Z</time>
      </trkpt>
      <trkpt lat="46.41642" lon="-0.45719">
        <ele>52</ele>
        <time>2013-12-10T15:06:38Z</time>
      </trkpt>
      <trkpt lat="46.41643" lon="-0.45723">
        <ele>52</ele>
        <time>2013-12-10T15:06:43Z</time>
      </trkpt>
      <trkpt lat="46.41645" lon="-0.45729">
        <ele>52</ele>
        <time>2013-12-10T15:06:48Z</time>
      </trkpt>
      <trkpt lat="46.41647" lon="-0.45735">
        <ele>52</ele>
        <time>2013-12-10T15:06:53Z</time>
      </trkpt>
      <trkpt lat="46.4165" lon="-0.45742">
        <ele>52</ele>
        <time>2013-12-10T15:06:58Z</time>
      </trkpt>
      <trkpt lat="46.41651" lon="-0.45747">
        <ele>52</ele>
        <time>2013-12-10T15:07:03Z</time>
      </trkpt>
      <trkpt lat="46.41653" lon="-0.45755">
        <ele>52</ele>
        <time>2013-12-10T15:07:08Z</time>
      </trkpt>
      <trkpt lat="46.41655" lon="-0.45762">
        <ele>52</ele>
        <time>2013-12-10T15:07:13Z</time>
      </trkpt>
      <trkpt lat="46.41657" lon="-0.45769">
        <ele>52</ele>
        <time>2013-12-10T15:07:18Z</time>
      </trkpt>
      <trkpt lat="46.41659" lon="-0.45774">
        <ele>52</ele>
        <time>2013-12-10T15:07:23Z</time>
      </trkpt>
      <trkpt lat="46.41662" lon="-0.45781">
        <ele>52</ele>
        <time>2013-12-10T15:07:28Z</time>
      </trkpt>
      <trkpt lat="46.41664" lon="-0.45786">
        <ele>52</ele>
        <time>2013-12-10T15:07:33Z</time>
      </trkpt>
      <trkpt lat="46.41667" lon="-0.45792">
        <ele>57</ele>
        <time>2013-12-10T15:07:38Z</time>
      </trkpt>
      <trkpt lat="46.41668" lon="-0.45799">
        <ele>57</ele>
        <time>2013-12-10T15:07:43Z</time>
      </trkpt>
      <trkpt lat="46.41671" lon="-0.45805">
        <ele>57</ele>
        <time>2013-12-10T15:07:48Z</time>
      </trkpt>
      <trkpt lat="46.41673" lon="-0.45812">
        <ele>57</ele>
        <time>2013-12-10T15:07:53Z</time>
      </trkpt>
      <trkpt lat="46.41675" lon="-0.45821">
        <ele>57</ele>
        <time>2013-12-10T15:07:58Z</time>
      </trkpt>
      <trkpt lat="46.41676" lon="-0.45828">
        <ele>57</ele>
        <time>2013-12-10T15:08:03Z</time>
      </trkpt>
      <trkpt lat="46.41679" lon="-0.45832">
        <ele>57</ele>
        <time>2013-12-10T15:08:08Z</time>
      </trkpt>
      <trkpt lat="46.41681" lon="-0.45839">
        <ele>57</ele>
        <time>2013-12-10T15:08:13Z</time>
      </trkpt>
      <trkpt lat="46.41681" lon="-0.45846">
        <ele>57</ele>
        <time>2013-12-10T15:08:18Z</time>
      </trkpt>
      <trkpt lat="46.41683" lon="-0.45853">
        <ele>57</ele>
        <time>2013-12-10T15:08:23Z</time>
      </trkpt>
      <trkpt lat="46.41684" lon="-0.45861">
        <ele>57</ele>
        <time>2013-12-10T15:08:28Z</time>
      </trkpt>
      <trkpt lat="46.41687" lon="-0.45867">
        <ele>57</ele>
        <time>2013-12-10T15:08:33Z</time>
      </trkpt>
      <trkpt lat="46.41689" lon="-0.45874">
        <ele>57</ele>
        <time>2013-12-10T15:08:38Z</time>
      </trkpt>
      <trkpt lat="46.4169" lon="-0.45879">
        <ele>58</ele>
        <time>2013-12-10T15:08:43Z</time>
      </trkpt>
      <trkpt lat="46.41692" lon="-0.45886">
        <ele>58</ele>
        <time>2013-12-10T15:08:48Z</time>
      </trkpt>
      <trkpt lat="46.41694" lon="-0.45893">
        <ele>58</ele>
        <time>2013-12-10T15:08:53Z</time>
      </trkpt>
      <trkpt lat="46.41697" lon="-0.45899">
        <ele>58</ele>
        <time>2013-12-10T15:08:58Z</time>
      </trkpt>
      <trkpt lat="46.41699" lon="-0.45905">
        <ele>58</ele>
        <time>2013-12-10T15:09:03Z</time>
      </trkpt>
      <trkpt lat="46.41699" lon="-0.4591">
        <ele>58</ele>
        <time>2013-12-10T15:09:08Z</time>
      </trkpt>
      <trkpt lat="46.41701" lon="-0.45917">
        <ele>58</ele>
        <time>2013-12-10T15:09:13Z</time>
      </trkpt>
      <trkpt lat="46.41701" lon="-0.45924">
        <ele>58</ele>
        <time>2013-12-10T15:09:18Z</time>
      </trkpt>
      <trkpt lat="46.41702" lon="-0.45927">
        <ele>58</ele>
        <time>2013-12-10T15:09:23Z</time>
      </trkpt>
      <trkpt lat="46.41704" lon="-0.45931">
        <ele>58</ele>
        <time>2013-12-10T15:09:28Z</time>
      </trkpt>
      <trkpt lat="46.41706" lon="-0.45934">
        <ele>58</ele>
        <time>2013-12-10T15:09:33Z</time>
      </trkpt>
      <trkpt lat="46.41705" lon="-0.45935">
        <ele>58</ele>
        <time>2013-12-10T15:09:38Z</time>
      </trkpt>
      <trkpt lat="46.41703" lon="-0.45937">
        <ele>58</ele>
        <time>2013-12-10T15:09:43Z</time>
      </trkpt>
      <trkpt lat="46.41699" lon="-0.4594">
        <ele>58</ele>
        <time>2013-12-10T15:09:48Z</time>
      </trkpt>
      <trkpt lat="46.41695" lon="-0.45943">
        <ele>58</ele>
        <time>2013-12-10T15:09:53Z</time>
      </trkpt>
      <trkpt lat="46.41691" lon="-0.45945">
        <ele>58</ele>
        <time>2013-12-10T15:09:58Z</time>
      </trkpt>
      <trkpt lat="46.41686" lon="-0.45949">
        <ele>58</ele>
        <time>2013-12-10T15:10:03Z</time>
      </trkpt>
      <trkpt lat="46.41681" lon="-0.45953">
        <ele>58</ele>
        <time>2013-12-10T15:10:08Z</time>
      </trkpt>
      <trkpt lat="46.41679" lon="-0.45956">
        <ele>58</ele>
        <time>2013-12-10T15:10:13Z</time>
      </trkpt>
      <trkpt lat="46.41674" lon="-0.45954">
        <ele>58</ele>
        <time>2013-12-10T15:10:18Z</time>
      </trkpt>
      <trkpt lat="46.4167" lon="-0.45956">
        <ele>58</ele>
        <time>2013-12-10T15:10:23Z</time>
      </trkpt>
      <trkpt lat="46.41666" lon="-0.45958">
        <ele>58</ele>
        <time>2013-12-10T15:10:28Z</time>
      </trkpt>
      <trkpt lat="46.41664" lon="-0.45962">
        <ele>58</ele>
        <time>2013-12-10T15:10:33Z</time>
      </trkpt>
      <trkpt lat="46.41665" lon="-0.45963">
        <ele>58</ele>
        <time>2013-12-10T15:10:38Z</time>
      </trkpt>
      <trkpt lat="46.41666" lon="-0.45962">
        <ele>58</ele>
        <time>2013-12-10T15:10:43Z</time>
      </trkpt>
      <trkpt lat="46.41667" lon="-0.45962">
        <ele>58</ele>
        <time>2013-12-10T15:10:48Z</time>
      </trkpt>
      <trkpt lat="46.41667" lon="-0.45963">
        <ele>58</ele>
        <time>2013-12-10T15:10:53Z</time>
      </trkpt>
      <trkpt lat="46.41663" lon="-0.45966">
        <ele>58</ele>
        <time>2013-12-10T15:10:58Z</time>
      </trkpt>
      <trkpt lat="46.41657" lon="-0.45967">
        <ele>58</ele>
        <time>2013-12-10T15:11:03Z</time>
      </trkpt>
      <trkpt lat="46.41651" lon="-0.4597">
        <ele>58</ele>
        <time>2013-12-10T15:11:08Z</time>
      </trkpt>
      <trkpt lat="46.41645" lon="-0.45973">
        <ele>58</ele>
        <time>2013-12-10T15:11:13Z</time>
      </trkpt>
      <trkpt lat="46.4164" lon="-0.45975">
        <ele>58</ele>
        <time>2013-12-10T15:11:18Z</time>
      </trkpt>
      <trkpt lat="46.41636" lon="-0.45977">
        <ele>58</ele>
        <time>2013-12-10T15:11:23Z</time>
      </trkpt>
      <trkpt lat="46.41632" lon="-0.45979">
        <ele>58</ele>
        <time>2013-12-10T15:11:28Z</time>
      </trkpt>
      <trkpt lat="46.41627" lon="-0.45983">
        <ele>58</ele>
        <time>2013-12-10T15:11:33Z</time>
      </trkpt>
      <trkpt lat="46.41622" lon="-0.45985">
        <ele>59</ele>
        <time>2013-12-10T15:11:38Z</time>
      </trkpt>
      <trkpt lat="46.41616" lon="-0.45989">
        <ele>59</ele>
        <time>2013-12-10T15:11:43Z</time>
      </trkpt>
      <trkpt lat="46.41612" lon="-0.45991">
        <ele>59</ele>
        <time>2013-12-10T15:11:48Z</time>
      </trkpt>
      <trkpt lat="46.41609" lon="-0.45992">
        <ele>59</ele>
        <time>2013-12-10T15:11:53Z</time>
      </trkpt>
      <trkpt lat="46.41602" lon="-0.45997">
        <ele>59</ele>
        <time>2013-12-10T15:11:58Z</time>
      </trkpt>
      <trkpt lat="46.41596" lon="-0.46">
        <ele>59</ele>
        <time>2013-12-10T15:12:03Z</time>
      </trkpt>
      <trkpt lat="46.41592" lon="-0.46002">
        <ele>59</ele>
        <time>2013-12-10T15:12:08Z</time>
      </trkpt>
      <trkpt lat="46.41585" lon="-0.46006">
        <ele>59</ele>
        <time>2013-12-10T15:12:13Z</time>
      </trkpt>
      <trkpt lat="46.41578" lon="-0.46012">
        <ele>59</ele>
        <time>2013-12-10T15:12:18Z</time>
      </trkpt>
      <trkpt lat="46.41572" lon="-0.46016">
        <ele>59</ele>
        <time>2013-12-10T15:12:23Z</time>
      </trkpt>
      <trkpt lat="46.41565" lon="-0.4602">
        <ele>59</ele>
        <time>2013-12-10T15:12:28Z</time>
      </trkpt>
      <trkpt lat="46.41559" lon="-0.46024">
        <ele>59</ele>
        <time>2013-12-10T15:12:33Z</time>
      </trkpt>
      <trkpt lat="46.41554" lon="-0.46027">
        <ele>59</ele>
        <time>2013-12-10T15:12:38Z</time>
      </trkpt>
      <trkpt lat="46.41549" lon="-0.4603">
        <ele>59</ele>
        <time>2013-12-10T15:12:43Z</time>
      </trkpt>
      <trkpt lat="46.41543" lon="-0.46034">
        <ele>59</ele>
        <time>2013-12-10T15:12:48Z</time>
      </trkpt>
      <trkpt lat="46.41537" lon="-0.46036">
        <ele>58</ele>
        <time>2013-12-10T15:12:53Z</time>
      </trkpt>
      <trkpt lat="46.41532" lon="-0.46037">
        <ele>58</ele>
        <time>2013-12-10T15:12:58Z</time>
      </trkpt>
      <trkpt lat="46.41526" lon="-0.4604">
        <ele>58</ele>
        <time>2013-12-10T15:13:03Z</time>
      </trkpt>
      <trkpt lat="46.41521" lon="-0.46041">
        <ele>58</ele>
        <time>2013-12-10T15:13:08Z</time>
      </trkpt>
      <trkpt lat="46.41515" lon="-0.46043">
        <ele>61</ele>
        <time>2013-12-10T15:13:13Z</time>
      </trkpt>
      <trkpt lat="46.41511" lon="-0.46044">
        <ele>61</ele>
        <time>2013-12-10T15:13:18Z</time>
      </trkpt>
      <trkpt lat="46.41506" lon="-0.46045">
        <ele>61</ele>
        <time>2013-12-10T15:13:23Z</time>
      </trkpt>
      <trkpt lat="46.41507" lon="-0.46045">
        <ele>61</ele>
        <time>2013-12-10T15:13:28Z</time>
      </trkpt>
      <trkpt lat="46.41507" lon="-0.46044">
        <ele>61</ele>
        <time>2013-12-10T15:13:33Z</time>
      </trkpt>
      <trkpt lat="46.41507" lon="-0.46044">
        <ele>61</ele>
        <time>2013-12-10T15:13:38Z</time>
      </trkpt>
      <trkpt lat="46.41505" lon="-0.46045">
        <ele>61</ele>
        <time>2013-12-10T15:13:48Z</time>
      </trkpt>
      <trkpt lat="46.415" lon="-0.46047">
        <ele>61</ele>
        <time>2013-12-10T15:13:53Z</time>
      </trkpt>
      <trkpt lat="46.41495" lon="-0.4605">
        <ele>61</ele>
        <time>2013-12-10T15:13:58Z</time>
      </trkpt>
      <trkpt lat="46.4149" lon="-0.46051">
        <ele>61</ele>
        <time>2013-12-10T15:14:03Z</time>
      </trkpt>
      <trkpt lat="46.41485" lon="-0.46051">
        <ele>61</ele>
        <time>2013-12-10T15:14:08Z</time>
      </trkpt>
      <trkpt lat="46.4148" lon="-0.46055">
        <ele>61</ele>
        <time>2013-12-10T15:14:13Z</time>
      </trkpt>
      <trkpt lat="46.41474" lon="-0.46054">
        <ele>61</ele>
        <time>2013-12-10T15:14:18Z</time>
      </trkpt>
      <trkpt lat="46.41469" lon="-0.46055">
        <ele>61</ele>
        <time>2013-12-10T15:14:23Z</time>
      </trkpt>
      <trkpt lat="46.41465" lon="-0.46056">
        <ele>61</ele>
        <time>2013-12-10T15:14:28Z</time>
      </trkpt>
      <trkpt lat="46.41463" lon="-0.46057">
        <ele>61</ele>
        <time>2013-12-10T15:14:38Z</time>
      </trkpt>
      <trkpt lat="46.41462" lon="-0.46057">
        <ele>61</ele>
        <time>2013-12-10T15:14:43Z</time>
      </trkpt>
      <trkpt lat="46.41457" lon="-0.46059">
        <ele>59</ele>
        <time>2013-12-10T15:14:48Z</time>
      </trkpt>
      <trkpt lat="46.41456" lon="-0.46059">
        <ele>59</ele>
        <time>2013-12-10T15:14:53Z</time>
      </trkpt>
      <trkpt lat="46.41455" lon="-0.4606">
        <ele>59</ele>
        <time>2013-12-10T15:15:08Z</time>
      </trkpt>
      <trkpt lat="46.41449" lon="-0.46063">
        <ele>59</ele>
        <time>2013-12-10T15:15:13Z</time>
      </trkpt>
      <trkpt lat="46.41445" lon="-0.46064">
        <ele>59</ele>
        <time>2013-12-10T15:15:18Z</time>
      </trkpt>
      <trkpt lat="46.41439" lon="-0.46066">
        <ele>59</ele>
        <time>2013-12-10T15:15:23Z</time>
      </trkpt>
      <trkpt lat="46.41434" lon="-0.46067">
        <ele>59</ele>
        <time>2013-12-10T15:15:28Z</time>
      </trkpt>
      <trkpt lat="46.41429" lon="-0.46069">
        <ele>59</ele>
        <time>2013-12-10T15:15:33Z</time>
      </trkpt>
      <trkpt lat="46.41422" lon="-0.4607">
        <ele>59</ele>
        <time>2013-12-10T15:15:38Z</time>
      </trkpt>
      <trkpt lat="46.41418" lon="-0.46072">
        <ele>59</ele>
        <time>2013-12-10T15:15:43Z</time>
      </trkpt>
      <trkpt lat="46.41413" lon="-0.46076">
        <ele>59</ele>
        <time>2013-12-10T15:15:48Z</time>
      </trkpt>
      <trkpt lat="46.41408" lon="-0.46078">
        <ele>59</ele>
        <time>2013-12-10T15:15:53Z</time>
      </trkpt>
      <trkpt lat="46.41403" lon="-0.4608">
        <ele>59</ele>
        <time>2013-12-10T15:15:58Z</time>
      </trkpt>
      <trkpt lat="46.41397" lon="-0.4608">
        <ele>59</ele>
        <time>2013-12-10T15:16:03Z</time>
      </trkpt>
      <trkpt lat="46.41392" lon="-0.46082">
        <ele>59</ele>
        <time>2013-12-10T15:16:08Z</time>
      </trkpt>
      <trkpt lat="46.41387" lon="-0.46083">
        <ele>59</ele>
        <time>2013-12-10T15:16:13Z</time>
      </trkpt>
      <trkpt lat="46.41381" lon="-0.46083">
        <ele>59</ele>
        <time>2013-12-10T15:16:18Z</time>
      </trkpt>
      <trkpt lat="46.41374" lon="-0.46083">
        <ele>57</ele>
        <time>2013-12-10T15:16:23Z</time>
      </trkpt>
      <trkpt lat="46.41369" lon="-0.46087">
        <ele>57</ele>
        <time>2013-12-10T15:16:28Z</time>
      </trkpt>
      <trkpt lat="46.41363" lon="-0.46088">
        <ele>57</ele>
        <time>2013-12-10T15:16:33Z</time>
      </trkpt>
      <trkpt lat="46.41358" lon="-0.46089">
        <ele>57</ele>
        <time>2013-12-10T15:16:38Z</time>
      </trkpt>
      <trkpt lat="46.41351" lon="-0.46092">
        <ele>57</ele>
        <time>2013-12-10T15:16:43Z</time>
      </trkpt>
      <trkpt lat="46.41345" lon="-0.46093">
        <ele>57</ele>
        <time>2013-12-10T15:16:48Z</time>
      </trkpt>
      <trkpt lat="46.41343" lon="-0.46093">
        <ele>57</ele>
        <time>2013-12-10T15:16:53Z</time>
      </trkpt>
      <trkpt lat="46.41343" lon="-0.46094">
        <ele>57</ele>
        <time>2013-12-10T15:16:58Z</time>
      </trkpt>
      <trkpt lat="46.41343" lon="-0.46094">
        <ele>57</ele>
        <time>2013-12-10T15:17:03Z</time>
      </trkpt>
      <trkpt lat="46.41342" lon="-0.46094">
        <ele>57</ele>
        <time>2013-12-10T15:17:08Z</time>
      </trkpt>
      <trkpt lat="46.41341" lon="-0.46093">
        <ele>57</ele>
        <time>2013-12-10T15:17:13Z</time>
      </trkpt>
      <trkpt lat="46.41341" lon="-0.46094">
        <ele>57</ele>
        <time>2013-12-10T15:17:18Z</time>
      </trkpt>
      <trkpt lat="46.41337" lon="-0.46095">
        <ele>57</ele>
        <time>2013-12-10T15:17:23Z</time>
      </trkpt>
      <trkpt lat="46.41333" lon="-0.46097">
        <ele>57</ele>
        <time>2013-12-10T15:17:28Z</time>
      </trkpt>
      <trkpt lat="46.41327" lon="-0.46098">
        <ele>57</ele>
        <time>2013-12-10T15:17:33Z</time>
      </trkpt>
      <trkpt lat="46.41325" lon="-0.46098">
        <ele>57</ele>
        <time>2013-12-10T15:17:38Z</time>
      </trkpt>
      <trkpt lat="46.41322" lon="-0.46098">
        <ele>57</ele>
        <time>2013-12-10T15:17:58Z</time>
      </trkpt>
      <trkpt lat="46.41317" lon="-0.461">
        <ele>57</ele>
        <time>2013-12-10T15:18:03Z</time>
      </trkpt>
      <trkpt lat="46.41311" lon="-0.461">
        <ele>57</ele>
        <time>2013-12-10T15:18:08Z</time>
      </trkpt>
      <trkpt lat="46.41304" lon="-0.461">
        <ele>57</ele>
        <time>2013-12-10T15:18:13Z</time>
      </trkpt>
      <trkpt lat="46.413" lon="-0.46104">
        <ele>57</ele>
        <time>2013-12-10T15:18:18Z</time>
      </trkpt>
      <trkpt lat="46.41293" lon="-0.46103">
        <ele>57</ele>
        <time>2013-12-10T15:18:23Z</time>
      </trkpt>
      <trkpt lat="46.41287" lon="-0.46105">
        <ele>54</ele>
        <time>2013-12-10T15:18:28Z</time>
      </trkpt>
      <trkpt lat="46.41281" lon="-0.46104">
        <ele>54</ele>
        <time>2013-12-10T15:18:33Z</time>
      </trkpt>
      <trkpt lat="46.41275" lon="-0.46105">
        <ele>54</ele>
        <time>2013-12-10T15:18:38Z</time>
      </trkpt>
      <trkpt lat="46.41269" lon="-0.46108">
        <ele>54</ele>
        <time>2013-12-10T15:18:43Z</time>
      </trkpt>
      <trkpt lat="46.41263" lon="-0.46109">
        <ele>54</ele>
        <time>2013-12-10T15:18:48Z</time>
      </trkpt>
      <trkpt lat="46.41261" lon="-0.46109">
        <ele>54</ele>
        <time>2013-12-10T15:18:53Z</time>
      </trkpt>
      <trkpt lat="46.41257" lon="-0.4611">
        <ele>54</ele>
        <time>2013-12-10T15:18:58Z</time>
      </trkpt>
      <trkpt lat="46.41251" lon="-0.46113">
        <ele>54</ele>
        <time>2013-12-10T15:19:03Z</time>
      </trkpt>
      <trkpt lat="46.41244" lon="-0.46114">
        <ele>54</ele>
        <time>2013-12-10T15:19:08Z</time>
      </trkpt>
      <trkpt lat="46.41238" lon="-0.46116">
        <ele>54</ele>
        <time>2013-12-10T15:19:13Z</time>
      </trkpt>
      <trkpt lat="46.41232" lon="-0.46117">
        <ele>54</ele>
        <time>2013-12-10T15:19:18Z</time>
      </trkpt>
      <trkpt lat="46.41226" lon="-0.46118">
        <ele>54</ele>
        <time>2013-12-10T15:19:23Z</time>
      </trkpt>
      <trkpt lat="46.4122" lon="-0.46119">
        <ele>54</ele>
        <time>2013-12-10T15:19:28Z</time>
      </trkpt>
      <trkpt lat="46.41214" lon="-0.46121">
        <ele>54</ele>
        <time>2013-12-10T15:19:33Z</time>
      </trkpt>
      <trkpt lat="46.41208" lon="-0.46122">
        <ele>52</ele>
        <time>2013-12-10T15:19:38Z</time>
      </trkpt>
      <trkpt lat="46.41201" lon="-0.46124">
        <ele>52</ele>
        <time>2013-12-10T15:19:43Z</time>
      </trkpt>
      <trkpt lat="46.41194" lon="-0.46124">
        <ele>52</ele>
        <time>2013-12-10T15:19:48Z</time>
      </trkpt>
      <trkpt lat="46.41188" lon="-0.46127">
        <ele>59</ele>
        <time>2013-12-10T15:19:53Z</time>
      </trkpt>
      <trkpt lat="46.41182" lon="-0.46129">
        <ele>59</ele>
        <time>2013-12-10T15:19:58Z</time>
      </trkpt>
      <trkpt lat="46.41175" lon="-0.4613">
        <ele>59</ele>
        <time>2013-12-10T15:20:03Z</time>
      </trkpt>
      <trkpt lat="46.41169" lon="-0.46133">
        <ele>59</ele>
        <time>2013-12-10T15:20:08Z</time>
      </trkpt>
      <trkpt lat="46.41163" lon="-0.46136">
        <ele>59</ele>
        <time>2013-12-10T15:20:13Z</time>
      </trkpt>
      <trkpt lat="46.41156" lon="-0.46137">
        <ele>59</ele>
        <time>2013-12-10T15:20:18Z</time>
      </trkpt>
      <trkpt lat="46.4115" lon="-0.46139">
        <ele>59</ele>
        <time>2013-12-10T15:20:23Z</time>
      </trkpt>
      <trkpt lat="46.41143" lon="-0.4614">
        <ele>59</ele>
        <time>2013-12-10T15:20:28Z</time>
      </trkpt>
      <trkpt lat="46.41136" lon="-0.46142">
        <ele>59</ele>
        <time>2013-12-10T15:20:33Z</time>
      </trkpt>
      <trkpt lat="46.41129" lon="-0.46144">
        <ele>59</ele>
        <time>2013-12-10T15:20:38Z</time>
      </trkpt>
      <trkpt lat="46.41123" lon="-0.46145">
        <ele>57</ele>
        <time>2013-12-10T15:20:43Z</time>
      </trkpt>
      <trkpt lat="46.41116" lon="-0.46147">
        <ele>57</ele>
        <time>2013-12-10T15:20:48Z</time>
      </trkpt>
      <trkpt lat="46.4111" lon="-0.46148">
        <ele>57</ele>
        <time>2013-12-10T15:20:53Z</time>
      </trkpt>
      <trkpt lat="46.41105" lon="-0.4615">
        <ele>57</ele>
        <time>2013-12-10T15:20:58Z</time>
      </trkpt>
      <trkpt lat="46.41097" lon="-0.4615">
        <ele>57</ele>
        <time>2013-12-10T15:21:03Z</time>
      </trkpt>
      <trkpt lat="46.41091" lon="-0.46151">
        <ele>57</ele>
        <time>2013-12-10T15:21:08Z</time>
      </trkpt>
      <trkpt lat="46.41086" lon="-0.46151">
        <ele>57</ele>
        <time>2013-12-10T15:21:13Z</time>
      </trkpt>
      <trkpt lat="46.41081" lon="-0.46151">
        <ele>57</ele>
        <time>2013-12-10T15:21:18Z</time>
      </trkpt>
      <trkpt lat="46.41076" lon="-0.46153">
        <ele>57</ele>
        <time>2013-12-10T15:21:23Z</time>
      </trkpt>
      <trkpt lat="46.41069" lon="-0.46154">
        <ele>57</ele>
        <time>2013-12-10T15:21:28Z</time>
      </trkpt>
      <trkpt lat="46.41061" lon="-0.46154">
        <ele>57</ele>
        <time>2013-12-10T15:21:33Z</time>
      </trkpt>
      <trkpt lat="46.41054" lon="-0.46154">
        <ele>57</ele>
        <time>2013-12-10T15:21:38Z</time>
      </trkpt>
      <trkpt lat="46.41048" lon="-0.46155">
        <ele>57</ele>
        <time>2013-12-10T15:21:43Z</time>
      </trkpt>
      <trkpt lat="46.41043" lon="-0.46154">
        <ele>57</ele>
        <time>2013-12-10T15:21:48Z</time>
      </trkpt>
      <trkpt lat="46.4104" lon="-0.46154">
        <ele>57</ele>
        <time>2013-12-10T15:21:53Z</time>
      </trkpt>
      <trkpt lat="46.41038" lon="-0.46154">
        <ele>57</ele>
        <time>2013-12-10T15:21:58Z</time>
      </trkpt>
      <trkpt lat="46.41036" lon="-0.46153">
        <ele>57</ele>
        <time>2013-12-10T15:22:03Z</time>
      </trkpt>
      <trkpt lat="46.41036" lon="-0.46152">
        <ele>57</ele>
        <time>2013-12-10T15:22:08Z</time>
      </trkpt>
      <trkpt lat="46.41036" lon="-0.46152">
        <ele>57</ele>
        <time>2013-12-10T15:22:13Z</time>
      </trkpt>
      <trkpt lat="46.41036" lon="-0.46152">
        <ele>57</ele>
        <time>2013-12-10T15:22:18Z</time>
      </trkpt>
      <trkpt lat="46.41036" lon="-0.46154">
        <ele>57</ele>
        <time>2013-12-10T15:22:23Z</time>
      </trkpt>
      <trkpt lat="46.41038" lon="-0.46155">
        <ele>57</ele>
        <time>2013-12-10T15:22:28Z</time>
      </trkpt>
      <trkpt lat="46.41038" lon="-0.46156">
        <ele>57</ele>
        <time>2013-12-10T15:22:33Z</time>
      </trkpt>
      <trkpt lat="46.41038" lon="-0.46155">
        <ele>57</ele>
        <time>2013-12-10T15:22:38Z</time>
      </trkpt>
      <trkpt lat="46.41039" lon="-0.46157">
        <ele>57</ele>
        <time>2013-12-10T15:23:08Z</time>
      </trkpt>
      <trkpt lat="46.41038" lon="-0.46157">
        <ele>57</ele>
        <time>2013-12-10T15:23:13Z</time>
      </trkpt>
      <trkpt lat="46.41038" lon="-0.46158">
        <ele>57</ele>
        <time>2013-12-10T15:23:18Z</time>
      </trkpt>
      <trkpt lat="46.41038" lon="-0.46157">
        <ele>57</ele>
        <time>2013-12-10T15:23:23Z</time>
      </trkpt>
      <trkpt lat="46.41038" lon="-0.46158">
        <ele>57</ele>
        <time>2013-12-10T15:23:33Z</time>
      </trkpt>
      <trkpt lat="46.41038" lon="-0.46159">
        <ele>57</ele>
        <time>2013-12-10T15:24:08Z</time>
      </trkpt>
      <trkpt lat="46.41038" lon="-0.46158">
        <ele>57</ele>
        <time>2013-12-10T15:24:13Z</time>
      </trkpt>
      <trkpt lat="46.41037" lon="-0.46157">
        <ele>57</ele>
        <time>2013-12-10T15:24:18Z</time>
      </trkpt>
      <trkpt lat="46.41036" lon="-0.46158">
        <ele>57</ele>
        <time>2013-12-10T15:24:23Z</time>
      </trkpt>
      <trkpt lat="46.41036" lon="-0.4616">
        <ele>57</ele>
        <time>2013-12-10T15:24:28Z</time>
      </trkpt>
      <trkpt lat="46.41036" lon="-0.46159">
        <ele>57</ele>
        <time>2013-12-10T15:24:33Z</time>
      </trkpt>
      <trkpt lat="46.41035" lon="-0.46159">
        <ele>57</ele>
        <time>2013-12-10T15:24:48Z</time>
      </trkpt>
      <trkpt lat="46.41036" lon="-0.46159">
        <ele>57</ele>
        <time>2013-12-10T15:24:53Z</time>
      </trkpt>
      <trkpt lat="46.41035" lon="-0.46161">
        <ele>57</ele>
        <time>2013-12-10T15:24:58Z</time>
      </trkpt>
      <trkpt lat="46.41035" lon="-0.46163">
        <ele>57</ele>
        <time>2013-12-10T15:25:03Z</time>
      </trkpt>
      <trkpt lat="46.41036" lon="-0.46163">
        <ele>57</ele>
        <time>2013-12-10T15:25:08Z</time>
      </trkpt>
      <trkpt lat="46.41036" lon="-0.46162">
        <ele>57</ele>
        <time>2013-12-10T15:25:13Z</time>
      </trkpt>
      <trkpt lat="46.41035" lon="-0.46164">
        <ele>57</ele>
        <time>2013-12-10T15:25:18Z</time>
      </trkpt>
      <trkpt lat="46.41035" lon="-0.46167">
        <ele>57</ele>
        <time>2013-12-10T15:25:23Z</time>
      </trkpt>
      <trkpt lat="46.41033" lon="-0.4617">
        <ele>57</ele>
        <time>2013-12-10T15:25:28Z</time>
      </trkpt>
      <trkpt lat="46.41033" lon="-0.46169">
        <ele>57</ele>
        <time>2013-12-10T15:25:33Z</time>
      </trkpt>
      <trkpt lat="46.41033" lon="-0.46168">
        <ele>57</ele>
        <time>2013-12-10T15:25:38Z</time>
      </trkpt>
      <trkpt lat="46.41033" lon="-0.46165">
        <ele>57</ele>
        <time>2013-12-10T15:25:43Z</time>
      </trkpt>
      <trkpt lat="46.41032" lon="-0.46168">
        <ele>57</ele>
        <time>2013-12-10T15:25:48Z</time>
      </trkpt>
      <trkpt lat="46.41027" lon="-0.46175">
        <ele>57</ele>
        <time>2013-12-10T15:25:53Z</time>
      </trkpt>
      <trkpt lat="46.41024" lon="-0.46181">
        <ele>57</ele>
        <time>2013-12-10T15:25:58Z</time>
      </trkpt>
      <trkpt lat="46.4102" lon="-0.46187">
        <ele>57</ele>
        <time>2013-12-10T15:26:03Z</time>
      </trkpt>
      <trkpt lat="46.41018" lon="-0.46191">
        <ele>57</ele>
        <time>2013-12-10T15:26:08Z</time>
      </trkpt>
      <trkpt lat="46.41018" lon="-0.46191">
        <ele>57</ele>
        <time>2013-12-10T15:26:18Z</time>
      </trkpt>
      <trkpt lat="46.41016" lon="-0.46197">
        <ele>57</ele>
        <time>2013-12-10T15:26:23Z</time>
      </trkpt>
      <trkpt lat="46.41014" lon="-0.46204">
        <ele>57</ele>
        <time>2013-12-10T15:26:28Z</time>
      </trkpt>
      <trkpt lat="46.41011" lon="-0.4621">
        <ele>56</ele>
        <time>2013-12-10T15:26:33Z</time>
      </trkpt>
      <trkpt lat="46.41011" lon="-0.46214">
        <ele>56</ele>
        <time>2013-12-10T15:26:38Z</time>
      </trkpt>
      <trkpt lat="46.41007" lon="-0.4622">
        <ele>56</ele>
        <time>2013-12-10T15:26:43Z</time>
      </trkpt>
      <trkpt lat="46.41006" lon="-0.46226">
        <ele>56</ele>
        <time>2013-12-10T15:26:48Z</time>
      </trkpt>
      <trkpt lat="46.41004" lon="-0.46232">
        <ele>56</ele>
        <time>2013-12-10T15:26:53Z</time>
      </trkpt>
      <trkpt lat="46.41002" lon="-0.4624">
        <ele>56</ele>
        <time>2013-12-10T15:26:58Z</time>
      </trkpt>
      <trkpt lat="46.41001" lon="-0.46248">
        <ele>56</ele>
        <time>2013-12-10T15:27:03Z</time>
      </trkpt>
      <trkpt lat="46.40999" lon="-0.46254">
        <ele>56</ele>
        <time>2013-12-10T15:27:08Z</time>
      </trkpt>
      <trkpt lat="46.40997" lon="-0.46261">
        <ele>56</ele>
        <time>2013-12-10T15:27:13Z</time>
      </trkpt>
      <trkpt lat="46.40996" lon="-0.46267">
        <ele>56</ele>
        <time>2013-12-10T15:27:18Z</time>
      </trkpt>
      <trkpt lat="46.40994" lon="-0.46277">
        <ele>56</ele>
        <time>2013-12-10T15:27:23Z</time>
      </trkpt>
      <trkpt lat="46.40993" lon="-0.46286">
        <ele>56</ele>
        <time>2013-12-10T15:27:28Z</time>
      </trkpt>
      <trkpt lat="46.40991" lon="-0.46293">
        <ele>53</ele>
        <time>2013-12-10T15:27:33Z</time>
      </trkpt>
      <trkpt lat="46.40989" lon="-0.46299">
        <ele>53</ele>
        <time>2013-12-10T15:27:38Z</time>
      </trkpt>
      <trkpt lat="46.40987" lon="-0.46305">
        <ele>53</ele>
        <time>2013-12-10T15:27:43Z</time>
      </trkpt>
      <trkpt lat="46.40985" lon="-0.46311">
        <ele>53</ele>
        <time>2013-12-10T15:27:48Z</time>
      </trkpt>
      <trkpt lat="46.40982" lon="-0.46316">
        <ele>53</ele>
        <time>2013-12-10T15:27:53Z</time>
      </trkpt>
      <trkpt lat="46.40979" lon="-0.46321">
        <ele>53</ele>
        <time>2013-12-10T15:27:58Z</time>
      </trkpt>
      <trkpt lat="46.40976" lon="-0.46326">
        <ele>53</ele>
        <time>2013-12-10T15:28:03Z</time>
      </trkpt>
      <trkpt lat="46.40972" lon="-0.46332">
        <ele>53</ele>
        <time>2013-12-10T15:28:08Z</time>
      </trkpt>
      <trkpt lat="46.40968" lon="-0.46338">
        <ele>53</ele>
        <time>2013-12-10T15:28:13Z</time>
      </trkpt>
      <trkpt lat="46.40963" lon="-0.46343">
        <ele>53</ele>
        <time>2013-12-10T15:28:18Z</time>
      </trkpt>
      <trkpt lat="46.40965" lon="-0.46343">
        <ele>53</ele>
        <time>2013-12-10T15:28:23Z</time>
      </trkpt>
      <trkpt lat="46.40966" lon="-0.46343">
        <ele>53</ele>
        <time>2013-12-10T15:28:28Z</time>
      </trkpt>
      <trkpt lat="46.40965" lon="-0.46344">
        <ele>53</ele>
        <time>2013-12-10T15:28:33Z</time>
      </trkpt>
      <trkpt lat="46.40965" lon="-0.46344">
        <ele>53</ele>
        <time>2013-12-10T15:28:38Z</time>
      </trkpt>
      <trkpt lat="46.40962" lon="-0.46346">
        <ele>53</ele>
        <time>2013-12-10T15:28:43Z</time>
      </trkpt>
      <trkpt lat="46.40957" lon="-0.46351">
        <ele>47</ele>
        <time>2013-12-10T15:28:48Z</time>
      </trkpt>
      <trkpt lat="46.40953" lon="-0.46356">
        <ele>47</ele>
        <time>2013-12-10T15:28:53Z</time>
      </trkpt>
      <trkpt lat="46.40949" lon="-0.46362">
        <ele>47</ele>
        <time>2013-12-10T15:28:58Z</time>
      </trkpt>
      <trkpt lat="46.40944" lon="-0.46366">
        <ele>47</ele>
        <time>2013-12-10T15:29:03Z</time>
      </trkpt>
      <trkpt lat="46.40939" lon="-0.46371">
        <ele>47</ele>
        <time>2013-12-10T15:29:08Z</time>
      </trkpt>
      <trkpt lat="46.40935" lon="-0.46375">
        <ele>47</ele>
        <time>2013-12-10T15:29:13Z</time>
      </trkpt>
      <trkpt lat="46.40933" lon="-0.46377">
        <ele>39</ele>
        <time>2013-12-10T15:29:18Z</time>
      </trkpt>
      <trkpt lat="46.40929" lon="-0.4638">
        <ele>39</ele>
        <time>2013-12-10T15:29:23Z</time>
      </trkpt>
      <trkpt lat="46.40926" lon="-0.46385">
        <ele>39</ele>
        <time>2013-12-10T15:29:28Z</time>
      </trkpt>
      <trkpt lat="46.40925" lon="-0.46393">
        <ele>39</ele>
        <time>2013-12-10T15:29:33Z</time>
      </trkpt>
      <trkpt lat="46.40925" lon="-0.46391">
        <ele>39</ele>
        <time>2013-12-10T15:29:38Z</time>
      </trkpt>
      <trkpt lat="46.40925" lon="-0.46392">
        <ele>39</ele>
        <time>2013-12-10T15:29:43Z</time>
      </trkpt>
      <trkpt lat="46.40919" lon="-0.464">
        <ele>39</ele>
        <time>2013-12-10T15:29:48Z</time>
      </trkpt>
      <trkpt lat="46.40913" lon="-0.46403">
        <ele>39</ele>
        <time>2013-12-10T15:29:53Z</time>
      </trkpt>
      <trkpt lat="46.40911" lon="-0.46412">
        <ele>39</ele>
        <time>2013-12-10T15:29:58Z</time>
      </trkpt>
      <trkpt lat="46.40908" lon="-0.46419">
        <ele>39</ele>
        <time>2013-12-10T15:30:03Z</time>
      </trkpt>
      <trkpt lat="46.40914" lon="-0.46427">
        <ele>39</ele>
        <time>2013-12-10T15:30:08Z</time>
      </trkpt>
      <trkpt lat="46.40915" lon="-0.46435">
        <ele>39</ele>
        <time>2013-12-10T15:30:13Z</time>
      </trkpt>
      <trkpt lat="46.40914" lon="-0.46434">
        <ele>39</ele>
        <time>2013-12-10T15:30:18Z</time>
      </trkpt>
      <trkpt lat="46.40917" lon="-0.46437">
        <ele>39</ele>
        <time>2013-12-10T15:30:23Z</time>
      </trkpt>
      <trkpt lat="46.40919" lon="-0.46438">
        <ele>39</ele>
        <time>2013-12-10T15:30:28Z</time>
      </trkpt>
      <trkpt lat="46.40925" lon="-0.46445">
        <ele>39</ele>
        <time>2013-12-10T15:30:33Z</time>
      </trkpt>
      <trkpt lat="46.40929" lon="-0.46452">
        <ele>39</ele>
        <time>2013-12-10T15:30:38Z</time>
      </trkpt>
      <trkpt lat="46.40931" lon="-0.4646">
        <ele>30</ele>
        <time>2013-12-10T15:30:43Z</time>
      </trkpt>
      <trkpt lat="46.40933" lon="-0.46465">
        <ele>30</ele>
        <time>2013-12-10T15:30:48Z</time>
      </trkpt>
      <trkpt lat="46.40935" lon="-0.46474">
        <ele>30</ele>
        <time>2013-12-10T15:30:53Z</time>
      </trkpt>
      <trkpt lat="46.40936" lon="-0.46481">
        <ele>30</ele>
        <time>2013-12-10T15:30:58Z</time>
      </trkpt>
      <trkpt lat="46.40937" lon="-0.46484">
        <ele>30</ele>
        <time>2013-12-10T15:31:03Z</time>
      </trkpt>
      <trkpt lat="46.40931" lon="-0.4649">
        <ele>30</ele>
        <time>2013-12-10T15:31:08Z</time>
      </trkpt>
      <trkpt lat="46.40929" lon="-0.46495">
        <ele>30</ele>
        <time>2013-12-10T15:31:13Z</time>
      </trkpt>
      <trkpt lat="46.40924" lon="-0.46499">
        <ele>30</ele>
        <time>2013-12-10T15:31:18Z</time>
      </trkpt>
      <trkpt lat="46.40917" lon="-0.46501">
        <ele>30</ele>
        <time>2013-12-10T15:31:23Z</time>
      </trkpt>
      <trkpt lat="46.40917" lon="-0.46515">
        <ele>30</ele>
        <time>2013-12-10T15:31:28Z</time>
      </trkpt>
      <trkpt lat="46.40911" lon="-0.46524">
        <ele>30</ele>
        <time>2013-12-10T15:31:33Z</time>
      </trkpt>
      <trkpt lat="46.40909" lon="-0.4653">
        <ele>30</ele>
        <time>2013-12-10T15:31:38Z</time>
      </trkpt>
      <trkpt lat="46.40907" lon="-0.46536">
        <ele>30</ele>
        <time>2013-12-10T15:31:43Z</time>
      </trkpt>
      <trkpt lat="46.40904" lon="-0.46543">
        <ele>30</ele>
        <time>2013-12-10T15:31:48Z</time>
      </trkpt>
      <trkpt lat="46.40902" lon="-0.4655">
        <ele>30</ele>
        <time>2013-12-10T15:31:53Z</time>
      </trkpt>
      <trkpt lat="46.40901" lon="-0.46556">
        <ele>30</ele>
        <time>2013-12-10T15:31:58Z</time>
      </trkpt>
      <trkpt lat="46.409" lon="-0.46557">
        <ele>30</ele>
        <time>2013-12-10T15:32:03Z</time>
      </trkpt>
      <trkpt lat="46.409" lon="-0.46557">
        <ele>30</ele>
        <time>2013-12-10T15:32:08Z</time>
      </trkpt>
      <trkpt lat="46.40899" lon="-0.46563">
        <ele>30</ele>
        <time>2013-12-10T15:32:13Z</time>
      </trkpt>
      <trkpt lat="46.40896" lon="-0.46569">
        <ele>30</ele>
        <time>2013-12-10T15:32:18Z</time>
      </trkpt>
      <trkpt lat="46.40893" lon="-0.46574">
        <ele>30</ele>
        <time>2013-12-10T15:32:23Z</time>
      </trkpt>
      <trkpt lat="46.40891" lon="-0.46581">
        <ele>30</ele>
        <time>2013-12-10T15:32:28Z</time>
      </trkpt>
      <trkpt lat="46.40888" lon="-0.46588">
        <ele>30</ele>
        <time>2013-12-10T15:32:33Z</time>
      </trkpt>
      <trkpt lat="46.40887" lon="-0.46592">
        <ele>30</ele>
        <time>2013-12-10T15:32:38Z</time>
      </trkpt>
      <trkpt lat="46.40884" lon="-0.46596">
        <ele>30</ele>
        <time>2013-12-10T15:32:43Z</time>
      </trkpt>
      <trkpt lat="46.40882" lon="-0.466">
        <ele>30</ele>
        <time>2013-12-10T15:32:48Z</time>
      </trkpt>
      <trkpt lat="46.40879" lon="-0.46605">
        <ele>30</ele>
        <time>2013-12-10T15:32:53Z</time>
      </trkpt>
      <trkpt lat="46.40876" lon="-0.46611">
        <ele>30</ele>
        <time>2013-12-10T15:32:58Z</time>
      </trkpt>
      <trkpt lat="46.40872" lon="-0.46615">
        <ele>31</ele>
        <time>2013-12-10T15:33:03Z</time>
      </trkpt>
      <trkpt lat="46.40867" lon="-0.46618">
        <ele>31</ele>
        <time>2013-12-10T15:33:08Z</time>
      </trkpt>
      <trkpt lat="46.40863" lon="-0.46621">
        <ele>31</ele>
        <time>2013-12-10T15:33:13Z</time>
      </trkpt>
      <trkpt lat="46.40861" lon="-0.46619">
        <ele>31</ele>
        <time>2013-12-10T15:33:18Z</time>
      </trkpt>
      <trkpt lat="46.40862" lon="-0.46619">
        <ele>31</ele>
        <time>2013-12-10T15:33:23Z</time>
      </trkpt>
      <trkpt lat="46.40859" lon="-0.46623">
        <ele>31</ele>
        <time>2013-12-10T15:33:43Z</time>
      </trkpt>
      <trkpt lat="46.40855" lon="-0.46625">
        <ele>32</ele>
        <time>2013-12-10T15:33:48Z</time>
      </trkpt>
      <trkpt lat="46.40849" lon="-0.46628">
        <ele>32</ele>
        <time>2013-12-10T15:33:53Z</time>
      </trkpt>
      <trkpt lat="46.40843" lon="-0.4663">
        <ele>32</ele>
        <time>2013-12-10T15:33:58Z</time>
      </trkpt>
      <trkpt lat="46.40839" lon="-0.46634">
        <ele>32</ele>
        <time>2013-12-10T15:34:03Z</time>
      </trkpt>
      <trkpt lat="46.40833" lon="-0.46637">
        <ele>32</ele>
        <time>2013-12-10T15:34:08Z</time>
      </trkpt>
      <trkpt lat="46.40828" lon="-0.4664">
        <ele>32</ele>
        <time>2013-12-10T15:34:13Z</time>
      </trkpt>
      <trkpt lat="46.40824" lon="-0.46644">
        <ele>32</ele>
        <time>2013-12-10T15:34:18Z</time>
      </trkpt>
      <trkpt lat="46.40821" lon="-0.46647">
        <ele>32</ele>
        <time>2013-12-10T15:34:23Z</time>
      </trkpt>
      <trkpt lat="46.40817" lon="-0.46651">
        <ele>32</ele>
        <time>2013-12-10T15:34:28Z</time>
      </trkpt>
      <trkpt lat="46.40811" lon="-0.46653">
        <ele>32</ele>
        <time>2013-12-10T15:34:33Z</time>
      </trkpt>
      <trkpt lat="46.40807" lon="-0.46655">
        <ele>32</ele>
        <time>2013-12-10T15:34:38Z</time>
      </trkpt>
      <trkpt lat="46.40802" lon="-0.46656">
        <ele>32</ele>
        <time>2013-12-10T15:34:43Z</time>
      </trkpt>
      <trkpt lat="46.40797" lon="-0.4666">
        <ele>32</ele>
        <time>2013-12-10T15:34:48Z</time>
      </trkpt>
      <trkpt lat="46.40796" lon="-0.46661">
        <ele>32</ele>
        <time>2013-12-10T15:34:53Z</time>
      </trkpt>
      <trkpt lat="46.40791" lon="-0.46665">
        <ele>32</ele>
        <time>2013-12-10T15:34:58Z</time>
      </trkpt>
      <trkpt lat="46.40782" lon="-0.46669">
        <ele>32</ele>
        <time>2013-12-10T15:35:03Z</time>
      </trkpt>
      <trkpt lat="46.40777" lon="-0.46675">
        <ele>32</ele>
        <time>2013-12-10T15:35:08Z</time>
      </trkpt>
      <trkpt lat="46.40772" lon="-0.46677">
        <ele>32</ele>
        <time>2013-12-10T15:35:13Z</time>
      </trkpt>
      <trkpt lat="46.40767" lon="-0.4668">
        <ele>32</ele>
        <time>2013-12-10T15:35:18Z</time>
      </trkpt>
      <trkpt lat="46.40761" lon="-0.46683">
        <ele>32</ele>
        <time>2013-12-10T15:35:23Z</time>
      </trkpt>
      <trkpt lat="46.40755" lon="-0.46685">
        <ele>32</ele>
        <time>2013-12-10T15:35:28Z</time>
      </trkpt>
      <trkpt lat="46.40751" lon="-0.46688">
        <ele>32</ele>
        <time>2013-12-10T15:35:33Z</time>
      </trkpt>
      <trkpt lat="46.40746" lon="-0.46691">
        <ele>32</ele>
        <time>2013-12-10T15:35:38Z</time>
      </trkpt>
      <trkpt lat="46.40741" lon="-0.46695">
        <ele>32</ele>
        <time>2013-12-10T15:35:43Z</time>
      </trkpt>
      <trkpt lat="46.40738" lon="-0.46698">
        <ele>32</ele>
        <time>2013-12-10T15:35:48Z</time>
      </trkpt>
      <trkpt lat="46.40736" lon="-0.46699">
        <ele>32</ele>
        <time>2013-12-10T15:35:53Z</time>
      </trkpt>
      <trkpt lat="46.40731" lon="-0.46703">
        <ele>32</ele>
        <time>2013-12-10T15:35:58Z</time>
      </trkpt>
      <trkpt lat="46.40726" lon="-0.46708">
        <ele>42</ele>
        <time>2013-12-10T15:36:03Z</time>
      </trkpt>
      <trkpt lat="46.40723" lon="-0.46715">
        <ele>42</ele>
        <time>2013-12-10T15:36:08Z</time>
      </trkpt>
      <trkpt lat="46.40718" lon="-0.46719">
        <ele>42</ele>
        <time>2013-12-10T15:36:13Z</time>
      </trkpt>
      <trkpt lat="46.40714" lon="-0.46722">
        <ele>42</ele>
        <time>2013-12-10T15:36:18Z</time>
      </trkpt>
      <trkpt lat="46.40711" lon="-0.46725">
        <ele>42</ele>
        <time>2013-12-10T15:36:23Z</time>
      </trkpt>
      <trkpt lat="46.40712" lon="-0.46728">
        <ele>42</ele>
        <time>2013-12-10T15:36:28Z</time>
      </trkpt>
      <trkpt lat="46.40712" lon="-0.46729">
        <ele>42</ele>
        <time>2013-12-10T15:36:33Z</time>
      </trkpt>
      <trkpt lat="46.40712" lon="-0.46729">
        <ele>42</ele>
        <time>2013-12-10T15:36:38Z</time>
      </trkpt>
      <trkpt lat="46.40712" lon="-0.46731">
        <ele>42</ele>
        <time>2013-12-10T15:36:43Z</time>
      </trkpt>
      <trkpt lat="46.40712" lon="-0.46731">
        <ele>42</ele>
        <time>2013-12-10T15:36:53Z</time>
      </trkpt>
      <trkpt lat="46.40713" lon="-0.46731">
        <ele>42</ele>
        <time>2013-12-10T15:36:58Z</time>
      </trkpt>
      <trkpt lat="46.40717" lon="-0.46737">
        <ele>42</ele>
        <time>2013-12-10T15:37:03Z</time>
      </trkpt>
      <trkpt lat="46.40719" lon="-0.4674">
        <ele>42</ele>
        <time>2013-12-10T15:37:08Z</time>
      </trkpt>
      <trkpt lat="46.40723" lon="-0.46745">
        <ele>42</ele>
        <time>2013-12-10T15:37:13Z</time>
      </trkpt>
      <trkpt lat="46.40723" lon="-0.46744">
        <ele>42</ele>
        <time>2013-12-10T15:37:18Z</time>
      </trkpt>
      <trkpt lat="46.40723" lon="-0.46745">
        <ele>42</ele>
        <time>2013-12-10T15:37:23Z</time>
      </trkpt>
      <trkpt lat="46.40722" lon="-0.46745">
        <ele>42</ele>
        <time>2013-12-10T15:37:28Z</time>
      </trkpt>
      <trkpt lat="46.40722" lon="-0.46744">
        <ele>42</ele>
        <time>2013-12-10T15:37:33Z</time>
      </trkpt>
      <trkpt lat="46.40725" lon="-0.46747">
        <ele>42</ele>
        <time>2013-12-10T15:37:43Z</time>
      </trkpt>
      <trkpt lat="46.40727" lon="-0.46751">
        <ele>42</ele>
        <time>2013-12-10T15:37:48Z</time>
      </trkpt>
      <trkpt lat="46.40732" lon="-0.46756">
        <ele>42</ele>
        <time>2013-12-10T15:37:53Z</time>
      </trkpt>
      <trkpt lat="46.40736" lon="-0.46762">
        <ele>42</ele>
        <time>2013-12-10T15:37:58Z</time>
      </trkpt>
      <trkpt lat="46.40739" lon="-0.46765">
        <ele>42</ele>
        <time>2013-12-10T15:38:03Z</time>
      </trkpt>
      <trkpt lat="46.40743" lon="-0.46772">
        <ele>42</ele>
        <time>2013-12-10T15:38:08Z</time>
      </trkpt>
      <trkpt lat="46.40746" lon="-0.46779">
        <ele>42</ele>
        <time>2013-12-10T15:38:13Z</time>
      </trkpt>
      <trkpt lat="46.4075" lon="-0.46785">
        <ele>42</ele>
        <time>2013-12-10T15:38:18Z</time>
      </trkpt>
      <trkpt lat="46.40754" lon="-0.4679">
        <ele>42</ele>
        <time>2013-12-10T15:38:23Z</time>
      </trkpt>
      <trkpt lat="46.40757" lon="-0.46795">
        <ele>48</ele>
        <time>2013-12-10T15:38:28Z</time>
      </trkpt>
      <trkpt lat="46.40761" lon="-0.46801">
        <ele>48</ele>
        <time>2013-12-10T15:38:33Z</time>
      </trkpt>
      <trkpt lat="46.40764" lon="-0.46807">
        <ele>48</ele>
        <time>2013-12-10T15:38:38Z</time>
      </trkpt>
      <trkpt lat="46.40768" lon="-0.46812">
        <ele>48</ele>
        <time>2013-12-10T15:38:43Z</time>
      </trkpt>
      <trkpt lat="46.40771" lon="-0.46818">
        <ele>48</ele>
        <time>2013-12-10T15:38:48Z</time>
      </trkpt>
      <trkpt lat="46.40775" lon="-0.46824">
        <ele>48</ele>
        <time>2013-12-10T15:38:53Z</time>
      </trkpt>
      <trkpt lat="46.40778" lon="-0.4683">
        <ele>48</ele>
        <time>2013-12-10T15:38:58Z</time>
      </trkpt>
      <trkpt lat="46.40781" lon="-0.46835">
        <ele>48</ele>
        <time>2013-12-10T15:39:03Z</time>
      </trkpt>
      <trkpt lat="46.40785" lon="-0.46842">
        <ele>48</ele>
        <time>2013-12-10T15:39:08Z</time>
      </trkpt>
      <trkpt lat="46.4079" lon="-0.46847">
        <ele>48</ele>
        <time>2013-12-10T15:39:13Z</time>
      </trkpt>
      <trkpt lat="46.40791" lon="-0.46847">
        <ele>48</ele>
        <time>2013-12-10T15:39:18Z</time>
      </trkpt>
      <trkpt lat="46.40792" lon="-0.46848">
        <ele>41</ele>
        <time>2013-12-10T15:39:23Z</time>
      </trkpt>
      <trkpt lat="46.40792" lon="-0.46851">
        <ele>41</ele>
        <time>2013-12-10T15:39:28Z</time>
      </trkpt>
      <trkpt lat="46.40796" lon="-0.46858">
        <ele>41</ele>
        <time>2013-12-10T15:39:33Z</time>
      </trkpt>
      <trkpt lat="46.408" lon="-0.46862">
        <ele>41</ele>
        <time>2013-12-10T15:39:38Z</time>
      </trkpt>
      <trkpt lat="46.40806" lon="-0.46868">
        <ele>41</ele>
        <time>2013-12-10T15:39:43Z</time>
      </trkpt>
      <trkpt lat="46.40811" lon="-0.46874">
        <ele>41</ele>
        <time>2013-12-10T15:39:48Z</time>
      </trkpt>
      <trkpt lat="46.40813" lon="-0.46875">
        <ele>43</ele>
        <time>2013-12-10T15:39:53Z</time>
      </trkpt>
      <trkpt lat="46.40815" lon="-0.46878">
        <ele>43</ele>
        <time>2013-12-10T15:39:58Z</time>
      </trkpt>
      <trkpt lat="46.40819" lon="-0.46882">
        <ele>43</ele>
        <time>2013-12-10T15:40:03Z</time>
      </trkpt>
      <trkpt lat="46.40822" lon="-0.46888">
        <ele>43</ele>
        <time>2013-12-10T15:40:08Z</time>
      </trkpt>
      <trkpt lat="46.40827" lon="-0.46893">
        <ele>43</ele>
        <time>2013-12-10T15:40:13Z</time>
      </trkpt>
      <trkpt lat="46.40832" lon="-0.46897">
        <ele>43</ele>
        <time>2013-12-10T15:40:18Z</time>
      </trkpt>
      <trkpt lat="46.40832" lon="-0.46897">
        <ele>43</ele>
        <time>2013-12-10T15:40:23Z</time>
      </trkpt>
      <trkpt lat="46.40832" lon="-0.46898">
        <ele>43</ele>
        <time>2013-12-10T15:40:28Z</time>
      </trkpt>
      <trkpt lat="46.40834" lon="-0.46902">
        <ele>43</ele>
        <time>2013-12-10T15:40:33Z</time>
      </trkpt>
      <trkpt lat="46.40837" lon="-0.46906">
        <ele>43</ele>
        <time>2013-12-10T15:40:38Z</time>
      </trkpt>
      <trkpt lat="46.4084" lon="-0.4691">
        <ele>43</ele>
        <time>2013-12-10T15:40:43Z</time>
      </trkpt>
      <trkpt lat="46.40844" lon="-0.46916">
        <ele>43</ele>
        <time>2013-12-10T15:40:48Z</time>
      </trkpt>
      <trkpt lat="46.40848" lon="-0.46922">
        <ele>43</ele>
        <time>2013-12-10T15:40:53Z</time>
      </trkpt>
      <trkpt lat="46.40852" lon="-0.46928">
        <ele>43</ele>
        <time>2013-12-10T15:40:58Z</time>
      </trkpt>
      <trkpt lat="46.40856" lon="-0.46935">
        <ele>43</ele>
        <time>2013-12-10T15:41:03Z</time>
      </trkpt>
      <trkpt lat="46.4086" lon="-0.46941">
        <ele>43</ele>
        <time>2013-12-10T15:41:08Z</time>
      </trkpt>
      <trkpt lat="46.40864" lon="-0.46946">
        <ele>43</ele>
        <time>2013-12-10T15:41:13Z</time>
      </trkpt>
      <trkpt lat="46.4087" lon="-0.46952">
        <ele>43</ele>
        <time>2013-12-10T15:41:18Z</time>
      </trkpt>
      <trkpt lat="46.40873" lon="-0.46958">
        <ele>43</ele>
        <time>2013-12-10T15:41:23Z</time>
      </trkpt>
      <trkpt lat="46.40877" lon="-0.46964">
        <ele>40</ele>
        <time>2013-12-10T15:41:28Z</time>
      </trkpt>
      <trkpt lat="46.40881" lon="-0.4697">
        <ele>40</ele>
        <time>2013-12-10T15:41:33Z</time>
      </trkpt>
      <trkpt lat="46.40885" lon="-0.46977">
        <ele>40</ele>
        <time>2013-12-10T15:41:38Z</time>
      </trkpt>
      <trkpt lat="46.40889" lon="-0.46984">
        <ele>40</ele>
        <time>2013-12-10T15:41:43Z</time>
      </trkpt>
      <trkpt lat="46.40894" lon="-0.46991">
        <ele>40</ele>
        <time>2013-12-10T15:41:48Z</time>
      </trkpt>
      <trkpt lat="46.40898" lon="-0.46997">
        <ele>40</ele>
        <time>2013-12-10T15:41:53Z</time>
      </trkpt>
      <trkpt lat="46.40902" lon="-0.47002">
        <ele>40</ele>
        <time>2013-12-10T15:41:58Z</time>
      </trkpt>
      <trkpt lat="46.40906" lon="-0.47008">
        <ele>40</ele>
        <time>2013-12-10T15:42:03Z</time>
      </trkpt>
      <trkpt lat="46.40909" lon="-0.47014">
        <ele>40</ele>
        <time>2013-12-10T15:42:08Z</time>
      </trkpt>
      <trkpt lat="46.40912" lon="-0.4702">
        <ele>40</ele>
        <time>2013-12-10T15:42:13Z</time>
      </trkpt>
      <trkpt lat="46.40916" lon="-0.47025">
        <ele>40</ele>
        <time>2013-12-10T15:42:18Z</time>
      </trkpt>
      <trkpt lat="46.4092" lon="-0.47031">
        <ele>40</ele>
        <time>2013-12-10T15:42:23Z</time>
      </trkpt>
      <trkpt lat="46.40923" lon="-0.47037">
        <ele>40</ele>
        <time>2013-12-10T15:42:28Z</time>
      </trkpt>
      <trkpt lat="46.40925" lon="-0.47041">
        <ele>40</ele>
        <time>2013-12-10T15:42:33Z</time>
      </trkpt>
      <trkpt lat="46.40928" lon="-0.47046">
        <ele>48</ele>
        <time>2013-12-10T15:42:38Z</time>
      </trkpt>
      <trkpt lat="46.40932" lon="-0.47052">
        <ele>48</ele>
        <time>2013-12-10T15:42:43Z</time>
      </trkpt>
      <trkpt lat="46.40936" lon="-0.47058">
        <ele>48</ele>
        <time>2013-12-10T15:42:48Z</time>
      </trkpt>
      <trkpt lat="46.40939" lon="-0.47064">
        <ele>48</ele>
        <time>2013-12-10T15:42:53Z</time>
      </trkpt>
      <trkpt lat="46.40944" lon="-0.4707">
        <ele>48</ele>
        <time>2013-12-10T15:42:58Z</time>
      </trkpt>
      <trkpt lat="46.40947" lon="-0.47075">
        <ele>48</ele>
        <time>2013-12-10T15:43:03Z</time>
      </trkpt>
      <trkpt lat="46.40951" lon="-0.47082">
        <ele>48</ele>
        <time>2013-12-10T15:43:08Z</time>
      </trkpt>
      <trkpt lat="46.40955" lon="-0.47088">
        <ele>48</ele>
        <time>2013-12-10T15:43:13Z</time>
      </trkpt>
      <trkpt lat="46.40959" lon="-0.47095">
        <ele>49</ele>
        <time>2013-12-10T15:43:18Z</time>
      </trkpt>
      <trkpt lat="46.40963" lon="-0.47102">
        <ele>49</ele>
        <time>2013-12-10T15:43:23Z</time>
      </trkpt>
      <trkpt lat="46.40967" lon="-0.47109">
        <ele>49</ele>
        <time>2013-12-10T15:43:28Z</time>
      </trkpt>
      <trkpt lat="46.40972" lon="-0.47116">
        <ele>49</ele>
        <time>2013-12-10T15:43:33Z</time>
      </trkpt>
      <trkpt lat="46.40975" lon="-0.47123">
        <ele>49</ele>
        <time>2013-12-10T15:43:38Z</time>
      </trkpt>
      <trkpt lat="46.40979" lon="-0.47129">
        <ele>53</ele>
        <time>2013-12-10T15:43:43Z</time>
      </trkpt>
      <trkpt lat="46.40983" lon="-0.47137">
        <ele>53</ele>
        <time>2013-12-10T15:43:48Z</time>
      </trkpt>
      <trkpt lat="46.40984" lon="-0.47139">
        <ele>53</ele>
        <time>2013-12-10T15:43:53Z</time>
      </trkpt>
      <trkpt lat="46.4099" lon="-0.47149">
        <ele>53</ele>
        <time>2013-12-10T15:43:58Z</time>
      </trkpt>
      <trkpt lat="46.40992" lon="-0.47153">
        <ele>53</ele>
        <time>2013-12-10T15:44:03Z</time>
      </trkpt>
      <trkpt lat="46.40996" lon="-0.4716">
        <ele>53</ele>
        <time>2013-12-10T15:44:08Z</time>
      </trkpt>
      <trkpt lat="46.41001" lon="-0.47168">
        <ele>53</ele>
        <time>2013-12-10T15:44:13Z</time>
      </trkpt>
      <trkpt lat="46.41004" lon="-0.47174">
        <ele>53</ele>
        <time>2013-12-10T15:44:18Z</time>
      </trkpt>
      <trkpt lat="46.41007" lon="-0.4718">
        <ele>53</ele>
        <time>2013-12-10T15:44:23Z</time>
      </trkpt>
      <trkpt lat="46.41011" lon="-0.47187">
        <ele>53</ele>
        <time>2013-12-10T15:44:28Z</time>
      </trkpt>
      <trkpt lat="46.41014" lon="-0.47193">
        <ele>53</ele>
        <time>2013-12-10T15:44:33Z</time>
      </trkpt>
      <trkpt lat="46.41018" lon="-0.47199">
        <ele>53</ele>
        <time>2013-12-10T15:44:38Z</time>
      </trkpt>
      <trkpt lat="46.41019" lon="-0.47204">
        <ele>53</ele>
        <time>2013-12-10T15:44:43Z</time>
      </trkpt>
      <trkpt lat="46.41018" lon="-0.47211">
        <ele>54</ele>
        <time>2013-12-10T15:44:48Z</time>
      </trkpt>
      <trkpt lat="46.41014" lon="-0.47215">
        <ele>54</ele>
        <time>2013-12-10T15:44:53Z</time>
      </trkpt>
      <trkpt lat="46.41008" lon="-0.47218">
        <ele>54</ele>
        <time>2013-12-10T15:44:58Z</time>
      </trkpt>
      <trkpt lat="46.41003" lon="-0.47222">
        <ele>54</ele>
        <time>2013-12-10T15:45:03Z</time>
      </trkpt>
      <trkpt lat="46.40998" lon="-0.47224">
        <ele>54</ele>
        <time>2013-12-10T15:45:08Z</time>
      </trkpt>
      <trkpt lat="46.40993" lon="-0.47228">
        <ele>54</ele>
        <time>2013-12-10T15:45:13Z</time>
      </trkpt>
      <trkpt lat="46.40988" lon="-0.4723">
        <ele>54</ele>
        <time>2013-12-10T15:45:18Z</time>
      </trkpt>
      <trkpt lat="46.40984" lon="-0.47232">
        <ele>54</ele>
        <time>2013-12-10T15:45:23Z</time>
      </trkpt>
      <trkpt lat="46.40979" lon="-0.47235">
        <ele>54</ele>
        <time>2013-12-10T15:45:28Z</time>
      </trkpt>
      <trkpt lat="46.40974" lon="-0.47237">
        <ele>54</ele>
        <time>2013-12-10T15:45:33Z</time>
      </trkpt>
      <trkpt lat="46.4097" lon="-0.4724">
        <ele>54</ele>
        <time>2013-12-10T15:45:38Z</time>
      </trkpt>
      <trkpt lat="46.40965" lon="-0.47242">
        <ele>54</ele>
        <time>2013-12-10T15:45:43Z</time>
      </trkpt>
      <trkpt lat="46.4096" lon="-0.47244">
        <ele>54</ele>
        <time>2013-12-10T15:45:48Z</time>
      </trkpt>
      <trkpt lat="46.40954" lon="-0.47248">
        <ele>54</ele>
        <time>2013-12-10T15:45:53Z</time>
      </trkpt>
      <trkpt lat="46.4095" lon="-0.4725">
        <ele>54</ele>
        <time>2013-12-10T15:45:58Z</time>
      </trkpt>
      <trkpt lat="46.40947" lon="-0.4725">
        <ele>54</ele>
        <time>2013-12-10T15:46:03Z</time>
      </trkpt>
      <trkpt lat="46.40944" lon="-0.47251">
        <ele>54</ele>
        <time>2013-12-10T15:46:08Z</time>
      </trkpt>
      <trkpt lat="46.40938" lon="-0.47254">
        <ele>54</ele>
        <time>2013-12-10T15:46:13Z</time>
      </trkpt>
      <trkpt lat="46.40933" lon="-0.47258">
        <ele>54</ele>
        <time>2013-12-10T15:46:18Z</time>
      </trkpt>
      <trkpt lat="46.40929" lon="-0.4726">
        <ele>54</ele>
        <time>2013-12-10T15:46:23Z</time>
      </trkpt>
      <trkpt lat="46.40923" lon="-0.47263">
        <ele>54</ele>
        <time>2013-12-10T15:46:28Z</time>
      </trkpt>
      <trkpt lat="46.40918" lon="-0.47265">
        <ele>54</ele>
        <time>2013-12-10T15:46:33Z</time>
      </trkpt>
      <trkpt lat="46.40912" lon="-0.47268">
        <ele>54</ele>
        <time>2013-12-10T15:46:38Z</time>
      </trkpt>
      <trkpt lat="46.40907" lon="-0.47272">
        <ele>54</ele>
        <time>2013-12-10T15:46:43Z</time>
      </trkpt>
      <trkpt lat="46.40901" lon="-0.47274">
        <ele>54</ele>
        <time>2013-12-10T15:46:48Z</time>
      </trkpt>
      <trkpt lat="46.40896" lon="-0.47277">
        <ele>54</ele>
        <time>2013-12-10T15:46:53Z</time>
      </trkpt>
      <trkpt lat="46.4089" lon="-0.4728">
        <ele>54</ele>
        <time>2013-12-10T15:46:58Z</time>
      </trkpt>
      <trkpt lat="46.40885" lon="-0.47283">
        <ele>54</ele>
        <time>2013-12-10T15:47:03Z</time>
      </trkpt>
      <trkpt lat="46.40879" lon="-0.47286">
        <ele>54</ele>
        <time>2013-12-10T15:47:08Z</time>
      </trkpt>
      <trkpt lat="46.40874" lon="-0.47288">
        <ele>55</ele>
        <time>2013-12-10T15:47:13Z</time>
      </trkpt>
      <trkpt lat="46.40869" lon="-0.47291">
        <ele>55</ele>
        <time>2013-12-10T15:47:18Z</time>
      </trkpt>
      <trkpt lat="46.40863" lon="-0.47294">
        <ele>56</ele>
        <time>2013-12-10T15:47:23Z</time>
      </trkpt>
      <trkpt lat="46.40858" lon="-0.47296">
        <ele>56</ele>
        <time>2013-12-10T15:47:28Z</time>
      </trkpt>
      <trkpt lat="46.40852" lon="-0.47299">
        <ele>56</ele>
        <time>2013-12-10T15:47:33Z</time>
      </trkpt>
      <trkpt lat="46.40847" lon="-0.47301">
        <ele>56</ele>
        <time>2013-12-10T15:47:38Z</time>
      </trkpt>
      <trkpt lat="46.40842" lon="-0.47304">
        <ele>56</ele>
        <time>2013-12-10T15:47:43Z</time>
      </trkpt>
      <trkpt lat="46.40836" lon="-0.47307">
        <ele>56</ele>
        <time>2013-12-10T15:47:48Z</time>
      </trkpt>
      <trkpt lat="46.40829" lon="-0.47309">
        <ele>56</ele>
        <time>2013-12-10T15:47:53Z</time>
      </trkpt>
      <trkpt lat="46.40824" lon="-0.47312">
        <ele>56</ele>
        <time>2013-12-10T15:47:58Z</time>
      </trkpt>
      <trkpt lat="46.40818" lon="-0.47315">
        <ele>56</ele>
        <time>2013-12-10T15:48:03Z</time>
      </trkpt>
      <trkpt lat="46.40813" lon="-0.47317">
        <ele>56</ele>
        <time>2013-12-10T15:48:08Z</time>
      </trkpt>
      <trkpt lat="46.40807" lon="-0.4732">
        <ele>56</ele>
        <time>2013-12-10T15:48:13Z</time>
      </trkpt>
      <trkpt lat="46.40801" lon="-0.47323">
        <ele>56</ele>
        <time>2013-12-10T15:48:18Z</time>
      </trkpt>
      <trkpt lat="46.40796" lon="-0.47325">
        <ele>56</ele>
        <time>2013-12-10T15:48:23Z</time>
      </trkpt>
      <trkpt lat="46.40791" lon="-0.47328">
        <ele>55</ele>
        <time>2013-12-10T15:48:28Z</time>
      </trkpt>
      <trkpt lat="46.40786" lon="-0.47331">
        <ele>55</ele>
        <time>2013-12-10T15:48:33Z</time>
      </trkpt>
      <trkpt lat="46.4078" lon="-0.47334">
        <ele>55</ele>
        <time>2013-12-10T15:48:38Z</time>
      </trkpt>
      <trkpt lat="46.40775" lon="-0.47337">
        <ele>55</ele>
        <time>2013-12-10T15:48:43Z</time>
      </trkpt>
      <trkpt lat="46.4077" lon="-0.47339">
        <ele>55</ele>
        <time>2013-12-10T15:48:48Z</time>
      </trkpt>
      <trkpt lat="46.40764" lon="-0.47343">
        <ele>55</ele>
        <time>2013-12-10T15:48:53Z</time>
      </trkpt>
      <trkpt lat="46.4076" lon="-0.47345">
        <ele>55</ele>
        <time>2013-12-10T15:48:58Z</time>
      </trkpt>
      <trkpt lat="46.40757" lon="-0.47346">
        <ele>55</ele>
        <time>2013-12-10T15:49:03Z</time>
      </trkpt>
      <trkpt lat="46.40757" lon="-0.47346">
        <ele>55</ele>
        <time>2013-12-10T15:49:08Z</time>
      </trkpt>
      <trkpt lat="46.40753" lon="-0.47348">
        <ele>55</ele>
        <time>2013-12-10T15:49:13Z</time>
      </trkpt>
      <trkpt lat="46.40748" lon="-0.47351">
        <ele>55</ele>
        <time>2013-12-10T15:49:18Z</time>
      </trkpt>
      <trkpt lat="46.40744" lon="-0.47353">
        <ele>55</ele>
        <time>2013-12-10T15:49:23Z</time>
      </trkpt>
      <trkpt lat="46.40741" lon="-0.47355">
        <ele>55</ele>
        <time>2013-12-10T15:49:28Z</time>
      </trkpt>
      <trkpt lat="46.40737" lon="-0.47357">
        <ele>55</ele>
        <time>2013-12-10T15:49:33Z</time>
      </trkpt>
      <trkpt lat="46.40732" lon="-0.47359">
        <ele>55</ele>
        <time>2013-12-10T15:49:38Z</time>
      </trkpt>
      <trkpt lat="46.40726" lon="-0.47362">
        <ele>55</ele>
        <time>2013-12-10T15:49:43Z</time>
      </trkpt>
      <trkpt lat="46.40722" lon="-0.47364">
        <ele>55</ele>
        <time>2013-12-10T15:49:48Z</time>
      </trkpt>
      <trkpt lat="46.40717" lon="-0.47365">
        <ele>55</ele>
        <time>2013-12-10T15:49:53Z</time>
      </trkpt>
      <trkpt lat="46.40713" lon="-0.47368">
        <ele>55</ele>
        <time>2013-12-10T15:49:58Z</time>
      </trkpt>
      <trkpt lat="46.40709" lon="-0.47371">
        <ele>55</ele>
        <time>2013-12-10T15:50:03Z</time>
      </trkpt>
      <trkpt lat="46.40704" lon="-0.47374">
        <ele>54</ele>
        <time>2013-12-10T15:50:08Z</time>
      </trkpt>
      <trkpt lat="46.40699" lon="-0.47376">
        <ele>53</ele>
        <time>2013-12-10T15:50:13Z</time>
      </trkpt>
      <trkpt lat="46.40695" lon="-0.47379">
        <ele>53</ele>
        <time>2013-12-10T15:50:18Z</time>
      </trkpt>
      <trkpt lat="46.4069" lon="-0.47381">
        <ele>53</ele>
        <time>2013-12-10T15:50:23Z</time>
      </trkpt>
      <trkpt lat="46.40686" lon="-0.47384">
        <ele>53</ele>
        <time>2013-12-10T15:50:28Z</time>
      </trkpt>
      <trkpt lat="46.40682" lon="-0.47385">
        <ele>53</ele>
        <time>2013-12-10T15:50:33Z</time>
      </trkpt>
      <trkpt lat="46.40678" lon="-0.4739">
        <ele>53</ele>
        <time>2013-12-10T15:50:38Z</time>
      </trkpt>
      <trkpt lat="46.40672" lon="-0.47393">
        <ele>53</ele>
        <time>2013-12-10T15:50:43Z</time>
      </trkpt>
      <trkpt lat="46.40667" lon="-0.47395">
        <ele>53</ele>
        <time>2013-12-10T15:50:48Z</time>
      </trkpt>
      <trkpt lat="46.40661" lon="-0.47397">
        <ele>53</ele>
        <time>2013-12-10T15:50:53Z</time>
      </trkpt>
      <trkpt lat="46.40657" lon="-0.47399">
        <ele>53</ele>
        <time>2013-12-10T15:50:58Z</time>
      </trkpt>
      <trkpt lat="46.40652" lon="-0.47399">
        <ele>53</ele>
        <time>2013-12-10T15:51:03Z</time>
      </trkpt>
      <trkpt lat="46.40648" lon="-0.47401">
        <ele>53</ele>
        <time>2013-12-10T15:51:08Z</time>
      </trkpt>
      <trkpt lat="46.40644" lon="-0.47402">
        <ele>53</ele>
        <time>2013-12-10T15:51:13Z</time>
      </trkpt>
      <trkpt lat="46.40644" lon="-0.47403">
        <ele>53</ele>
        <time>2013-12-10T15:51:18Z</time>
      </trkpt>
      <trkpt lat="46.4064" lon="-0.47404">
        <ele>53</ele>
        <time>2013-12-10T15:51:23Z</time>
      </trkpt>
      <trkpt lat="46.40633" lon="-0.47409">
        <ele>53</ele>
        <time>2013-12-10T15:51:28Z</time>
      </trkpt>
      <trkpt lat="46.40627" lon="-0.47411">
        <ele>53</ele>
        <time>2013-12-10T15:51:33Z</time>
      </trkpt>
      <trkpt lat="46.40622" lon="-0.47414">
        <ele>53</ele>
        <time>2013-12-10T15:51:38Z</time>
      </trkpt>
      <trkpt lat="46.40616" lon="-0.47417">
        <ele>53</ele>
        <time>2013-12-10T15:51:43Z</time>
      </trkpt>
      <trkpt lat="46.40611" lon="-0.47419">
        <ele>53</ele>
        <time>2013-12-10T15:51:48Z</time>
      </trkpt>
      <trkpt lat="46.40606" lon="-0.47422">
        <ele>53</ele>
        <time>2013-12-10T15:51:53Z</time>
      </trkpt>
      <trkpt lat="46.406" lon="-0.47425">
        <ele>53</ele>
        <time>2013-12-10T15:51:58Z</time>
      </trkpt>
      <trkpt lat="46.40594" lon="-0.47428">
        <ele>53</ele>
        <time>2013-12-10T15:52:03Z</time>
      </trkpt>
      <trkpt lat="46.40589" lon="-0.47431">
        <ele>53</ele>
        <time>2013-12-10T15:52:08Z</time>
      </trkpt>
      <trkpt lat="46.40584" lon="-0.47433">
        <ele>53</ele>
        <time>2013-12-10T15:52:13Z</time>
      </trkpt>
      <trkpt lat="46.40577" lon="-0.47436">
        <ele>53</ele>
        <time>2013-12-10T15:52:18Z</time>
      </trkpt>
      <trkpt lat="46.40572" lon="-0.47439">
        <ele>53</ele>
        <time>2013-12-10T15:52:23Z</time>
      </trkpt>
      <trkpt lat="46.40568" lon="-0.47441">
        <ele>53</ele>
        <time>2013-12-10T15:52:28Z</time>
      </trkpt>
      <trkpt lat="46.40561" lon="-0.47445">
        <ele>53</ele>
        <time>2013-12-10T15:52:33Z</time>
      </trkpt>
      <trkpt lat="46.40556" lon="-0.47447">
        <ele>53</ele>
        <time>2013-12-10T15:52:38Z</time>
      </trkpt>
      <trkpt lat="46.4055" lon="-0.4745">
        <ele>53</ele>
        <time>2013-12-10T15:52:43Z</time>
      </trkpt>
      <trkpt lat="46.40545" lon="-0.47452">
        <ele>53</ele>
        <time>2013-12-10T15:52:48Z</time>
      </trkpt>
      <trkpt lat="46.40539" lon="-0.47455">
        <ele>51</ele>
        <time>2013-12-10T15:52:53Z</time>
      </trkpt>
      <trkpt lat="46.40533" lon="-0.47458">
        <ele>51</ele>
        <time>2013-12-10T15:52:58Z</time>
      </trkpt>
      <trkpt lat="46.40528" lon="-0.47461">
        <ele>50</ele>
        <time>2013-12-10T15:53:03Z</time>
      </trkpt>
      <trkpt lat="46.40523" lon="-0.47464">
        <ele>50</ele>
        <time>2013-12-10T15:53:08Z</time>
      </trkpt>
      <trkpt lat="46.40516" lon="-0.47467">
        <ele>50</ele>
        <time>2013-12-10T15:53:13Z</time>
      </trkpt>
      <trkpt lat="46.4051" lon="-0.47471">
        <ele>50</ele>
        <time>2013-12-10T15:53:18Z</time>
      </trkpt>
      <trkpt lat="46.40504" lon="-0.47474">
        <ele>50</ele>
        <time>2013-12-10T15:53:23Z</time>
      </trkpt>
      <trkpt lat="46.40498" lon="-0.47477">
        <ele>50</ele>
        <time>2013-12-10T15:53:28Z</time>
      </trkpt>
      <trkpt lat="46.40492" lon="-0.47482">
        <ele>50</ele>
        <time>2013-12-10T15:53:33Z</time>
      </trkpt>
      <trkpt lat="46.40488" lon="-0.47485">
        <ele>50</ele>
        <time>2013-12-10T15:53:38Z</time>
      </trkpt>
      <trkpt lat="46.40482" lon="-0.4749">
        <ele>50</ele>
        <time>2013-12-10T15:53:43Z</time>
      </trkpt>
      <trkpt lat="46.40476" lon="-0.47492">
        <ele>50</ele>
        <time>2013-12-10T15:53:48Z</time>
      </trkpt>
      <trkpt lat="46.40471" lon="-0.47497">
        <ele>50</ele>
        <time>2013-12-10T15:53:53Z</time>
      </trkpt>
      <trkpt lat="46.40464" lon="-0.47503">
        <ele>50</ele>
        <time>2013-12-10T15:53:58Z</time>
      </trkpt>
      <trkpt lat="46.40458" lon="-0.47506">
        <ele>46</ele>
        <time>2013-12-10T15:54:03Z</time>
      </trkpt>
      <trkpt lat="46.40452" lon="-0.47509">
        <ele>46</ele>
        <time>2013-12-10T15:54:08Z</time>
      </trkpt>
      <trkpt lat="46.40446" lon="-0.47515">
        <ele>46</ele>
        <time>2013-12-10T15:54:13Z</time>
      </trkpt>
      <trkpt lat="46.40439" lon="-0.47518">
        <ele>46</ele>
        <time>2013-12-10T15:54:18Z</time>
      </trkpt>
      <trkpt lat="46.40435" lon="-0.47526">
        <ele>46</ele>
        <time>2013-12-10T15:54:23Z</time>
      </trkpt>
      <trkpt lat="46.40431" lon="-0.4753">
        <ele>46</ele>
        <time>2013-12-10T15:54:28Z</time>
      </trkpt>
      <trkpt lat="46.4043" lon="-0.47531">
        <ele>46</ele>
        <time>2013-12-10T15:54:33Z</time>
      </trkpt>
      <trkpt lat="46.40425" lon="-0.47536">
        <ele>46</ele>
        <time>2013-12-10T15:54:38Z</time>
      </trkpt>
      <trkpt lat="46.4042" lon="-0.47542">
        <ele>45</ele>
        <time>2013-12-10T15:54:43Z</time>
      </trkpt>
      <trkpt lat="46.40416" lon="-0.47546">
        <ele>45</ele>
        <time>2013-12-10T15:54:48Z</time>
      </trkpt>
      <trkpt lat="46.4041" lon="-0.47548">
        <ele>45</ele>
        <time>2013-12-10T15:54:53Z</time>
      </trkpt>
      <trkpt lat="46.40406" lon="-0.47553">
        <ele>45</ele>
        <time>2013-12-10T15:54:58Z</time>
      </trkpt>
      <trkpt lat="46.404" lon="-0.47558">
        <ele>45</ele>
        <time>2013-12-10T15:55:03Z</time>
      </trkpt>
      <trkpt lat="46.40395" lon="-0.47563">
        <ele>45</ele>
        <time>2013-12-10T15:55:08Z</time>
      </trkpt>
      <trkpt lat="46.4039" lon="-0.47566">
        <ele>45</ele>
        <time>2013-12-10T15:55:13Z</time>
      </trkpt>
      <trkpt lat="46.40385" lon="-0.47571">
        <ele>45</ele>
        <time>2013-12-10T15:55:18Z</time>
      </trkpt>
      <trkpt lat="46.40381" lon="-0.47576">
        <ele>45</ele>
        <time>2013-12-10T15:55:23Z</time>
      </trkpt>
      <trkpt lat="46.40377" lon="-0.47581">
        <ele>45</ele>
        <time>2013-12-10T15:55:28Z</time>
      </trkpt>
      <trkpt lat="46.40372" lon="-0.47586">
        <ele>41</ele>
        <time>2013-12-10T15:55:33Z</time>
      </trkpt>
      <trkpt lat="46.40366" lon="-0.47591">
        <ele>41</ele>
        <time>2013-12-10T15:55:38Z</time>
      </trkpt>
      <trkpt lat="46.40362" lon="-0.47596">
        <ele>41</ele>
        <time>2013-12-10T15:55:43Z</time>
      </trkpt>
      <trkpt lat="46.40357" lon="-0.47601">
        <ele>41</ele>
        <time>2013-12-10T15:55:48Z</time>
      </trkpt>
      <trkpt lat="46.40351" lon="-0.47605">
        <ele>41</ele>
        <time>2013-12-10T15:55:53Z</time>
      </trkpt>
      <trkpt lat="46.40348" lon="-0.47609">
        <ele>41</ele>
        <time>2013-12-10T15:55:58Z</time>
      </trkpt>
      <trkpt lat="46.40344" lon="-0.47614">
        <ele>41</ele>
        <time>2013-12-10T15:56:03Z</time>
      </trkpt>
      <trkpt lat="46.40339" lon="-0.47618">
        <ele>41</ele>
        <time>2013-12-10T15:56:08Z</time>
      </trkpt>
      <trkpt lat="46.40334" lon="-0.47622">
        <ele>41</ele>
        <time>2013-12-10T15:56:13Z</time>
      </trkpt>
      <trkpt lat="46.40329" lon="-0.47627">
        <ele>40</ele>
        <time>2013-12-10T15:56:18Z</time>
      </trkpt>
      <trkpt lat="46.40325" lon="-0.4763">
        <ele>40</ele>
        <time>2013-12-10T15:56:23Z</time>
      </trkpt>
      <trkpt lat="46.4032" lon="-0.47634">
        <ele>40</ele>
        <time>2013-12-10T15:56:28Z</time>
      </trkpt>
      <trkpt lat="46.40315" lon="-0.47637">
        <ele>40</ele>
        <time>2013-12-10T15:56:33Z</time>
      </trkpt>
      <trkpt lat="46.40311" lon="-0.4764">
        <ele>40</ele>
        <time>2013-12-10T15:56:38Z</time>
      </trkpt>
      <trkpt lat="46.40305" lon="-0.47643">
        <ele>40</ele>
        <time>2013-12-10T15:56:43Z</time>
      </trkpt>
      <trkpt lat="46.40299" lon="-0.47646">
        <ele>40</ele>
        <time>2013-12-10T15:56:48Z</time>
      </trkpt>
      <trkpt lat="46.40295" lon="-0.47648">
        <ele>40</ele>
        <time>2013-12-10T15:56:53Z</time>
      </trkpt>
      <trkpt lat="46.40287" lon="-0.4765">
        <ele>34</ele>
        <time>2013-12-10T15:56:58Z</time>
      </trkpt>
      <trkpt lat="46.40282" lon="-0.47653">
        <ele>34</ele>
        <time>2013-12-10T15:57:03Z</time>
      </trkpt>
      <trkpt lat="46.40276" lon="-0.47654">
        <ele>34</ele>
        <time>2013-12-10T15:57:08Z</time>
      </trkpt>
      <trkpt lat="46.40271" lon="-0.47655">
        <ele>34</ele>
        <time>2013-12-10T15:57:13Z</time>
      </trkpt>
      <trkpt lat="46.40268" lon="-0.47656">
        <ele>34</ele>
        <time>2013-12-10T15:57:18Z</time>
      </trkpt>
      <trkpt lat="46.40262" lon="-0.47658">
        <ele>34</ele>
        <time>2013-12-10T15:57:23Z</time>
      </trkpt>
      <trkpt lat="46.40256" lon="-0.47659">
        <ele>34</ele>
        <time>2013-12-10T15:57:28Z</time>
      </trkpt>
      <trkpt lat="46.40251" lon="-0.4766">
        <ele>34</ele>
        <time>2013-12-10T15:57:33Z</time>
      </trkpt>
      <trkpt lat="46.40247" lon="-0.4766">
        <ele>34</ele>
        <time>2013-12-10T15:57:38Z</time>
      </trkpt>
      <trkpt lat="46.40241" lon="-0.47661">
        <ele>34</ele>
        <time>2013-12-10T15:57:43Z</time>
      </trkpt>
      <trkpt lat="46.40238" lon="-0.47661">
        <ele>34</ele>
        <time>2013-12-10T15:57:48Z</time>
      </trkpt>
      <trkpt lat="46.40235" lon="-0.47662">
        <ele>34</ele>
        <time>2013-12-10T15:57:53Z</time>
      </trkpt>
      <trkpt lat="46.40231" lon="-0.47663">
        <ele>34</ele>
        <time>2013-12-10T15:57:58Z</time>
      </trkpt>
      <trkpt lat="46.40227" lon="-0.47661">
        <ele>34</ele>
        <time>2013-12-10T15:58:03Z</time>
      </trkpt>
      <trkpt lat="46.40224" lon="-0.4766">
        <ele>34</ele>
        <time>2013-12-10T15:58:08Z</time>
      </trkpt>
      <trkpt lat="46.40222" lon="-0.47657">
        <ele>34</ele>
        <time>2013-12-10T15:58:13Z</time>
      </trkpt>
      <trkpt lat="46.40221" lon="-0.47656">
        <ele>34</ele>
        <time>2013-12-10T15:58:18Z</time>
      </trkpt>
      <trkpt lat="46.40218" lon="-0.47653">
        <ele>34</ele>
        <time>2013-12-10T15:58:23Z</time>
      </trkpt>
      <trkpt lat="46.40215" lon="-0.47652">
        <ele>34</ele>
        <time>2013-12-10T15:58:28Z</time>
      </trkpt>
      <trkpt lat="46.40215" lon="-0.47648">
        <ele>34</ele>
        <time>2013-12-10T15:58:33Z</time>
      </trkpt>
      <trkpt lat="46.40215" lon="-0.47645">
        <ele>34</ele>
        <time>2013-12-10T15:58:38Z</time>
      </trkpt>
      <trkpt lat="46.40215" lon="-0.47645">
        <ele>34</ele>
        <time>2013-12-10T15:58:43Z</time>
      </trkpt>
      <trkpt lat="46.40207" lon="-0.47633">
        <ele>27</ele>
        <time>2013-12-10T15:58:48Z</time>
      </trkpt>
      <trkpt lat="46.40206" lon="-0.47628">
        <ele>27</ele>
        <time>2013-12-10T15:58:53Z</time>
      </trkpt>
      <trkpt lat="46.40197" lon="-0.47625">
        <ele>29</ele>
        <time>2013-12-10T15:58:58Z</time>
      </trkpt>
      <trkpt lat="46.40192" lon="-0.4762">
        <ele>29</ele>
        <time>2013-12-10T15:59:03Z</time>
      </trkpt>
      <trkpt lat="46.40187" lon="-0.47617">
        <ele>29</ele>
        <time>2013-12-10T15:59:08Z</time>
      </trkpt>
      <trkpt lat="46.40184" lon="-0.47612">
        <ele>29</ele>
        <time>2013-12-10T15:59:13Z</time>
      </trkpt>
      <trkpt lat="46.40179" lon="-0.47609">
        <ele>29</ele>
        <time>2013-12-10T15:59:18Z</time>
      </trkpt>
      <trkpt lat="46.40174" lon="-0.47606">
        <ele>29</ele>
        <time>2013-12-10T15:59:23Z</time>
      </trkpt>
      <trkpt lat="46.4017" lon="-0.47603">
        <ele>29</ele>
        <time>2013-12-10T15:59:28Z</time>
      </trkpt>
      <trkpt lat="46.40167" lon="-0.47598">
        <ele>29</ele>
        <time>2013-12-10T15:59:33Z</time>
      </trkpt>
      <trkpt lat="46.40165" lon="-0.47594">
        <ele>29</ele>
        <time>2013-12-10T15:59:38Z</time>
      </trkpt>
      <trkpt lat="46.40161" lon="-0.47594">
        <ele>29</ele>
        <time>2013-12-10T15:59:43Z</time>
      </trkpt>
      <trkpt lat="46.40156" lon="-0.4759">
        <ele>29</ele>
        <time>2013-12-10T15:59:48Z</time>
      </trkpt>
      <trkpt lat="46.40152" lon="-0.47588">
        <ele>29</ele>
        <time>2013-12-10T15:59:53Z</time>
      </trkpt>
      <trkpt lat="46.4015" lon="-0.47584">
        <ele>29</ele>
        <time>2013-12-10T15:59:58Z</time>
      </trkpt>
      <trkpt lat="46.40147" lon="-0.47579">
        <ele>29</ele>
        <time>2013-12-10T16:00:03Z</time>
      </trkpt>
      <trkpt lat="46.40147" lon="-0.47574">
        <ele>29</ele>
        <time>2013-12-10T16:00:08Z</time>
      </trkpt>
      <trkpt lat="46.40147" lon="-0.47566">
        <ele>29</ele>
        <time>2013-12-10T16:00:13Z</time>
      </trkpt>
      <trkpt lat="46.40145" lon="-0.47559">
        <ele>29</ele>
        <time>2013-12-10T16:00:18Z</time>
      </trkpt>
      <trkpt lat="46.40144" lon="-0.47552">
        <ele>29</ele>
        <time>2013-12-10T16:00:23Z</time>
      </trkpt>
      <trkpt lat="46.40144" lon="-0.47545">
        <ele>29</ele>
        <time>2013-12-10T16:00:28Z</time>
      </trkpt>
      <trkpt lat="46.40142" lon="-0.47538">
        <ele>30</ele>
        <time>2013-12-10T16:00:33Z</time>
      </trkpt>
      <trkpt lat="46.40138" lon="-0.47533">
        <ele>30</ele>
        <time>2013-12-10T16:00:38Z</time>
      </trkpt>
      <trkpt lat="46.40133" lon="-0.47533">
        <ele>30</ele>
        <time>2013-12-10T16:00:43Z</time>
      </trkpt>
      <trkpt lat="46.40129" lon="-0.47536">
        <ele>30</ele>
        <time>2013-12-10T16:00:48Z</time>
      </trkpt>
      <trkpt lat="46.40119" lon="-0.47534">
        <ele>28</ele>
        <time>2013-12-10T16:00:53Z</time>
      </trkpt>
      <trkpt lat="46.40115" lon="-0.47538">
        <ele>28</ele>
        <time>2013-12-10T16:00:58Z</time>
      </trkpt>
      <trkpt lat="46.40108" lon="-0.47543">
        <ele>27</ele>
        <time>2013-12-10T16:01:03Z</time>
      </trkpt>
      <trkpt lat="46.40104" lon="-0.47546">
        <ele>27</ele>
        <time>2013-12-10T16:01:08Z</time>
      </trkpt>
      <trkpt lat="46.40101" lon="-0.47553">
        <ele>27</ele>
        <time>2013-12-10T16:01:13Z</time>
      </trkpt>
      <trkpt lat="46.40097" lon="-0.47554">
        <ele>27</ele>
        <time>2013-12-10T16:01:18Z</time>
      </trkpt>
      <trkpt lat="46.40095" lon="-0.47554">
        <ele>27</ele>
        <time>2013-12-10T16:01:23Z</time>
      </trkpt>
      <trkpt lat="46.40094" lon="-0.4756">
        <ele>27</ele>
        <time>2013-12-10T16:01:28Z</time>
      </trkpt>
      <trkpt lat="46.40091" lon="-0.47561">
        <ele>27</ele>
        <time>2013-12-10T16:01:43Z</time>
      </trkpt>
      <trkpt lat="46.40084" lon="-0.47564">
        <ele>27</ele>
        <time>2013-12-10T16:01:48Z</time>
      </trkpt>
      <trkpt lat="46.40078" lon="-0.47566">
        <ele>27</ele>
        <time>2013-12-10T16:01:53Z</time>
      </trkpt>
      <trkpt lat="46.40074" lon="-0.47569">
        <ele>27</ele>
        <time>2013-12-10T16:01:58Z</time>
      </trkpt>
      <trkpt lat="46.40071" lon="-0.47574">
        <ele>27</ele>
        <time>2013-12-10T16:02:03Z</time>
      </trkpt>
      <trkpt lat="46.40065" lon="-0.47576">
        <ele>27</ele>
        <time>2013-12-10T16:02:08Z</time>
      </trkpt>
      <trkpt lat="46.4006" lon="-0.47579">
        <ele>27</ele>
        <time>2013-12-10T16:02:13Z</time>
      </trkpt>
      <trkpt lat="46.40056" lon="-0.47581">
        <ele>27</ele>
        <time>2013-12-10T16:02:18Z</time>
      </trkpt>
      <trkpt lat="46.40057" lon="-0.47587">
        <ele>27</ele>
        <time>2013-12-10T16:02:23Z</time>
      </trkpt>
      <trkpt lat="46.40053" lon="-0.47592">
        <ele>27</ele>
        <time>2013-12-10T16:02:28Z</time>
      </trkpt>
      <trkpt lat="46.40046" lon="-0.47598">
        <ele>27</ele>
        <time>2013-12-10T16:02:33Z</time>
      </trkpt>
      <trkpt lat="46.40038" lon="-0.47601">
        <ele>27</ele>
        <time>2013-12-10T16:02:38Z</time>
      </trkpt>
      <trkpt lat="46.40037" lon="-0.47607">
        <ele>27</ele>
        <time>2013-12-10T16:02:43Z</time>
      </trkpt>
      <trkpt lat="46.40035" lon="-0.47613">
        <ele>27</ele>
        <time>2013-12-10T16:02:48Z</time>
      </trkpt>
      <trkpt lat="46.40032" lon="-0.47618">
        <ele>27</ele>
        <time>2013-12-10T16:02:53Z</time>
      </trkpt>
      <trkpt lat="46.40024" lon="-0.47622">
        <ele>27</ele>
        <time>2013-12-10T16:02:58Z</time>
      </trkpt>
      <trkpt lat="46.40025" lon="-0.47628">
        <ele>29</ele>
        <time>2013-12-10T16:03:03Z</time>
      </trkpt>
      <trkpt lat="46.4002" lon="-0.47633">
        <ele>29</ele>
        <time>2013-12-10T16:03:08Z</time>
      </trkpt>
      <trkpt lat="46.40018" lon="-0.47639">
        <ele>29</ele>
        <time>2013-12-10T16:03:13Z</time>
      </trkpt>
      <trkpt lat="46.40013" lon="-0.47642">
        <ele>29</ele>
        <time>2013-12-10T16:03:18Z</time>
      </trkpt>
      <trkpt lat="46.40011" lon="-0.47642">
        <ele>29</ele>
        <time>2013-12-10T16:03:23Z</time>
      </trkpt>
      <trkpt lat="46.40006" lon="-0.47641">
        <ele>29</ele>
        <time>2013-12-10T16:03:28Z</time>
      </trkpt>
      <trkpt lat="46.40006" lon="-0.47643">
        <ele>29</ele>
        <time>2013-12-10T16:03:33Z</time>
      </trkpt>
      <trkpt lat="46.40005" lon="-0.47644">
        <ele>29</ele>
        <time>2013-12-10T16:03:38Z</time>
      </trkpt>
      <trkpt lat="46.40004" lon="-0.47644">
        <ele>29</ele>
        <time>2013-12-10T16:03:43Z</time>
      </trkpt>
      <trkpt lat="46.39998" lon="-0.47645">
        <ele>29</ele>
        <time>2013-12-10T16:03:48Z</time>
      </trkpt>
      <trkpt lat="46.39994" lon="-0.47647">
        <ele>29</ele>
        <time>2013-12-10T16:03:53Z</time>
      </trkpt>
      <trkpt lat="46.39989" lon="-0.47647">
        <ele>29</ele>
        <time>2013-12-10T16:03:58Z</time>
      </trkpt>
      <trkpt lat="46.39987" lon="-0.47648">
        <ele>29</ele>
        <time>2013-12-10T16:04:03Z</time>
      </trkpt>
      <trkpt lat="46.39981" lon="-0.47647">
        <ele>29</ele>
        <time>2013-12-10T16:04:08Z</time>
      </trkpt>
      <trkpt lat="46.3998" lon="-0.4765">
        <ele>29</ele>
        <time>2013-12-10T16:04:13Z</time>
      </trkpt>
      <trkpt lat="46.39978" lon="-0.47659">
        <ele>29</ele>
        <time>2013-12-10T16:04:18Z</time>
      </trkpt>
      <trkpt lat="46.39978" lon="-0.47659">
        <ele>29</ele>
        <time>2013-12-10T16:04:23Z</time>
      </trkpt>
      <trkpt lat="46.39976" lon="-0.47655">
        <ele>29</ele>
        <time>2013-12-10T16:04:28Z</time>
      </trkpt>
      <trkpt lat="46.39973" lon="-0.47652">
        <ele>29</ele>
        <time>2013-12-10T16:04:33Z</time>
      </trkpt>
      <trkpt lat="46.39973" lon="-0.47652">
        <ele>29</ele>
        <time>2013-12-10T16:04:38Z</time>
      </trkpt>
      <trkpt lat="46.39972" lon="-0.47652">
        <ele>29</ele>
        <time>2013-12-10T16:04:43Z</time>
      </trkpt>
      <trkpt lat="46.39966" lon="-0.47654">
        <ele>29</ele>
        <time>2013-12-10T16:04:58Z</time>
      </trkpt>
      <trkpt lat="46.39958" lon="-0.47656">
        <ele>28</ele>
        <time>2013-12-10T16:05:03Z</time>
      </trkpt>
      <trkpt lat="46.39952" lon="-0.47657">
        <ele>28</ele>
        <time>2013-12-10T16:05:08Z</time>
      </trkpt>
      <trkpt lat="46.39947" lon="-0.47659">
        <ele>28</ele>
        <time>2013-12-10T16:05:13Z</time>
      </trkpt>
      <trkpt lat="46.39942" lon="-0.47659">
        <ele>28</ele>
        <time>2013-12-10T16:05:18Z</time>
      </trkpt>
      <trkpt lat="46.39938" lon="-0.47661">
        <ele>28</ele>
        <time>2013-12-10T16:05:23Z</time>
      </trkpt>
      <trkpt lat="46.39933" lon="-0.47661">
        <ele>28</ele>
        <time>2013-12-10T16:05:28Z</time>
      </trkpt>
      <trkpt lat="46.39929" lon="-0.4766">
        <ele>28</ele>
        <time>2013-12-10T16:05:33Z</time>
      </trkpt>
      <trkpt lat="46.39926" lon="-0.4766">
        <ele>28</ele>
        <time>2013-12-10T16:05:38Z</time>
      </trkpt>
      <trkpt lat="46.39924" lon="-0.47661">
        <ele>28</ele>
        <time>2013-12-10T16:05:43Z</time>
      </trkpt>
      <trkpt lat="46.39923" lon="-0.47661">
        <ele>28</ele>
        <time>2013-12-10T16:05:48Z</time>
      </trkpt>
      <trkpt lat="46.39923" lon="-0.4766">
        <ele>28</ele>
        <time>2013-12-10T16:05:53Z</time>
      </trkpt>
      <trkpt lat="46.39915" lon="-0.47663">
        <ele>28</ele>
        <time>2013-12-10T16:05:58Z</time>
      </trkpt>
      <trkpt lat="46.39914" lon="-0.47669">
        <ele>28</ele>
        <time>2013-12-10T16:06:03Z</time>
      </trkpt>
    </trkseg>
  </trk>
</gpx>